<?xml version='1.0' encoding='UTF-8'?>
<gpx version="1.1" creator="https://www.komoot.de" xmlns="http://www.topografix.com/GPX/1/1" xmlns:xsi="http://www.w3.org/2001/XMLSchema-instance" xsi:schemaLocation="http://www.topografix.com/GPX/1/1 http://www.topografix.com/GPX/1/1/gpx.xsd">
  <metadata>
    <name>50_680MurgHarpWehr</name>
    <author>
      <link href="https://www.komoot.de">
        <text>komoot</text>
        <type>text/html</type>
      </link>
    </author>
  </metadata>
  <trk>
    <name>50_680MurgHarpWehr</name>
    <trkseg>
      <trkpt lat="47.541497" lon="7.870724">
        <ele>341.318301</ele>
        <time>2021-11-10T21:02:30.814Z</time>
      </trkpt>
      <trkpt lat="47.541576" lon="7.870664">
        <ele>341.318301</ele>
        <time>2021-11-10T21:02:32.827Z</time>
      </trkpt>
      <trkpt lat="47.541796" lon="7.871042">
        <ele>341.318301</ele>
        <time>2021-11-10T21:02:40.181Z</time>
      </trkpt>
      <trkpt lat="47.541953" lon="7.871286">
        <ele>341.318301</ele>
        <time>2021-11-10T21:02:45.020Z</time>
      </trkpt>
      <trkpt lat="47.542039" lon="7.871556">
        <ele>341.318301</ele>
        <time>2021-11-10T21:02:49.613Z</time>
      </trkpt>
      <trkpt lat="47.542067" lon="7.871664">
        <ele>341.455764</ele>
        <time>2021-11-10T21:02:51.203Z</time>
      </trkpt>
      <trkpt lat="47.542091" lon="7.871721">
        <ele>341.641555</ele>
        <time>2021-11-10T21:02:51.807Z</time>
      </trkpt>
      <trkpt lat="47.542218" lon="7.871866">
        <ele>342.298462</ele>
        <time>2021-11-10T21:02:57.160Z</time>
      </trkpt>
      <trkpt lat="47.542394" lon="7.872341">
        <ele>343.796995</ele>
        <time>2021-11-10T21:03:07.392Z</time>
      </trkpt>
      <trkpt lat="47.542436" lon="7.872494">
        <ele>344.253777</ele>
        <time>2021-11-10T21:03:10.721Z</time>
      </trkpt>
      <trkpt lat="47.542537" lon="7.872430">
        <ele>344.703829</ele>
        <time>2021-11-10T21:03:12.757Z</time>
      </trkpt>
      <trkpt lat="47.542714" lon="7.872334">
        <ele>345.476052</ele>
        <time>2021-11-10T21:03:19.869Z</time>
      </trkpt>
      <trkpt lat="47.542814" lon="7.872280">
        <ele>345.912111</ele>
        <time>2021-11-10T21:03:22.747Z</time>
      </trkpt>
      <trkpt lat="47.542919" lon="7.872226">
        <ele>346.367469</ele>
        <time>2021-11-10T21:03:26.587Z</time>
      </trkpt>
      <trkpt lat="47.543013" lon="7.872182">
        <ele>346.771344</ele>
        <time>2021-11-10T21:03:30.217Z</time>
      </trkpt>
      <trkpt lat="47.543233" lon="7.872082">
        <ele>347.714133</ele>
        <time>2021-11-10T21:03:37.315Z</time>
      </trkpt>
      <trkpt lat="47.543251" lon="7.872152">
        <ele>347.921291</ele>
        <time>2021-11-10T21:03:40.729Z</time>
      </trkpt>
      <trkpt lat="47.543332" lon="7.872237">
        <ele>348.327962</ele>
        <time>2021-11-10T21:03:44.139Z</time>
      </trkpt>
      <trkpt lat="47.544390" lon="7.872423">
        <ele>355.051432</ele>
        <time>2021-11-10T21:04:25.771Z</time>
      </trkpt>
      <trkpt lat="47.544883" lon="7.872555">
        <ele>358.312409</ele>
        <time>2021-11-10T21:04:48.114Z</time>
      </trkpt>
      <trkpt lat="47.545131" lon="7.872664">
        <ele>359.996209</ele>
        <time>2021-11-10T21:04:59.118Z</time>
      </trkpt>
      <trkpt lat="47.545375" lon="7.872836">
        <ele>361.740208</ele>
        <time>2021-11-10T21:05:10.059Z</time>
      </trkpt>
      <trkpt lat="47.545478" lon="7.872968">
        <ele>362.617011</ele>
        <time>2021-11-10T21:05:16.866Z</time>
      </trkpt>
      <trkpt lat="47.545515" lon="7.873015">
        <ele>362.930795</ele>
        <time>2021-11-10T21:05:18.823Z</time>
      </trkpt>
      <trkpt lat="47.545746" lon="7.873302">
        <ele>364.871742</ele>
        <time>2021-11-10T21:05:32.022Z</time>
      </trkpt>
      <trkpt lat="47.545934" lon="7.873549">
        <ele>366.489489</ele>
        <time>2021-11-10T21:05:42.122Z</time>
      </trkpt>
      <trkpt lat="47.546077" lon="7.873763">
        <ele>367.798087</ele>
        <time>2021-11-10T21:05:51.319Z</time>
      </trkpt>
      <trkpt lat="47.546135" lon="7.873859">
        <ele>368.357975</ele>
        <time>2021-11-10T21:05:54.558Z</time>
      </trkpt>
      <trkpt lat="47.546309" lon="7.874154">
        <ele>370.060424</ele>
        <time>2021-11-10T21:06:05.672Z</time>
      </trkpt>
      <trkpt lat="47.547126" lon="7.875801">
        <ele>375.769310</ele>
        <time>2021-11-10T21:06:51.434Z</time>
      </trkpt>
      <trkpt lat="47.547574" lon="7.876801">
        <ele>378.169453</ele>
        <time>2021-11-10T21:07:10.429Z</time>
      </trkpt>
      <trkpt lat="47.547992" lon="7.877974">
        <ele>377.106504</ele>
        <time>2021-11-10T21:07:23.230Z</time>
      </trkpt>
      <trkpt lat="47.548234" lon="7.878638">
        <ele>376.501794</ele>
        <time>2021-11-10T21:07:28.542Z</time>
      </trkpt>
      <trkpt lat="47.548422" lon="7.878959">
        <ele>376.161225</ele>
        <time>2021-11-10T21:07:31.385Z</time>
      </trkpt>
      <trkpt lat="47.548718" lon="7.879258">
        <ele>374.686710</ele>
        <time>2021-11-10T21:07:34.923Z</time>
      </trkpt>
      <trkpt lat="47.549140" lon="7.879391">
        <ele>372.862188</ele>
        <time>2021-11-10T21:07:39.110Z</time>
      </trkpt>
      <trkpt lat="47.549318" lon="7.879398">
        <ele>372.109181</ele>
        <time>2021-11-10T21:07:40.737Z</time>
      </trkpt>
      <trkpt lat="47.549327" lon="7.879547">
        <ele>371.682189</ele>
        <time>2021-11-10T21:07:41.723Z</time>
      </trkpt>
      <trkpt lat="47.549726" lon="7.880786">
        <ele>367.888115</ele>
        <time>2021-11-10T21:07:50.658Z</time>
      </trkpt>
      <trkpt lat="47.549927" lon="7.881490">
        <ele>366.056120</ele>
        <time>2021-11-10T21:07:55.690Z</time>
      </trkpt>
      <trkpt lat="47.550234" lon="7.883221">
        <ele>361.673271</ele>
        <time>2021-11-10T21:08:08.090Z</time>
      </trkpt>
      <trkpt lat="47.550332" lon="7.884727">
        <ele>357.168945</ele>
        <time>2021-11-10T21:08:17.935Z</time>
      </trkpt>
      <trkpt lat="47.550391" lon="7.885109">
        <ele>356.002292</ele>
        <time>2021-11-10T21:08:20.467Z</time>
      </trkpt>
      <trkpt lat="47.550548" lon="7.885799">
        <ele>353.718739</ele>
        <time>2021-11-10T21:08:25.072Z</time>
      </trkpt>
      <trkpt lat="47.550677" lon="7.886476">
        <ele>350.993522</ele>
        <time>2021-11-10T21:08:29.502Z</time>
      </trkpt>
      <trkpt lat="47.550758" lon="7.887295">
        <ele>347.786834</ele>
        <time>2021-11-10T21:08:34.644Z</time>
      </trkpt>
      <trkpt lat="47.550789" lon="7.887816">
        <ele>345.760655</ele>
        <time>2021-11-10T21:08:37.876Z</time>
      </trkpt>
      <trkpt lat="47.550831" lon="7.888611">
        <ele>342.565808</ele>
        <time>2021-11-10T21:08:42.832Z</time>
      </trkpt>
      <trkpt lat="47.550833" lon="7.889069">
        <ele>340.638337</ele>
        <time>2021-11-10T21:08:45.642Z</time>
      </trkpt>
      <trkpt lat="47.550915" lon="7.890600">
        <ele>334.175083</ele>
        <time>2021-11-10T21:08:55.035Z</time>
      </trkpt>
      <trkpt lat="47.550904" lon="7.891725">
        <ele>330.657462</ele>
        <time>2021-11-10T21:09:02.039Z</time>
      </trkpt>
      <trkpt lat="47.550892" lon="7.893176">
        <ele>326.845149</ele>
        <time>2021-11-10T21:09:11.651Z</time>
      </trkpt>
      <trkpt lat="47.550908" lon="7.894308">
        <ele>325.104771</ele>
        <time>2021-11-10T21:09:20.856Z</time>
      </trkpt>
      <trkpt lat="47.550878" lon="7.895158">
        <ele>324.394903</ele>
        <time>2021-11-10T21:09:28.041Z</time>
      </trkpt>
      <trkpt lat="47.550838" lon="7.895509">
        <ele>324.098025</ele>
        <time>2021-11-10T21:09:31.205Z</time>
      </trkpt>
      <trkpt lat="47.550660" lon="7.896255">
        <ele>323.414435</ele>
        <time>2021-11-10T21:09:37.693Z</time>
      </trkpt>
      <trkpt lat="47.550639" lon="7.896345">
        <ele>323.231332</ele>
        <time>2021-11-10T21:09:38.881Z</time>
      </trkpt>
      <trkpt lat="47.550648" lon="7.896481">
        <ele>322.968575</ele>
        <time>2021-11-10T21:09:39.836Z</time>
      </trkpt>
      <trkpt lat="47.550819" lon="7.898109">
        <ele>319.800555</ele>
        <time>2021-11-10T21:09:51.584Z</time>
      </trkpt>
      <trkpt lat="47.550801" lon="7.900244">
        <ele>314.393155</ele>
        <time>2021-11-10T21:10:05.421Z</time>
      </trkpt>
      <trkpt lat="47.550769" lon="7.901362">
        <ele>311.179314</ele>
        <time>2021-11-10T21:10:12.693Z</time>
      </trkpt>
      <trkpt lat="47.550757" lon="7.901591">
        <ele>310.541921</ele>
        <time>2021-11-10T21:10:14.829Z</time>
      </trkpt>
      <trkpt lat="47.550688" lon="7.902451">
        <ele>308.403719</ele>
        <time>2021-11-10T21:10:23.263Z</time>
      </trkpt>
      <trkpt lat="47.550498" lon="7.903445">
        <ele>305.853110</ele>
        <time>2021-11-10T21:10:33.513Z</time>
      </trkpt>
      <trkpt lat="47.550302" lon="7.904164">
        <ele>303.940112</ele>
        <time>2021-11-10T21:10:40.773Z</time>
      </trkpt>
      <trkpt lat="47.550025" lon="7.904774">
        <ele>302.141567</ele>
        <time>2021-11-10T21:10:47.698Z</time>
      </trkpt>
      <trkpt lat="47.549868" lon="7.905010">
        <ele>301.330939</ele>
        <time>2021-11-10T21:10:50.829Z</time>
      </trkpt>
      <trkpt lat="47.549867" lon="7.905155">
        <ele>300.976204</ele>
        <time>2021-11-10T21:10:52.226Z</time>
      </trkpt>
      <trkpt lat="47.550067" lon="7.905245">
        <ele>300.218615</ele>
        <time>2021-11-10T21:10:55.151Z</time>
      </trkpt>
      <trkpt lat="47.550283" lon="7.905413">
        <ele>299.334416</ele>
        <time>2021-11-10T21:10:58.601Z</time>
      </trkpt>
      <trkpt lat="47.550497" lon="7.905558">
        <ele>298.481521</ele>
        <time>2021-11-10T21:11:01.960Z</time>
      </trkpt>
      <trkpt lat="47.549539" lon="7.908625">
        <ele>293.083241</ele>
        <time>2021-11-10T21:11:26.409Z</time>
      </trkpt>
      <trkpt lat="47.549520" lon="7.908678">
        <ele>293.028342</ele>
        <time>2021-11-10T21:11:26.910Z</time>
      </trkpt>
      <trkpt lat="47.549280" lon="7.909474">
        <ele>292.230805</ele>
        <time>2021-11-10T21:11:34.023Z</time>
      </trkpt>
      <trkpt lat="47.549195" lon="7.909756">
        <ele>291.948274</ele>
        <time>2021-11-10T21:11:36.549Z</time>
      </trkpt>
      <trkpt lat="47.549102" lon="7.910058">
        <ele>291.644605</ele>
        <time>2021-11-10T21:11:39.251Z</time>
      </trkpt>
      <trkpt lat="47.549012" lon="7.910340">
        <ele>291.359242</ele>
        <time>2021-11-10T21:11:41.765Z</time>
      </trkpt>
      <trkpt lat="47.548412" lon="7.912168">
        <ele>289.821342</ele>
        <time>2021-11-10T21:11:58.085Z</time>
      </trkpt>
      <trkpt lat="47.548027" lon="7.913334">
        <ele>289.022235</ele>
        <time>2021-11-10T21:12:08.846Z</time>
      </trkpt>
      <trkpt lat="47.547994" lon="7.913433">
        <ele>289.004046</ele>
        <time>2021-11-10T21:12:09.766Z</time>
      </trkpt>
      <trkpt lat="47.547423" lon="7.915080">
        <ele>288.699016</ele>
        <time>2021-11-10T21:12:27.255Z</time>
      </trkpt>
      <trkpt lat="47.547113" lon="7.915971">
        <ele>288.812432</ele>
        <time>2021-11-10T21:12:37.893Z</time>
      </trkpt>
      <trkpt lat="47.547091" lon="7.916039">
        <ele>288.839541</ele>
        <time>2021-11-10T21:12:38.943Z</time>
      </trkpt>
      <trkpt lat="47.547032" lon="7.916218">
        <ele>288.911153</ele>
        <time>2021-11-10T21:12:41.213Z</time>
      </trkpt>
      <trkpt lat="47.546821" lon="7.916867">
        <ele>289.170118</ele>
        <time>2021-11-10T21:12:49.628Z</time>
      </trkpt>
      <trkpt lat="47.546262" lon="7.919081">
        <ele>289.834232</ele>
        <time>2021-11-10T21:13:17.290Z</time>
      </trkpt>
      <trkpt lat="47.546128" lon="7.919617">
        <ele>289.953112</ele>
        <time>2021-11-10T21:13:22.718Z</time>
      </trkpt>
      <trkpt lat="47.545973" lon="7.920313">
        <ele>290.105544</ele>
        <time>2021-11-10T21:13:30.137Z</time>
      </trkpt>
      <trkpt lat="47.545913" lon="7.920765">
        <ele>290.415564</ele>
        <time>2021-11-10T21:13:34.895Z</time>
      </trkpt>
      <trkpt lat="47.545881" lon="7.921096">
        <ele>290.704893</ele>
        <time>2021-11-10T21:13:38.862Z</time>
      </trkpt>
      <trkpt lat="47.545810" lon="7.921755">
        <ele>291.282327</ele>
        <time>2021-11-10T21:13:47.472Z</time>
      </trkpt>
      <trkpt lat="47.545778" lon="7.921947">
        <ele>291.453449</ele>
        <time>2021-11-10T21:13:50.425Z</time>
      </trkpt>
      <trkpt lat="47.545714" lon="7.922249">
        <ele>291.727338</ele>
        <time>2021-11-10T21:13:54.279Z</time>
      </trkpt>
      <trkpt lat="47.545699" lon="7.922325">
        <ele>291.795853</ele>
        <time>2021-11-10T21:13:55.476Z</time>
      </trkpt>
      <trkpt lat="47.545690" lon="7.922369">
        <ele>291.835635</ele>
        <time>2021-11-10T21:13:56.548Z</time>
      </trkpt>
      <trkpt lat="47.545641" lon="7.922610">
        <ele>292.053421</ele>
        <time>2021-11-10T21:13:59.903Z</time>
      </trkpt>
      <trkpt lat="47.545587" lon="7.922895">
        <ele>292.309557</ele>
        <time>2021-11-10T21:14:04.735Z</time>
      </trkpt>
      <trkpt lat="47.545553" lon="7.923142">
        <ele>292.693066</ele>
        <time>2021-11-10T21:14:08.346Z</time>
      </trkpt>
      <trkpt lat="47.545536" lon="7.923407">
        <ele>293.354086</ele>
        <time>2021-11-10T21:14:13.222Z</time>
      </trkpt>
      <trkpt lat="47.545521" lon="7.923709">
        <ele>294.106047</ele>
        <time>2021-11-10T21:14:18.388Z</time>
      </trkpt>
      <trkpt lat="47.545481" lon="7.924396">
        <ele>295.818359</ele>
        <time>2021-11-10T21:14:32.992Z</time>
      </trkpt>
      <trkpt lat="47.545466" lon="7.924880">
        <ele>297.021508</ele>
        <time>2021-11-10T21:14:44.298Z</time>
      </trkpt>
      <trkpt lat="47.545446" lon="7.925350">
        <ele>298.190943</ele>
        <time>2021-11-10T21:14:54.673Z</time>
      </trkpt>
      <trkpt lat="47.545417" lon="7.925848">
        <ele>299.272266</ele>
        <time>2021-11-10T21:15:05.152Z</time>
      </trkpt>
      <trkpt lat="47.545409" lon="7.926773">
        <ele>300.592543</ele>
        <time>2021-11-10T21:15:22.353Z</time>
      </trkpt>
      <trkpt lat="47.545407" lon="7.927001">
        <ele>300.917974</ele>
        <time>2021-11-10T21:15:26.162Z</time>
      </trkpt>
      <trkpt lat="47.545406" lon="7.927306">
        <ele>301.353279</ele>
        <time>2021-11-10T21:15:30.767Z</time>
      </trkpt>
      <trkpt lat="47.545421" lon="7.927686">
        <ele>301.896545</ele>
        <time>2021-11-10T21:15:36.302Z</time>
      </trkpt>
      <trkpt lat="47.545475" lon="7.928419">
        <ele>302.795233</ele>
        <time>2021-11-10T21:15:45.620Z</time>
      </trkpt>
      <trkpt lat="47.545563" lon="7.929641">
        <ele>301.546903</ele>
        <time>2021-11-10T21:15:55.499Z</time>
      </trkpt>
      <trkpt lat="47.545661" lon="7.930955">
        <ele>300.204045</ele>
        <time>2021-11-10T21:16:04.895Z</time>
      </trkpt>
      <trkpt lat="47.545696" lon="7.931497">
        <ele>299.773294</ele>
        <time>2021-11-10T21:16:08.864Z</time>
      </trkpt>
      <trkpt lat="47.545721" lon="7.931992">
        <ele>299.392067</ele>
        <time>2021-11-10T21:16:12.656Z</time>
      </trkpt>
      <trkpt lat="47.545724" lon="7.932758">
        <ele>298.803763</ele>
        <time>2021-11-10T21:16:18.866Z</time>
      </trkpt>
      <trkpt lat="47.545702" lon="7.933290">
        <ele>298.394416</ele>
        <time>2021-11-10T21:16:23.509Z</time>
      </trkpt>
      <trkpt lat="47.545674" lon="7.933625">
        <ele>298.135168</ele>
        <time>2021-11-10T21:16:26.709Z</time>
      </trkpt>
      <trkpt lat="47.545457" lon="7.935110">
        <ele>299.104644</ele>
        <time>2021-11-10T21:16:44.844Z</time>
      </trkpt>
      <trkpt lat="47.545074" lon="7.936484">
        <ele>300.262691</ele>
        <time>2021-11-10T21:17:06.371Z</time>
      </trkpt>
      <trkpt lat="47.544903" lon="7.936917">
        <ele>300.858721</ele>
        <time>2021-11-10T21:17:13.688Z</time>
      </trkpt>
      <trkpt lat="47.544705" lon="7.937395">
        <ele>301.525045</ele>
        <time>2021-11-10T21:17:21.872Z</time>
      </trkpt>
      <trkpt lat="47.544472" lon="7.937932">
        <ele>302.283504</ele>
        <time>2021-11-10T21:17:31.279Z</time>
      </trkpt>
      <trkpt lat="47.543826" lon="7.939433">
        <ele>304.331727</ele>
        <time>2021-11-10T21:17:58.161Z</time>
      </trkpt>
      <trkpt lat="47.543435" lon="7.940670">
        <ele>305.873117</ele>
        <time>2021-11-10T21:18:18.121Z</time>
      </trkpt>
      <trkpt lat="47.543161" lon="7.942213">
        <ele>306.498206</ele>
        <time>2021-11-10T21:18:38.970Z</time>
      </trkpt>
      <trkpt lat="47.543007" lon="7.943867">
        <ele>306.344246</ele>
        <time>2021-11-10T21:18:54.515Z</time>
      </trkpt>
      <trkpt lat="47.542913" lon="7.945267">
        <ele>304.586685</ele>
        <time>2021-11-10T21:19:05.274Z</time>
      </trkpt>
      <trkpt lat="47.542872" lon="7.945781">
        <ele>303.940109</ele>
        <time>2021-11-10T21:19:08.870Z</time>
      </trkpt>
      <trkpt lat="47.542875" lon="7.946089">
        <ele>303.555303</ele>
        <time>2021-11-10T21:19:10.961Z</time>
      </trkpt>
      <trkpt lat="47.542902" lon="7.946514">
        <ele>302.897785</ele>
        <time>2021-11-10T21:19:13.840Z</time>
      </trkpt>
      <trkpt lat="47.542943" lon="7.946806">
        <ele>302.436236</ele>
        <time>2021-11-10T21:19:15.887Z</time>
      </trkpt>
      <trkpt lat="47.542974" lon="7.946965">
        <ele>302.180122</ele>
        <time>2021-11-10T21:19:17.098Z</time>
      </trkpt>
      <trkpt lat="47.542979" lon="7.946989">
        <ele>302.141253</ele>
        <time>2021-11-10T21:19:17.253Z</time>
      </trkpt>
      <trkpt lat="47.543007" lon="7.947104">
        <ele>301.952065</ele>
        <time>2021-11-10T21:19:18.102Z</time>
      </trkpt>
      <trkpt lat="47.543087" lon="7.947317">
        <ele>301.574857</ele>
        <time>2021-11-10T21:19:19.844Z</time>
      </trkpt>
      <trkpt lat="47.543191" lon="7.947615">
        <ele>301.055711</ele>
        <time>2021-11-10T21:19:22.286Z</time>
      </trkpt>
      <trkpt lat="47.543242" lon="7.947745">
        <ele>300.823027</ele>
        <time>2021-11-10T21:19:23.415Z</time>
      </trkpt>
      <trkpt lat="47.543273" lon="7.947816">
        <ele>300.692173</ele>
        <time>2021-11-10T21:19:24.043Z</time>
      </trkpt>
      <trkpt lat="47.543358" lon="7.947967">
        <ele>300.387911</ele>
        <time>2021-11-10T21:19:25.485Z</time>
      </trkpt>
      <trkpt lat="47.543455" lon="7.948127">
        <ele>300.055111</ele>
        <time>2021-11-10T21:19:27.152Z</time>
      </trkpt>
      <trkpt lat="47.543532" lon="7.948214">
        <ele>299.833105</ele>
        <time>2021-11-10T21:19:28.233Z</time>
      </trkpt>
      <trkpt lat="47.543579" lon="7.948287">
        <ele>299.676992</ele>
        <time>2021-11-10T21:19:28.997Z</time>
      </trkpt>
      <trkpt lat="47.543760" lon="7.948548">
        <ele>299.419488</ele>
        <time>2021-11-10T21:19:31.885Z</time>
      </trkpt>
      <trkpt lat="47.543864" lon="7.948694">
        <ele>299.419997</ele>
        <time>2021-11-10T21:19:33.557Z</time>
      </trkpt>
      <trkpt lat="47.544239" lon="7.949202">
        <ele>299.421804</ele>
        <time>2021-11-10T21:19:40.919Z</time>
      </trkpt>
      <trkpt lat="47.544521" lon="7.949558">
        <ele>299.423121</ele>
        <time>2021-11-10T21:19:47.093Z</time>
      </trkpt>
      <trkpt lat="47.544901" lon="7.950044">
        <ele>299.424906</ele>
        <time>2021-11-10T21:19:56.250Z</time>
      </trkpt>
      <trkpt lat="47.545166" lon="7.950366">
        <ele>299.456681</ele>
        <time>2021-11-10T21:20:02.580Z</time>
      </trkpt>
      <trkpt lat="47.545434" lon="7.950668">
        <ele>299.507325</ele>
        <time>2021-11-10T21:20:08.365Z</time>
      </trkpt>
      <trkpt lat="47.545542" lon="7.950842">
        <ele>299.531323</ele>
        <time>2021-11-10T21:20:10.849Z</time>
      </trkpt>
      <trkpt lat="47.545667" lon="7.950979">
        <ele>299.554709</ele>
        <time>2021-11-10T21:20:13.385Z</time>
      </trkpt>
      <trkpt lat="47.545737" lon="7.951055">
        <ele>299.567761</ele>
        <time>2021-11-10T21:20:14.658Z</time>
      </trkpt>
      <trkpt lat="47.545876" lon="7.951233">
        <ele>299.595395</ele>
        <time>2021-11-10T21:20:17.401Z</time>
      </trkpt>
      <trkpt lat="47.546112" lon="7.951485">
        <ele>299.639149</ele>
        <time>2021-11-10T21:20:21.534Z</time>
      </trkpt>
      <trkpt lat="47.546164" lon="7.951520">
        <ele>299.647740</ele>
        <time>2021-11-10T21:20:22.373Z</time>
      </trkpt>
      <trkpt lat="47.546212" lon="7.951535">
        <ele>299.655118</ele>
        <time>2021-11-10T21:20:23.087Z</time>
      </trkpt>
      <trkpt lat="47.546231" lon="7.951558">
        <ele>299.658808</ele>
        <time>2021-11-10T21:20:23.405Z</time>
      </trkpt>
      <trkpt lat="47.546421" lon="7.951793">
        <ele>299.695554</ele>
        <time>2021-11-10T21:20:26.709Z</time>
      </trkpt>
      <trkpt lat="47.546634" lon="7.952024">
        <ele>299.586491</ele>
        <time>2021-11-10T21:20:30.138Z</time>
      </trkpt>
      <trkpt lat="47.546695" lon="7.952091">
        <ele>299.555117</ele>
        <time>2021-11-10T21:20:31.102Z</time>
      </trkpt>
      <trkpt lat="47.546776" lon="7.952185">
        <ele>299.512606</ele>
        <time>2021-11-10T21:20:32.452Z</time>
      </trkpt>
      <trkpt lat="47.546935" lon="7.952372">
        <ele>299.428730</ele>
        <time>2021-11-10T21:20:35.100Z</time>
      </trkpt>
      <trkpt lat="47.547090" lon="7.952543">
        <ele>299.348885</ele>
        <time>2021-11-10T21:20:37.710Z</time>
      </trkpt>
      <trkpt lat="47.547400" lon="7.952910">
        <ele>299.184935</ele>
        <time>2021-11-10T21:20:43.114Z</time>
      </trkpt>
      <trkpt lat="47.547458" lon="7.952975">
        <ele>299.154888</ele>
        <time>2021-11-10T21:20:44.100Z</time>
      </trkpt>
      <trkpt lat="47.547550" lon="7.953078">
        <ele>299.107244</ele>
        <time>2021-11-10T21:20:45.709Z</time>
      </trkpt>
      <trkpt lat="47.547624" lon="7.953160">
        <ele>299.069064</ele>
        <time>2021-11-10T21:20:46.965Z</time>
      </trkpt>
      <trkpt lat="47.547797" lon="7.953355">
        <ele>298.979252</ele>
        <time>2021-11-10T21:20:49.969Z</time>
      </trkpt>
      <trkpt lat="47.547871" lon="7.953437">
        <ele>298.930979</ele>
        <time>2021-11-10T21:20:51.263Z</time>
      </trkpt>
      <trkpt lat="47.547994" lon="7.953584">
        <ele>298.809374</ele>
        <time>2021-11-10T21:20:53.444Z</time>
      </trkpt>
      <trkpt lat="47.548115" lon="7.953729">
        <ele>298.689620</ele>
        <time>2021-11-10T21:20:55.594Z</time>
      </trkpt>
      <trkpt lat="47.548251" lon="7.953895">
        <ele>298.554026</ele>
        <time>2021-11-10T21:20:57.994Z</time>
      </trkpt>
      <trkpt lat="47.548335" lon="7.953779">
        <ele>298.465663</ele>
        <time>2021-11-10T21:20:59.900Z</time>
      </trkpt>
      <trkpt lat="47.549296" lon="7.953268">
        <ele>297.679991</ele>
        <time>2021-11-10T21:21:18.215Z</time>
      </trkpt>
      <trkpt lat="47.549442" lon="7.953195">
        <ele>297.550705</ele>
        <time>2021-11-10T21:21:20.767Z</time>
      </trkpt>
      <trkpt lat="47.549640" lon="7.953086">
        <ele>297.149747</ele>
        <time>2021-11-10T21:21:24.480Z</time>
      </trkpt>
      <trkpt lat="47.549673" lon="7.953076">
        <ele>297.085808</ele>
        <time>2021-11-10T21:21:25.039Z</time>
      </trkpt>
      <trkpt lat="47.549687" lon="7.953071">
        <ele>297.058472</ele>
        <time>2021-11-10T21:21:25.231Z</time>
      </trkpt>
      <trkpt lat="47.550567" lon="7.953069">
        <ele>295.388018</ele>
        <time>2021-11-10T21:21:39.407Z</time>
      </trkpt>
      <trkpt lat="47.550656" lon="7.953072">
        <ele>295.219031</ele>
        <time>2021-11-10T21:21:40.723Z</time>
      </trkpt>
      <trkpt lat="47.550967" lon="7.953063">
        <ele>294.628566</ele>
        <time>2021-11-10T21:21:45.488Z</time>
      </trkpt>
      <trkpt lat="47.551254" lon="7.952986">
        <ele>294.079310</ele>
        <time>2021-11-10T21:21:49.876Z</time>
      </trkpt>
      <trkpt lat="47.551295" lon="7.952900">
        <ele>293.951871</ele>
        <time>2021-11-10T21:21:50.940Z</time>
      </trkpt>
      <trkpt lat="47.551334" lon="7.952777">
        <ele>293.787389</ele>
        <time>2021-11-10T21:21:53.615Z</time>
      </trkpt>
      <trkpt lat="47.551339" lon="7.952761">
        <ele>293.766049</ele>
        <time>2021-11-10T21:21:53.985Z</time>
      </trkpt>
      <trkpt lat="47.551381" lon="7.952341">
        <ele>293.252155</ele>
        <time>2021-11-10T21:22:02.767Z</time>
      </trkpt>
      <trkpt lat="47.551506" lon="7.950255">
        <ele>290.925593</ele>
        <time>2021-11-10T21:22:48.306Z</time>
      </trkpt>
      <trkpt lat="47.551525" lon="7.950027">
        <ele>290.921142</ele>
        <time>2021-11-10T21:22:53.771Z</time>
      </trkpt>
      <trkpt lat="47.551581" lon="7.949830">
        <ele>290.917001</ele>
        <time>2021-11-10T21:22:58.915Z</time>
      </trkpt>
      <trkpt lat="47.551673" lon="7.949634">
        <ele>290.912377</ele>
        <time>2021-11-10T21:23:05.016Z</time>
      </trkpt>
      <trkpt lat="47.551794" lon="7.949387">
        <ele>290.906464</ele>
        <time>2021-11-10T21:23:12.563Z</time>
      </trkpt>
      <trkpt lat="47.551894" lon="7.949226">
        <ele>290.902226</ele>
        <time>2021-11-10T21:23:18.323Z</time>
      </trkpt>
      <trkpt lat="47.552010" lon="7.949039">
        <ele>290.897305</ele>
        <time>2021-11-10T21:23:24.750Z</time>
      </trkpt>
      <trkpt lat="47.552049" lon="7.948982">
        <ele>290.895733</ele>
        <time>2021-11-10T21:23:26.922Z</time>
      </trkpt>
      <trkpt lat="47.552094" lon="7.948926">
        <ele>290.894046</ele>
        <time>2021-11-10T21:23:29.299Z</time>
      </trkpt>
      <trkpt lat="47.552202" lon="7.949003">
        <ele>290.890606</ele>
        <time>2021-11-10T21:23:33.994Z</time>
      </trkpt>
      <trkpt lat="47.552351" lon="7.949099">
        <ele>290.885943</ele>
        <time>2021-11-10T21:23:40.386Z</time>
      </trkpt>
      <trkpt lat="47.552382" lon="7.949119">
        <ele>290.884972</ele>
        <time>2021-11-10T21:23:41.839Z</time>
      </trkpt>
      <trkpt lat="47.552518" lon="7.949236">
        <ele>290.880458</ele>
        <time>2021-11-10T21:23:48.183Z</time>
      </trkpt>
      <trkpt lat="47.552953" lon="7.948775">
        <ele>290.718195</ele>
        <time>2021-11-10T21:24:09.177Z</time>
      </trkpt>
      <trkpt lat="47.553197" lon="7.948543">
        <ele>290.610036</ele>
        <time>2021-11-10T21:24:19.912Z</time>
      </trkpt>
      <trkpt lat="47.553243" lon="7.948595">
        <ele>290.588450</ele>
        <time>2021-11-10T21:24:21.967Z</time>
      </trkpt>
      <trkpt lat="47.553488" lon="7.949175">
        <ele>290.416170</ele>
        <time>2021-11-10T21:24:38.185Z</time>
      </trkpt>
      <trkpt lat="47.553669" lon="7.949729">
        <ele>290.261198</ele>
        <time>2021-11-10T21:24:52.212Z</time>
      </trkpt>
      <trkpt lat="47.553699" lon="7.949840">
        <ele>290.231092</ele>
        <time>2021-11-10T21:24:54.794Z</time>
      </trkpt>
      <trkpt lat="47.553747" lon="7.950009">
        <ele>290.144561</ele>
        <time>2021-11-10T21:24:58.864Z</time>
      </trkpt>
      <trkpt lat="47.553836" lon="7.950173">
        <ele>289.991686</ele>
        <time>2021-11-10T21:25:03.712Z</time>
      </trkpt>
      <trkpt lat="47.553918" lon="7.950361">
        <ele>289.829076</ele>
        <time>2021-11-10T21:25:08.545Z</time>
      </trkpt>
      <trkpt lat="47.554036" lon="7.950322">
        <ele>289.698943</ele>
        <time>2021-11-10T21:25:12.527Z</time>
      </trkpt>
      <trkpt lat="47.554130" lon="7.950301">
        <ele>289.596620</ele>
        <time>2021-11-10T21:25:15.829Z</time>
      </trkpt>
      <trkpt lat="47.554192" lon="7.950296">
        <ele>289.529786</ele>
        <time>2021-11-10T21:25:17.787Z</time>
      </trkpt>
      <trkpt lat="47.554240" lon="7.950300">
        <ele>289.478038</ele>
        <time>2021-11-10T21:25:19.345Z</time>
      </trkpt>
      <trkpt lat="47.554303" lon="7.950312">
        <ele>289.409669</ele>
        <time>2021-11-10T21:25:20.083Z</time>
      </trkpt>
      <trkpt lat="47.554392" lon="7.950331">
        <ele>289.312882</ele>
        <time>2021-11-10T21:25:21.157Z</time>
      </trkpt>
      <trkpt lat="47.554652" lon="7.950448">
        <ele>289.020403</ele>
        <time>2021-11-10T21:25:24.370Z</time>
      </trkpt>
      <trkpt lat="47.554759" lon="7.950515">
        <ele>288.895369</ele>
        <time>2021-11-10T21:25:25.776Z</time>
      </trkpt>
      <trkpt lat="47.554954" lon="7.950665">
        <ele>288.658878</ele>
        <time>2021-11-10T21:25:28.409Z</time>
      </trkpt>
      <trkpt lat="47.555474" lon="7.951144">
        <ele>288.289225</ele>
        <time>2021-11-10T21:25:36.294Z</time>
      </trkpt>
      <trkpt lat="47.555687" lon="7.951449">
        <ele>288.311502</ele>
        <time>2021-11-10T21:25:40.378Z</time>
      </trkpt>
      <trkpt lat="47.556339" lon="7.952382">
        <ele>288.379669</ele>
        <time>2021-11-10T21:25:54.440Z</time>
      </trkpt>
      <trkpt lat="47.556386" lon="7.952449">
        <ele>288.384574</ele>
        <time>2021-11-10T21:25:55.609Z</time>
      </trkpt>
      <trkpt lat="47.556400" lon="7.952468">
        <ele>288.386002</ele>
        <time>2021-11-10T21:25:55.921Z</time>
      </trkpt>
      <trkpt lat="47.557120" lon="7.953536">
        <ele>288.846714</ele>
        <time>2021-11-10T21:26:13.949Z</time>
      </trkpt>
      <trkpt lat="47.557517" lon="7.954117">
        <ele>289.171328</ele>
        <time>2021-11-10T21:26:23.795Z</time>
      </trkpt>
      <trkpt lat="47.557687" lon="7.954371">
        <ele>289.311776</ele>
        <time>2021-11-10T21:26:27.909Z</time>
      </trkpt>
      <trkpt lat="47.557874" lon="7.954579">
        <ele>289.447805</ele>
        <time>2021-11-10T21:26:31.636Z</time>
      </trkpt>
      <trkpt lat="47.557899" lon="7.954581">
        <ele>289.450940</ele>
        <time>2021-11-10T21:26:32.133Z</time>
      </trkpt>
      <trkpt lat="47.557935" lon="7.954571">
        <ele>289.448798</ele>
        <time>2021-11-10T21:26:32.783Z</time>
      </trkpt>
      <trkpt lat="47.558070" lon="7.954468">
        <ele>289.439919</ele>
        <time>2021-11-10T21:26:35.152Z</time>
      </trkpt>
      <trkpt lat="47.558107" lon="7.954410">
        <ele>289.436769</ele>
        <time>2021-11-10T21:26:36.082Z</time>
      </trkpt>
      <trkpt lat="47.558161" lon="7.954466">
        <ele>289.432915</ele>
        <time>2021-11-10T21:26:37.074Z</time>
      </trkpt>
      <trkpt lat="47.558201" lon="7.954539">
        <ele>289.429204</ele>
        <time>2021-11-10T21:26:38.156Z</time>
      </trkpt>
      <trkpt lat="47.558360" lon="7.955074">
        <ele>289.406136</ele>
        <time>2021-11-10T21:26:44.360Z</time>
      </trkpt>
      <trkpt lat="47.558659" lon="7.956055">
        <ele>289.363659</ele>
        <time>2021-11-10T21:26:54.661Z</time>
      </trkpt>
      <trkpt lat="47.558756" lon="7.956469">
        <ele>289.342762</ele>
        <time>2021-11-10T21:26:58.554Z</time>
      </trkpt>
      <trkpt lat="47.559224" lon="7.958738">
        <ele>288.485840</ele>
        <time>2021-11-10T21:27:18.998Z</time>
      </trkpt>
      <trkpt lat="47.559324" lon="7.959601">
        <ele>288.546009</ele>
        <time>2021-11-10T21:27:27.356Z</time>
      </trkpt>
      <trkpt lat="47.559346" lon="7.959868">
        <ele>288.619282</ele>
        <time>2021-11-10T21:27:30.450Z</time>
      </trkpt>
      <trkpt lat="47.559406" lon="7.960730">
        <ele>288.855341</ele>
        <time>2021-11-10T21:27:39.933Z</time>
      </trkpt>
      <trkpt lat="47.559408" lon="7.961845">
        <ele>289.182231</ele>
        <time>2021-11-10T21:27:53.698Z</time>
      </trkpt>
      <trkpt lat="47.559368" lon="7.962709">
        <ele>289.529963</ele>
        <time>2021-11-10T21:28:04.940Z</time>
      </trkpt>
      <trkpt lat="47.559232" lon="7.963800">
        <ele>289.975438</ele>
        <time>2021-11-10T21:28:17.532Z</time>
      </trkpt>
      <trkpt lat="47.559029" lon="7.964894">
        <ele>290.107642</ele>
        <time>2021-11-10T21:28:29.235Z</time>
      </trkpt>
      <trkpt lat="47.558949" lon="7.965326">
        <ele>290.055399</ele>
        <time>2021-11-10T21:28:33.471Z</time>
      </trkpt>
      <trkpt lat="47.558732" lon="7.966356">
        <ele>289.929561</ele>
        <time>2021-11-10T21:28:43.354Z</time>
      </trkpt>
      <trkpt lat="47.558606" lon="7.966985">
        <ele>289.875036</ele>
        <time>2021-11-10T21:28:49.610Z</time>
      </trkpt>
      <trkpt lat="47.558448" lon="7.967701">
        <ele>289.903949</ele>
        <time>2021-11-10T21:28:56.864Z</time>
      </trkpt>
      <trkpt lat="47.558430" lon="7.967788">
        <ele>289.907441</ele>
        <time>2021-11-10T21:28:57.748Z</time>
      </trkpt>
      <trkpt lat="47.558327" lon="7.968108">
        <ele>289.921049</ele>
        <time>2021-11-10T21:29:01.701Z</time>
      </trkpt>
      <trkpt lat="47.558313" lon="7.968259">
        <ele>289.926899</ele>
        <time>2021-11-10T21:29:03.160Z</time>
      </trkpt>
      <trkpt lat="47.558296" lon="7.968403">
        <ele>289.932510</ele>
        <time>2021-11-10T21:29:04.963Z</time>
      </trkpt>
      <trkpt lat="47.558225" lon="7.968807">
        <ele>289.948533</ele>
        <time>2021-11-10T21:29:09.416Z</time>
      </trkpt>
      <trkpt lat="47.558045" lon="7.969704">
        <ele>289.930168</ele>
        <time>2021-11-10T21:29:18.987Z</time>
      </trkpt>
      <trkpt lat="47.557756" lon="7.971140">
        <ele>289.739185</ele>
        <time>2021-11-10T21:29:33.678Z</time>
      </trkpt>
      <trkpt lat="47.557538" lon="7.972196">
        <ele>289.619642</ele>
        <time>2021-11-10T21:29:43.362Z</time>
      </trkpt>
      <trkpt lat="47.557419" lon="7.972636">
        <ele>289.597168</ele>
        <time>2021-11-10T21:29:47.617Z</time>
      </trkpt>
      <trkpt lat="47.557323" lon="7.972992">
        <ele>289.578993</ele>
        <time>2021-11-10T21:29:51.234Z</time>
      </trkpt>
      <trkpt lat="47.557235" lon="7.973507">
        <ele>289.553806</ele>
        <time>2021-11-10T21:29:56.312Z</time>
      </trkpt>
      <trkpt lat="47.557108" lon="7.974186">
        <ele>289.520401</ele>
        <time>2021-11-10T21:30:03.464Z</time>
      </trkpt>
      <trkpt lat="47.557045" lon="7.974526">
        <ele>289.531736</ele>
        <time>2021-11-10T21:30:07.499Z</time>
      </trkpt>
      <trkpt lat="47.556769" lon="7.976421">
        <ele>290.636213</ele>
        <time>2021-11-10T21:30:31.659Z</time>
      </trkpt>
      <trkpt lat="47.556668" lon="7.978159">
        <ele>291.278515</ele>
        <time>2021-11-10T21:30:53.573Z</time>
      </trkpt>
      <trkpt lat="47.557185" lon="7.988787">
        <ele>293.684353</ele>
        <time>2021-11-10T21:32:47.908Z</time>
      </trkpt>
      <trkpt lat="47.557298" lon="7.990679">
        <ele>294.155251</ele>
        <time>2021-11-10T21:33:09.132Z</time>
      </trkpt>
      <trkpt lat="47.557377" lon="7.991413">
        <ele>294.305654</ele>
        <time>2021-11-10T21:33:17.419Z</time>
      </trkpt>
      <trkpt lat="47.557666" lon="7.996934">
        <ele>295.447463</ele>
        <time>2021-11-10T21:34:16.276Z</time>
      </trkpt>
      <trkpt lat="47.557611" lon="7.998828">
        <ele>296.085511</ele>
        <time>2021-11-10T21:34:38.903Z</time>
      </trkpt>
      <trkpt lat="47.557595" lon="7.999065">
        <ele>296.160951</ele>
        <time>2021-11-10T21:34:41.928Z</time>
      </trkpt>
      <trkpt lat="47.557590" lon="7.999121">
        <ele>296.178842</ele>
        <time>2021-11-10T21:34:42.587Z</time>
      </trkpt>
      <trkpt lat="47.557569" lon="7.999330">
        <ele>296.245769</ele>
        <time>2021-11-10T21:34:48.175Z</time>
      </trkpt>
      <trkpt lat="47.557552" lon="7.999488">
        <ele>296.296444</ele>
        <time>2021-11-10T21:34:50.193Z</time>
      </trkpt>
      <trkpt lat="47.557421" lon="8.000151">
        <ele>296.515252</ele>
        <time>2021-11-10T21:34:58.391Z</time>
      </trkpt>
      <trkpt lat="47.556859" lon="8.003033">
        <ele>296.556347</ele>
        <time>2021-11-10T21:35:28.105Z</time>
      </trkpt>
      <trkpt lat="47.556414" lon="8.004608">
        <ele>295.985058</ele>
        <time>2021-11-10T21:35:42.874Z</time>
      </trkpt>
      <trkpt lat="47.555689" lon="8.008075">
        <ele>294.322548</ele>
        <time>2021-11-10T21:36:14.541Z</time>
      </trkpt>
      <trkpt lat="47.555492" lon="8.008854">
        <ele>293.879602</ele>
        <time>2021-11-10T21:36:21.561Z</time>
      </trkpt>
      <trkpt lat="47.555373" lon="8.009365">
        <ele>293.547543</ele>
        <time>2021-11-10T21:36:26.045Z</time>
      </trkpt>
      <trkpt lat="47.555124" lon="8.010557">
        <ele>292.781048</ele>
        <time>2021-11-10T21:36:36.374Z</time>
      </trkpt>
      <trkpt lat="47.555069" lon="8.010772">
        <ele>292.639808</ele>
        <time>2021-11-10T21:36:38.206Z</time>
      </trkpt>
      <trkpt lat="47.554818" lon="8.011865">
        <ele>292.256956</ele>
        <time>2021-11-10T21:36:47.910Z</time>
      </trkpt>
      <trkpt lat="47.554682" lon="8.012449">
        <ele>292.115901</ele>
        <time>2021-11-10T21:36:53.614Z</time>
      </trkpt>
      <trkpt lat="47.554665" lon="8.012540">
        <ele>292.094343</ele>
        <time>2021-11-10T21:36:54.453Z</time>
      </trkpt>
      <trkpt lat="47.554546" lon="8.013079">
        <ele>291.964860</ele>
        <time>2021-11-10T21:36:59.955Z</time>
      </trkpt>
      <trkpt lat="47.554393" lon="8.013577">
        <ele>291.844094</ele>
        <time>2021-11-10T21:37:05.738Z</time>
      </trkpt>
      <trkpt lat="47.554329" lon="8.013807">
        <ele>291.935958</ele>
        <time>2021-11-10T21:37:08.611Z</time>
      </trkpt>
      <trkpt lat="47.553882" lon="8.015749">
        <ele>292.693613</ele>
        <time>2021-11-10T21:37:32.414Z</time>
      </trkpt>
      <trkpt lat="47.553715" lon="8.016236">
        <ele>292.891867</ele>
        <time>2021-11-10T21:37:38.876Z</time>
      </trkpt>
      <trkpt lat="47.553318" lon="8.017064">
        <ele>293.248318</ele>
        <time>2021-11-10T21:37:50.689Z</time>
      </trkpt>
      <trkpt lat="47.553229" lon="8.017328">
        <ele>293.351884</ele>
        <time>2021-11-10T21:37:54.369Z</time>
      </trkpt>
      <trkpt lat="47.553159" lon="8.017677">
        <ele>293.479660</ele>
        <time>2021-11-10T21:37:58.969Z</time>
      </trkpt>
      <trkpt lat="47.553012" lon="8.018748">
        <ele>293.828212</ele>
        <time>2021-11-10T21:38:10.597Z</time>
      </trkpt>
      <trkpt lat="47.553028" lon="8.018988">
        <ele>293.883887</ele>
        <time>2021-11-10T21:38:12.921Z</time>
      </trkpt>
      <trkpt lat="47.553030" lon="8.019182">
        <ele>293.928679</ele>
        <time>2021-11-10T21:38:14.563Z</time>
      </trkpt>
      <trkpt lat="47.553030" lon="8.019182">
        <ele>293.928679</ele>
        <time>2021-11-10T21:38:14.592Z</time>
      </trkpt>
      <trkpt lat="47.553055" lon="8.019647">
        <ele>294.036367</ele>
        <time>2021-11-10T21:38:19.213Z</time>
      </trkpt>
      <trkpt lat="47.553064" lon="8.019820">
        <ele>294.076423</ele>
        <time>2021-11-10T21:38:20.777Z</time>
      </trkpt>
      <trkpt lat="47.553056" lon="8.019871">
        <ele>294.088511</ele>
        <time>2021-11-10T21:38:21.267Z</time>
      </trkpt>
      <trkpt lat="47.553031" lon="8.019915">
        <ele>294.101789</ele>
        <time>2021-11-10T21:38:21.918Z</time>
      </trkpt>
      <trkpt lat="47.552961" lon="8.019989">
        <ele>294.131202</ele>
        <time>2021-11-10T21:38:23.367Z</time>
      </trkpt>
      <trkpt lat="47.552879" lon="8.020034">
        <ele>294.161113</ele>
        <time>2021-11-10T21:38:24.881Z</time>
      </trkpt>
      <trkpt lat="47.552872" lon="8.020109">
        <ele>294.178592</ele>
        <time>2021-11-10T21:38:25.522Z</time>
      </trkpt>
      <trkpt lat="47.552813" lon="8.020595">
        <ele>294.292589</ele>
        <time>2021-11-10T21:38:31.260Z</time>
      </trkpt>
      <trkpt lat="47.552776" lon="8.021316">
        <ele>295.052287</ele>
        <time>2021-11-10T21:38:40.331Z</time>
      </trkpt>
      <trkpt lat="47.552959" lon="8.021335">
        <ele>295.561195</ele>
        <time>2021-11-10T21:38:44.345Z</time>
      </trkpt>
      <trkpt lat="47.553183" lon="8.021466">
        <ele>296.229251</ele>
        <time>2021-11-10T21:38:49.019Z</time>
      </trkpt>
      <trkpt lat="47.553232" lon="8.021484">
        <ele>296.369298</ele>
        <time>2021-11-10T21:38:50.342Z</time>
      </trkpt>
      <trkpt lat="47.553266" lon="8.021493">
        <ele>296.465111</ele>
        <time>2021-11-10T21:38:51.140Z</time>
      </trkpt>
      <trkpt lat="47.553291" lon="8.021502">
        <ele>296.536482</ele>
        <time>2021-11-10T21:38:51.815Z</time>
      </trkpt>
      <trkpt lat="47.553305" lon="8.021505">
        <ele>296.575724</ele>
        <time>2021-11-10T21:38:52.170Z</time>
      </trkpt>
      <trkpt lat="47.553565" lon="8.021501">
        <ele>297.297034</ele>
        <time>2021-11-10T21:38:58.740Z</time>
      </trkpt>
      <trkpt lat="47.553607" lon="8.021497">
        <ele>297.413788</ele>
        <time>2021-11-10T21:38:59.917Z</time>
      </trkpt>
      <trkpt lat="47.553614" lon="8.021587">
        <ele>297.583406</ele>
        <time>2021-11-10T21:39:01.580Z</time>
      </trkpt>
      <trkpt lat="47.553615" lon="8.021606">
        <ele>297.619086</ele>
        <time>2021-11-10T21:39:01.964Z</time>
      </trkpt>
      <trkpt lat="47.553619" lon="8.021667">
        <ele>297.733832</ele>
        <time>2021-11-10T21:39:03.203Z</time>
      </trkpt>
      <trkpt lat="47.553687" lon="8.021682">
        <ele>297.924551</ele>
        <time>2021-11-10T21:39:05.360Z</time>
      </trkpt>
      <trkpt lat="47.553878" lon="8.021738">
        <ele>298.464682</ele>
        <time>2021-11-10T21:39:11.424Z</time>
      </trkpt>
      <trkpt lat="47.553961" lon="8.021754">
        <ele>298.696874</ele>
        <time>2021-11-10T21:39:14.254Z</time>
      </trkpt>
      <trkpt lat="47.554086" lon="8.021778">
        <ele>299.046538</ele>
        <time>2021-11-10T21:39:18.589Z</time>
      </trkpt>
      <trkpt lat="47.554332" lon="8.021803">
        <ele>300.062753</ele>
        <time>2021-11-10T21:39:27.113Z</time>
      </trkpt>
      <trkpt lat="47.554468" lon="8.021743">
        <ele>300.814874</ele>
        <time>2021-11-10T21:39:32.092Z</time>
      </trkpt>
      <trkpt lat="47.554589" lon="8.021606">
        <ele>301.622021</ele>
        <time>2021-11-10T21:39:37.149Z</time>
      </trkpt>
      <trkpt lat="47.554743" lon="8.021466">
        <ele>302.579658</ele>
        <time>2021-11-10T21:39:43.746Z</time>
      </trkpt>
      <trkpt lat="47.554958" lon="8.021349">
        <ele>303.793656</ele>
        <time>2021-11-10T21:39:51.201Z</time>
      </trkpt>
      <trkpt lat="47.555346" lon="8.021253">
        <ele>305.878663</ele>
        <time>2021-11-10T21:40:05.355Z</time>
      </trkpt>
      <trkpt lat="47.555521" lon="8.021257">
        <ele>306.806334</ele>
        <time>2021-11-10T21:40:11.778Z</time>
      </trkpt>
      <trkpt lat="47.555963" lon="8.021294">
        <ele>309.205655</ele>
        <time>2021-11-10T21:40:29.324Z</time>
      </trkpt>
      <trkpt lat="47.556296" lon="8.021331">
        <ele>311.344378</ele>
        <time>2021-11-10T21:40:43.492Z</time>
      </trkpt>
      <trkpt lat="47.556552" lon="8.021260">
        <ele>313.012430</ele>
        <time>2021-11-10T21:40:53.464Z</time>
      </trkpt>
      <trkpt lat="47.556632" lon="8.021199">
        <ele>313.588655</ele>
        <time>2021-11-10T21:40:56.799Z</time>
      </trkpt>
      <trkpt lat="47.556709" lon="8.021127">
        <ele>314.171791</ele>
        <time>2021-11-10T21:40:59.917Z</time>
      </trkpt>
      <trkpt lat="47.556718" lon="8.021112">
        <ele>314.258543</ele>
        <time>2021-11-10T21:41:00.486Z</time>
      </trkpt>
      <trkpt lat="47.556775" lon="8.021020">
        <ele>314.798349</ele>
        <time>2021-11-10T21:41:04.011Z</time>
      </trkpt>
      <trkpt lat="47.556880" lon="8.020827">
        <ele>315.869844</ele>
        <time>2021-11-10T21:41:10.630Z</time>
      </trkpt>
      <trkpt lat="47.556951" lon="8.020734">
        <ele>316.476764</ele>
        <time>2021-11-10T21:41:13.841Z</time>
      </trkpt>
      <trkpt lat="47.557049" lon="8.020675">
        <ele>317.154242</ele>
        <time>2021-11-10T21:41:18.341Z</time>
      </trkpt>
      <trkpt lat="47.557140" lon="8.020649">
        <ele>317.747797</ele>
        <time>2021-11-10T21:41:22.919Z</time>
      </trkpt>
      <trkpt lat="47.557326" lon="8.020583">
        <ele>318.972733</ele>
        <time>2021-11-10T21:41:29.979Z</time>
      </trkpt>
      <trkpt lat="47.557406" lon="8.020509">
        <ele>319.576736</ele>
        <time>2021-11-10T21:41:34.233Z</time>
      </trkpt>
      <trkpt lat="47.557453" lon="8.020436">
        <ele>320.012812</ele>
        <time>2021-11-10T21:41:38.115Z</time>
      </trkpt>
      <trkpt lat="47.557491" lon="8.020177">
        <ele>321.199653</ele>
        <time>2021-11-10T21:41:45.044Z</time>
      </trkpt>
      <trkpt lat="47.557398" lon="8.019696">
        <ele>323.482883</ele>
        <time>2021-11-10T21:42:00.065Z</time>
      </trkpt>
      <trkpt lat="47.557390" lon="8.019571">
        <ele>324.055849</ele>
        <time>2021-11-10T21:42:04.042Z</time>
      </trkpt>
      <trkpt lat="47.557414" lon="8.019414">
        <ele>324.790430</ele>
        <time>2021-11-10T21:42:09.475Z</time>
      </trkpt>
      <trkpt lat="47.557532" lon="8.018992">
        <ele>326.874878</ele>
        <time>2021-11-10T21:42:21.801Z</time>
      </trkpt>
      <trkpt lat="47.557566" lon="8.018865">
        <ele>327.498346</ele>
        <time>2021-11-10T21:42:26.545Z</time>
      </trkpt>
      <trkpt lat="47.557700" lon="8.018487">
        <ele>329.446751</ele>
        <time>2021-11-10T21:42:36.570Z</time>
      </trkpt>
      <trkpt lat="47.557746" lon="8.018355">
        <ele>330.124667</ele>
        <time>2021-11-10T21:42:40.978Z</time>
      </trkpt>
      <trkpt lat="47.557944" lon="8.018030">
        <ele>332.122650</ele>
        <time>2021-11-10T21:42:52.601Z</time>
      </trkpt>
      <trkpt lat="47.558167" lon="8.017713">
        <ele>334.349822</ele>
        <time>2021-11-10T21:43:05.476Z</time>
      </trkpt>
      <trkpt lat="47.558238" lon="8.017607">
        <ele>335.088829</ele>
        <time>2021-11-10T21:43:09.874Z</time>
      </trkpt>
      <trkpt lat="47.558302" lon="8.017520">
        <ele>335.725648</ele>
        <time>2021-11-10T21:43:13.444Z</time>
      </trkpt>
      <trkpt lat="47.558316" lon="8.017494">
        <ele>335.890236</ele>
        <time>2021-11-10T21:43:15.093Z</time>
      </trkpt>
      <trkpt lat="47.558404" lon="8.017331">
        <ele>336.923131</ele>
        <time>2021-11-10T21:43:20.245Z</time>
      </trkpt>
      <trkpt lat="47.558419" lon="8.017286">
        <ele>337.171480</ele>
        <time>2021-11-10T21:43:21.681Z</time>
      </trkpt>
      <trkpt lat="47.558456" lon="8.017175">
        <ele>337.784076</ele>
        <time>2021-11-10T21:43:25.463Z</time>
      </trkpt>
      <trkpt lat="47.558468" lon="8.016782">
        <ele>339.730693</ele>
        <time>2021-11-10T21:43:36.650Z</time>
      </trkpt>
      <trkpt lat="47.558472" lon="8.016633">
        <ele>340.468552</ele>
        <time>2021-11-10T21:43:41.085Z</time>
      </trkpt>
      <trkpt lat="47.558468" lon="8.016544">
        <ele>340.909913</ele>
        <time>2021-11-10T21:43:43.432Z</time>
      </trkpt>
      <trkpt lat="47.558466" lon="8.016482">
        <ele>341.217050</ele>
        <time>2021-11-10T21:43:46.571Z</time>
      </trkpt>
      <trkpt lat="47.558477" lon="8.015998">
        <ele>343.613316</ele>
        <time>2021-11-10T21:44:00.133Z</time>
      </trkpt>
      <trkpt lat="47.558647" lon="8.015459">
        <ele>346.709650</ele>
        <time>2021-11-10T21:44:20.473Z</time>
      </trkpt>
      <trkpt lat="47.559052" lon="8.014792">
        <ele>352.007899</ele>
        <time>2021-11-10T21:44:50.337Z</time>
      </trkpt>
      <trkpt lat="47.559301" lon="8.014552">
        <ele>354.607056</ele>
        <time>2021-11-10T21:45:07.040Z</time>
      </trkpt>
      <trkpt lat="47.559783" lon="8.014275">
        <ele>359.130732</ele>
        <time>2021-11-10T21:45:33.221Z</time>
      </trkpt>
      <trkpt lat="47.559980" lon="8.014260">
        <ele>360.856804</ele>
        <time>2021-11-10T21:45:43.168Z</time>
      </trkpt>
      <trkpt lat="47.560319" lon="8.014395">
        <ele>363.505209</ele>
        <time>2021-11-10T21:45:59.325Z</time>
      </trkpt>
      <trkpt lat="47.560683" lon="8.014628">
        <ele>366.368164</ele>
        <time>2021-11-10T21:46:15.812Z</time>
      </trkpt>
      <trkpt lat="47.560834" lon="8.014633">
        <ele>367.458723</ele>
        <time>2021-11-10T21:46:21.329Z</time>
      </trkpt>
      <trkpt lat="47.560957" lon="8.014567">
        <ele>368.403265</ele>
        <time>2021-11-10T21:46:27.552Z</time>
      </trkpt>
      <trkpt lat="47.560995" lon="8.014547">
        <ele>368.694433</ele>
        <time>2021-11-10T21:46:28.456Z</time>
      </trkpt>
      <trkpt lat="47.561174" lon="8.014255">
        <ele>370.616575</ele>
        <time>2021-11-10T21:46:41.159Z</time>
      </trkpt>
      <trkpt lat="47.561324" lon="8.013664">
        <ele>373.693091</ele>
        <time>2021-11-10T21:46:59.996Z</time>
      </trkpt>
      <trkpt lat="47.561442" lon="8.013448">
        <ele>375.049709</ele>
        <time>2021-11-10T21:47:06.637Z</time>
      </trkpt>
      <trkpt lat="47.561619" lon="8.013259">
        <ele>376.632175</ele>
        <time>2021-11-10T21:47:16.580Z</time>
      </trkpt>
      <trkpt lat="47.561899" lon="8.013170">
        <ele>378.709385</ele>
        <time>2021-11-10T21:47:29.550Z</time>
      </trkpt>
      <trkpt lat="47.562066" lon="8.013151">
        <ele>379.924306</ele>
        <time>2021-11-10T21:47:35.320Z</time>
      </trkpt>
      <trkpt lat="47.562148" lon="8.013140">
        <ele>380.521535</ele>
        <time>2021-11-10T21:47:38.240Z</time>
      </trkpt>
      <trkpt lat="47.562228" lon="8.013107">
        <ele>381.123886</ele>
        <time>2021-11-10T21:47:42.611Z</time>
      </trkpt>
      <trkpt lat="47.562467" lon="8.013027">
        <ele>382.901176</ele>
        <time>2021-11-10T21:47:52.292Z</time>
      </trkpt>
      <trkpt lat="47.562986" lon="8.012625">
        <ele>387.149008</ele>
        <time>2021-11-10T21:48:20.173Z</time>
      </trkpt>
      <trkpt lat="47.563093" lon="8.012604">
        <ele>387.861085</ele>
        <time>2021-11-10T21:48:24.798Z</time>
      </trkpt>
      <trkpt lat="47.563207" lon="8.012665">
        <ele>388.580695</ele>
        <time>2021-11-10T21:48:31.829Z</time>
      </trkpt>
      <trkpt lat="47.563289" lon="8.012797">
        <ele>389.299503</ele>
        <time>2021-11-10T21:48:37.511Z</time>
      </trkpt>
      <trkpt lat="47.563524" lon="8.013612">
        <ele>392.850230</ele>
        <time>2021-11-10T21:49:03.751Z</time>
      </trkpt>
      <trkpt lat="47.563694" lon="8.013972">
        <ele>394.610580</ele>
        <time>2021-11-10T21:49:13.476Z</time>
      </trkpt>
      <trkpt lat="47.563758" lon="8.014030">
        <ele>395.055976</ele>
        <time>2021-11-10T21:49:17.044Z</time>
      </trkpt>
      <trkpt lat="47.563908" lon="8.014085">
        <ele>395.973411</ele>
        <time>2021-11-10T21:49:21.824Z</time>
      </trkpt>
      <trkpt lat="47.564241" lon="8.013975">
        <ele>397.999019</ele>
        <time>2021-11-10T21:49:32.668Z</time>
      </trkpt>
      <trkpt lat="47.564751" lon="8.013465">
        <ele>399.233855</ele>
        <time>2021-11-10T21:49:49.217Z</time>
      </trkpt>
      <trkpt lat="47.565338" lon="8.012662">
        <ele>400.634519</ele>
        <time>2021-11-10T21:50:04.107Z</time>
      </trkpt>
      <trkpt lat="47.565501" lon="8.012111">
        <ele>401.346297</ele>
        <time>2021-11-10T21:50:10.683Z</time>
      </trkpt>
      <trkpt lat="47.565472" lon="8.011708">
        <ele>402.165236</ele>
        <time>2021-11-10T21:50:15.631Z</time>
      </trkpt>
      <trkpt lat="47.565220" lon="8.011190">
        <ele>403.488680</ele>
        <time>2021-11-10T21:50:24.493Z</time>
      </trkpt>
      <trkpt lat="47.565079" lon="8.011063">
        <ele>403.995456</ele>
        <time>2021-11-10T21:50:28.368Z</time>
      </trkpt>
      <trkpt lat="47.564831" lon="8.010977">
        <ele>404.777738</ele>
        <time>2021-11-10T21:50:34.816Z</time>
      </trkpt>
      <trkpt lat="47.564410" lon="8.011026">
        <ele>406.074781</ele>
        <time>2021-11-10T21:50:47.781Z</time>
      </trkpt>
      <trkpt lat="47.564251" lon="8.010805">
        <ele>406.744308</ele>
        <time>2021-11-10T21:50:55.718Z</time>
      </trkpt>
      <trkpt lat="47.564285" lon="8.010543">
        <ele>407.990522</ele>
        <time>2021-11-10T21:51:02.986Z</time>
      </trkpt>
      <trkpt lat="47.564366" lon="8.010437">
        <ele>408.899561</ele>
        <time>2021-11-10T21:51:07.717Z</time>
      </trkpt>
      <trkpt lat="47.564876" lon="8.010157">
        <ele>413.474825</ele>
        <time>2021-11-10T21:51:33.664Z</time>
      </trkpt>
      <trkpt lat="47.565384" lon="8.009424">
        <ele>419.439256</ele>
        <time>2021-11-10T21:52:11.218Z</time>
      </trkpt>
      <trkpt lat="47.565625" lon="8.009299">
        <ele>421.587220</ele>
        <time>2021-11-10T21:52:24.955Z</time>
      </trkpt>
      <trkpt lat="47.566213" lon="8.009186">
        <ele>426.545048</ele>
        <time>2021-11-10T21:52:56.388Z</time>
      </trkpt>
      <trkpt lat="47.566636" lon="8.009033">
        <ele>430.183699</ele>
        <time>2021-11-10T21:53:18.547Z</time>
      </trkpt>
      <trkpt lat="47.567295" lon="8.008508">
        <ele>436.435978</ele>
        <time>2021-11-10T21:53:52.129Z</time>
      </trkpt>
      <trkpt lat="47.567593" lon="8.008428">
        <ele>438.392087</ele>
        <time>2021-11-10T21:54:05.223Z</time>
      </trkpt>
      <trkpt lat="47.568942" lon="8.008356">
        <ele>446.272108</ele>
        <time>2021-11-10T21:54:57.206Z</time>
      </trkpt>
      <trkpt lat="47.569032" lon="8.008394">
        <ele>446.818394</ele>
        <time>2021-11-10T21:55:00.718Z</time>
      </trkpt>
      <trkpt lat="47.569090" lon="8.008418">
        <ele>447.169923</ele>
        <time>2021-11-10T21:55:02.253Z</time>
      </trkpt>
      <trkpt lat="47.569232" lon="8.008468">
        <ele>447.741667</ele>
        <time>2021-11-10T21:55:07.834Z</time>
      </trkpt>
      <trkpt lat="47.569356" lon="8.008548">
        <ele>448.052105</ele>
        <time>2021-11-10T21:55:11.553Z</time>
      </trkpt>
      <trkpt lat="47.569733" lon="8.009325">
        <ele>449.534346</ele>
        <time>2021-11-10T21:55:29.158Z</time>
      </trkpt>
      <trkpt lat="47.569881" lon="8.009480">
        <ele>449.950332</ele>
        <time>2021-11-10T21:55:33.229Z</time>
      </trkpt>
      <trkpt lat="47.569985" lon="8.009558">
        <ele>450.217887</ele>
        <time>2021-11-10T21:55:36.348Z</time>
      </trkpt>
      <trkpt lat="47.570110" lon="8.009604">
        <ele>450.513534</ele>
        <time>2021-11-10T21:55:38.247Z</time>
      </trkpt>
      <trkpt lat="47.570537" lon="8.009765">
        <ele>451.524925</ele>
        <time>2021-11-10T21:55:45.933Z</time>
      </trkpt>
      <trkpt lat="47.570679" lon="8.009960">
        <ele>451.751836</ele>
        <time>2021-11-10T21:55:48.814Z</time>
      </trkpt>
      <trkpt lat="47.570901" lon="8.010376">
        <ele>451.936447</ele>
        <time>2021-11-10T21:55:53.905Z</time>
      </trkpt>
      <trkpt lat="47.571091" lon="8.010633">
        <ele>452.069147</ele>
        <time>2021-11-10T21:55:57.933Z</time>
      </trkpt>
      <trkpt lat="47.571221" lon="8.010706">
        <ele>452.140864</ele>
        <time>2021-11-10T21:55:59.594Z</time>
      </trkpt>
      <trkpt lat="47.571485" lon="8.010679">
        <ele>452.277382</ele>
        <time>2021-11-10T21:56:03.558Z</time>
      </trkpt>
      <trkpt lat="47.571642" lon="8.010477">
        <ele>452.384635</ele>
        <time>2021-11-10T21:56:06.499Z</time>
      </trkpt>
      <trkpt lat="47.571749" lon="8.009974">
        <ele>452.568202</ele>
        <time>2021-11-10T21:56:12.426Z</time>
      </trkpt>
      <trkpt lat="47.571538" lon="8.008187">
        <ele>457.224864</ele>
        <time>2021-11-10T21:56:45.708Z</time>
      </trkpt>
      <trkpt lat="47.571577" lon="8.007177">
        <ele>460.065788</ele>
        <time>2021-11-10T21:57:11.429Z</time>
      </trkpt>
      <trkpt lat="47.571832" lon="8.005893">
        <ele>467.496341</ele>
        <time>2021-11-10T21:57:53.670Z</time>
      </trkpt>
      <trkpt lat="47.571947" lon="8.005585">
        <ele>469.450584</ele>
        <time>2021-11-10T21:58:06.010Z</time>
      </trkpt>
      <trkpt lat="47.572250" lon="8.005072">
        <ele>473.235661</ele>
        <time>2021-11-10T21:58:29.522Z</time>
      </trkpt>
      <trkpt lat="47.572545" lon="8.004649">
        <ele>476.407746</ele>
        <time>2021-11-10T21:58:50.950Z</time>
      </trkpt>
      <trkpt lat="47.572581" lon="8.004598">
        <ele>476.772309</ele>
        <time>2021-11-10T21:58:53.874Z</time>
      </trkpt>
      <trkpt lat="47.572812" lon="8.004145">
        <ele>479.576883</ele>
        <time>2021-11-10T21:59:12.625Z</time>
      </trkpt>
      <trkpt lat="47.572894" lon="8.003925">
        <ele>480.818259</ele>
        <time>2021-11-10T21:59:20.355Z</time>
      </trkpt>
      <trkpt lat="47.572959" lon="8.003732">
        <ele>481.883655</ele>
        <time>2021-11-10T21:59:27.184Z</time>
      </trkpt>
      <trkpt lat="47.573083" lon="8.003074">
        <ele>485.257901</ele>
        <time>2021-11-10T21:59:45.935Z</time>
      </trkpt>
      <trkpt lat="47.573074" lon="8.002958">
        <ele>485.834597</ele>
        <time>2021-11-10T21:59:49.192Z</time>
      </trkpt>
      <trkpt lat="47.573074" lon="8.002958">
        <ele>485.834597</ele>
        <time>2021-11-10T21:59:49.271Z</time>
      </trkpt>
      <trkpt lat="47.573018" lon="8.002565">
        <ele>487.818434</ele>
        <time>2021-11-10T21:59:58.603Z</time>
      </trkpt>
      <trkpt lat="47.572970" lon="8.002337">
        <ele>488.492334</ele>
        <time>2021-11-10T22:00:05.019Z</time>
      </trkpt>
      <trkpt lat="47.572945" lon="8.002160">
        <ele>488.966651</ele>
        <time>2021-11-10T22:00:08.470Z</time>
      </trkpt>
      <trkpt lat="47.572943" lon="8.002035">
        <ele>489.294605</ele>
        <time>2021-11-10T22:00:10.599Z</time>
      </trkpt>
      <trkpt lat="47.572938" lon="8.001983">
        <ele>489.432374</ele>
        <time>2021-11-10T22:00:12.049Z</time>
      </trkpt>
      <trkpt lat="47.572938" lon="8.001919">
        <ele>489.600240</ele>
        <time>2021-11-10T22:00:13.854Z</time>
      </trkpt>
      <trkpt lat="47.572940" lon="8.001742">
        <ele>490.064557</ele>
        <time>2021-11-10T22:00:17.921Z</time>
      </trkpt>
      <trkpt lat="47.572943" lon="8.001367">
        <ele>491.048212</ele>
        <time>2021-11-10T22:00:25.336Z</time>
      </trkpt>
      <trkpt lat="47.572935" lon="8.001208">
        <ele>491.466411</ele>
        <time>2021-11-10T22:00:28.093Z</time>
      </trkpt>
      <trkpt lat="47.572887" lon="8.000996">
        <ele>492.052944</ele>
        <time>2021-11-10T22:00:32.060Z</time>
      </trkpt>
      <trkpt lat="47.572824" lon="8.000753">
        <ele>492.735751</ele>
        <time>2021-11-10T22:00:37.861Z</time>
      </trkpt>
      <trkpt lat="47.572747" lon="8.000534">
        <ele>493.383493</ele>
        <time>2021-11-10T22:00:42.061Z</time>
      </trkpt>
      <trkpt lat="47.572662" lon="8.000300">
        <ele>494.080563</ele>
        <time>2021-11-10T22:00:46.777Z</time>
      </trkpt>
      <trkpt lat="47.572611" lon="8.000059">
        <ele>494.743052</ele>
        <time>2021-11-10T22:00:51.210Z</time>
      </trkpt>
      <trkpt lat="47.572599" lon="7.999998">
        <ele>494.909712</ele>
        <time>2021-11-10T22:00:52.310Z</time>
      </trkpt>
      <trkpt lat="47.572543" lon="7.999708">
        <ele>495.863157</ele>
        <time>2021-11-10T22:00:57.530Z</time>
      </trkpt>
      <trkpt lat="47.572560" lon="7.999471">
        <ele>496.616919</ele>
        <time>2021-11-10T22:01:02.011Z</time>
      </trkpt>
      <trkpt lat="47.572588" lon="7.999397">
        <ele>496.885246</ele>
        <time>2021-11-10T22:01:04.002Z</time>
      </trkpt>
      <trkpt lat="47.572623" lon="7.999326">
        <ele>497.163345</ele>
        <time>2021-11-10T22:01:06.305Z</time>
      </trkpt>
      <trkpt lat="47.572684" lon="7.999259">
        <ele>497.519248</ele>
        <time>2021-11-10T22:01:08.170Z</time>
      </trkpt>
      <trkpt lat="47.572737" lon="7.999234">
        <ele>497.779975</ele>
        <time>2021-11-10T22:01:09.508Z</time>
      </trkpt>
      <trkpt lat="47.572777" lon="7.999223">
        <ele>497.970684</ele>
        <time>2021-11-10T22:01:11.008Z</time>
      </trkpt>
      <trkpt lat="47.573315" lon="7.999386">
        <ele>500.544825</ele>
        <time>2021-11-10T22:01:29.727Z</time>
      </trkpt>
      <trkpt lat="47.573715" lon="7.999508">
        <ele>502.459199</ele>
        <time>2021-11-10T22:01:44.034Z</time>
      </trkpt>
      <trkpt lat="47.573776" lon="7.999524">
        <ele>502.749593</ele>
        <time>2021-11-10T22:01:46.250Z</time>
      </trkpt>
      <trkpt lat="47.573866" lon="7.999552">
        <ele>503.180681</ele>
        <time>2021-11-10T22:01:50.203Z</time>
      </trkpt>
      <trkpt lat="47.574018" lon="7.999596">
        <ele>504.267991</ele>
        <time>2021-11-10T22:01:56.721Z</time>
      </trkpt>
      <trkpt lat="47.574575" lon="7.999662">
        <ele>508.569025</ele>
        <time>2021-11-10T22:02:21.132Z</time>
      </trkpt>
      <trkpt lat="47.574980" lon="7.999619">
        <ele>511.694389</ele>
        <time>2021-11-10T22:02:40.987Z</time>
      </trkpt>
      <trkpt lat="47.575287" lon="7.999480">
        <ele>514.165215</ele>
        <time>2021-11-10T22:02:56.639Z</time>
      </trkpt>
      <trkpt lat="47.575566" lon="7.999346">
        <ele>516.422656</ele>
        <time>2021-11-10T22:03:10.969Z</time>
      </trkpt>
      <trkpt lat="47.575987" lon="7.999032">
        <ele>519.922415</ele>
        <time>2021-11-10T22:03:32.803Z</time>
      </trkpt>
      <trkpt lat="47.576107" lon="7.998921">
        <ele>520.962526</ele>
        <time>2021-11-10T22:03:39.897Z</time>
      </trkpt>
      <trkpt lat="47.576470" lon="7.998500">
        <ele>524.351701</ele>
        <time>2021-11-10T22:04:01.015Z</time>
      </trkpt>
      <trkpt lat="47.576631" lon="7.998208">
        <ele>526.222459</ele>
        <time>2021-11-10T22:04:12.224Z</time>
      </trkpt>
      <trkpt lat="47.576808" lon="7.997691">
        <ele>529.098448</ele>
        <time>2021-11-10T22:04:28.506Z</time>
      </trkpt>
      <trkpt lat="47.576985" lon="7.996833">
        <ele>532.928255</ele>
        <time>2021-11-10T22:04:51.849Z</time>
      </trkpt>
      <trkpt lat="47.577129" lon="7.996491">
        <ele>534.531966</ele>
        <time>2021-11-10T22:05:01.984Z</time>
      </trkpt>
      <trkpt lat="47.577911" lon="7.995693">
        <ele>540.130239</ele>
        <time>2021-11-10T22:05:38.224Z</time>
      </trkpt>
      <trkpt lat="47.578154" lon="7.995336">
        <ele>542.030217</ele>
        <time>2021-11-10T22:05:51.403Z</time>
      </trkpt>
      <trkpt lat="47.578303" lon="7.994990">
        <ele>543.492939</ele>
        <time>2021-11-10T22:06:02.576Z</time>
      </trkpt>
      <trkpt lat="47.578718" lon="7.993614">
        <ele>548.863818</ele>
        <time>2021-11-10T22:06:39.287Z</time>
      </trkpt>
      <trkpt lat="47.578838" lon="7.993259">
        <ele>550.278724</ele>
        <time>2021-11-10T22:06:47.637Z</time>
      </trkpt>
      <trkpt lat="47.578897" lon="7.993124">
        <ele>550.805294</ele>
        <time>2021-11-10T22:06:51.461Z</time>
      </trkpt>
      <trkpt lat="47.579219" lon="7.992722">
        <ele>552.715150</ele>
        <time>2021-11-10T22:07:04.670Z</time>
      </trkpt>
      <trkpt lat="47.579605" lon="7.992545">
        <ele>554.548188</ele>
        <time>2021-11-10T22:07:16.696Z</time>
      </trkpt>
      <trkpt lat="47.579905" lon="7.992529">
        <ele>555.910085</ele>
        <time>2021-11-10T22:07:26.945Z</time>
      </trkpt>
      <trkpt lat="47.580472" lon="7.992684">
        <ele>558.525776</ele>
        <time>2021-11-10T22:07:45.669Z</time>
      </trkpt>
      <trkpt lat="47.580510" lon="7.992660">
        <ele>558.731690</ele>
        <time>2021-11-10T22:07:47.757Z</time>
      </trkpt>
      <trkpt lat="47.580618" lon="7.992910">
        <ele>560.173858</ele>
        <time>2021-11-10T22:07:54.694Z</time>
      </trkpt>
      <trkpt lat="47.580746" lon="7.993147">
        <ele>561.648726</ele>
        <time>2021-11-10T22:08:02.415Z</time>
      </trkpt>
      <trkpt lat="47.580922" lon="7.993422">
        <ele>563.490231</ele>
        <time>2021-11-10T22:08:11.602Z</time>
      </trkpt>
      <trkpt lat="47.581061" lon="7.993595">
        <ele>564.797258</ele>
        <time>2021-11-10T22:08:19.933Z</time>
      </trkpt>
      <trkpt lat="47.581631" lon="7.994181">
        <ele>569.792629</ele>
        <time>2021-11-10T22:08:50.541Z</time>
      </trkpt>
      <trkpt lat="47.582041" lon="7.994482">
        <ele>573.382740</ele>
        <time>2021-11-10T22:09:17.266Z</time>
      </trkpt>
      <trkpt lat="47.582354" lon="7.994436">
        <ele>576.108234</ele>
        <time>2021-11-10T22:09:35.225Z</time>
      </trkpt>
      <trkpt lat="47.582850" lon="7.994143">
        <ele>580.734789</ele>
        <time>2021-11-10T22:10:01.019Z</time>
      </trkpt>
      <trkpt lat="47.582981" lon="7.994223">
        <ele>581.962461</ele>
        <time>2021-11-10T22:10:06.632Z</time>
      </trkpt>
      <trkpt lat="47.582994" lon="7.994245">
        <ele>582.133411</ele>
        <time>2021-11-10T22:10:08.872Z</time>
      </trkpt>
      <trkpt lat="47.583068" lon="7.994495">
        <ele>583.729125</ele>
        <time>2021-11-10T22:10:16.228Z</time>
      </trkpt>
      <trkpt lat="47.582956" lon="7.995058">
        <ele>587.159902</ele>
        <time>2021-11-10T22:10:33.750Z</time>
      </trkpt>
      <trkpt lat="47.582924" lon="7.995208">
        <ele>587.840794</ele>
        <time>2021-11-10T22:10:37.653Z</time>
      </trkpt>
      <trkpt lat="47.582884" lon="7.995369">
        <ele>588.565073</ele>
        <time>2021-11-10T22:10:44.994Z</time>
      </trkpt>
      <trkpt lat="47.582889" lon="7.995812">
        <ele>590.435406</ele>
        <time>2021-11-10T22:10:58.355Z</time>
      </trkpt>
      <trkpt lat="47.583085" lon="7.996290">
        <ele>592.796805</ele>
        <time>2021-11-10T22:11:14.158Z</time>
      </trkpt>
      <trkpt lat="47.583357" lon="7.996485">
        <ele>594.687651</ele>
        <time>2021-11-10T22:11:24.123Z</time>
      </trkpt>
      <trkpt lat="47.583554" lon="7.996491">
        <ele>595.920801</ele>
        <time>2021-11-10T22:11:30.463Z</time>
      </trkpt>
      <trkpt lat="47.584002" lon="7.996337">
        <ele>598.874632</ele>
        <time>2021-11-10T22:11:46.512Z</time>
      </trkpt>
      <trkpt lat="47.584188" lon="7.996318">
        <ele>600.315719</ele>
        <time>2021-11-10T22:11:52.949Z</time>
      </trkpt>
      <trkpt lat="47.585324" lon="7.996614">
        <ele>609.230953</ele>
        <time>2021-11-10T22:12:44.259Z</time>
      </trkpt>
      <trkpt lat="47.586010" lon="7.996485">
        <ele>614.968039</ele>
        <time>2021-11-10T22:13:23.914Z</time>
      </trkpt>
      <trkpt lat="47.586377" lon="7.996241">
        <ele>618.632006</ele>
        <time>2021-11-10T22:13:45.738Z</time>
      </trkpt>
      <trkpt lat="47.586511" lon="7.996110">
        <ele>620.094167</ele>
        <time>2021-11-10T22:13:56.625Z</time>
      </trkpt>
      <trkpt lat="47.586622" lon="7.995984">
        <ele>621.367661</ele>
        <time>2021-11-10T22:14:02.515Z</time>
      </trkpt>
      <trkpt lat="47.586778" lon="7.995749">
        <ele>623.393567</ele>
        <time>2021-11-10T22:14:15.886Z</time>
      </trkpt>
      <trkpt lat="47.587069" lon="7.995057">
        <ele>628.404011</ele>
        <time>2021-11-10T22:14:41.806Z</time>
      </trkpt>
      <trkpt lat="47.587615" lon="7.992977">
        <ele>635.867953</ele>
        <time>2021-11-10T22:15:35.810Z</time>
      </trkpt>
      <trkpt lat="47.587950" lon="7.992314">
        <ele>637.973673</ele>
        <time>2021-11-10T22:15:48.734Z</time>
      </trkpt>
      <trkpt lat="47.588182" lon="7.992002">
        <ele>638.657070</ele>
        <time>2021-11-10T22:15:55.293Z</time>
      </trkpt>
      <trkpt lat="47.588784" lon="7.991274">
        <ele>640.352036</ele>
        <time>2021-11-10T22:16:13.159Z</time>
      </trkpt>
      <trkpt lat="47.588977" lon="7.991069">
        <ele>640.870041</ele>
        <time>2021-11-10T22:16:17.762Z</time>
      </trkpt>
      <trkpt lat="47.589147" lon="7.990836">
        <ele>641.375154</ele>
        <time>2021-11-10T22:16:23.454Z</time>
      </trkpt>
      <trkpt lat="47.589254" lon="7.990683">
        <ele>642.055367</ele>
        <time>2021-11-10T22:16:25.367Z</time>
      </trkpt>
      <trkpt lat="47.589334" lon="7.990467">
        <ele>642.856327</ele>
        <time>2021-11-10T22:16:31.975Z</time>
      </trkpt>
      <trkpt lat="47.589516" lon="7.989967">
        <ele>644.703059</ele>
        <time>2021-11-10T22:16:42.650Z</time>
      </trkpt>
      <trkpt lat="47.589661" lon="7.989741">
        <ele>645.716911</ele>
        <time>2021-11-10T22:16:47.022Z</time>
      </trkpt>
      <trkpt lat="47.589745" lon="7.989634">
        <ele>646.250604</ele>
        <time>2021-11-10T22:16:53.644Z</time>
      </trkpt>
      <trkpt lat="47.589802" lon="7.989594">
        <ele>646.554514</ele>
        <time>2021-11-10T22:16:55.986Z</time>
      </trkpt>
      <trkpt lat="47.589888" lon="7.989555">
        <ele>646.987922</ele>
        <time>2021-11-10T22:16:58.556Z</time>
      </trkpt>
      <trkpt lat="47.590153" lon="7.989440">
        <ele>648.318600</ele>
        <time>2021-11-10T22:17:10.772Z</time>
      </trkpt>
      <trkpt lat="47.590332" lon="7.989372">
        <ele>649.209111</ele>
        <time>2021-11-10T22:17:16.489Z</time>
      </trkpt>
      <trkpt lat="47.590392" lon="7.989205">
        <ele>649.824116</ele>
        <time>2021-11-10T22:17:24.580Z</time>
      </trkpt>
      <trkpt lat="47.590456" lon="7.988863">
        <ele>651.082483</ele>
        <time>2021-11-10T22:17:32.702Z</time>
      </trkpt>
      <trkpt lat="47.590529" lon="7.988254">
        <ele>653.325812</ele>
        <time>2021-11-10T22:17:52.197Z</time>
      </trkpt>
      <trkpt lat="47.590598" lon="7.987915">
        <ele>654.610064</ele>
        <time>2021-11-10T22:18:03.426Z</time>
      </trkpt>
      <trkpt lat="47.590902" lon="7.986783">
        <ele>659.029080</ele>
        <time>2021-11-10T22:18:29.781Z</time>
      </trkpt>
      <trkpt lat="47.591034" lon="7.986459">
        <ele>659.820160</ele>
        <time>2021-11-10T22:18:38.391Z</time>
      </trkpt>
      <trkpt lat="47.591143" lon="7.986333">
        <ele>659.904601</ele>
        <time>2021-11-10T22:18:39.932Z</time>
      </trkpt>
      <trkpt lat="47.591392" lon="7.986243">
        <ele>660.061186</ele>
        <time>2021-11-10T22:18:45.938Z</time>
      </trkpt>
      <trkpt lat="47.591589" lon="7.986285">
        <ele>660.182785</ele>
        <time>2021-11-10T22:18:48.593Z</time>
      </trkpt>
      <trkpt lat="47.591744" lon="7.986404">
        <ele>660.289425</ele>
        <time>2021-11-10T22:18:50.676Z</time>
      </trkpt>
      <trkpt lat="47.591825" lon="7.986496">
        <ele>660.351764</ele>
        <time>2021-11-10T22:18:51.694Z</time>
      </trkpt>
      <trkpt lat="47.591989" lon="7.986949">
        <ele>660.563612</ele>
        <time>2021-11-10T22:18:56.336Z</time>
      </trkpt>
      <trkpt lat="47.591872" lon="7.987834">
        <ele>661.318315</ele>
        <time>2021-11-10T22:19:05.985Z</time>
      </trkpt>
      <trkpt lat="47.591874" lon="7.987958">
        <ele>661.585288</ele>
        <time>2021-11-10T22:19:06.858Z</time>
      </trkpt>
      <trkpt lat="47.591910" lon="7.988145">
        <ele>662.003863</ele>
        <time>2021-11-10T22:19:10.835Z</time>
      </trkpt>
      <trkpt lat="47.591971" lon="7.988287">
        <ele>662.366240</ele>
        <time>2021-11-10T22:19:12.773Z</time>
      </trkpt>
      <trkpt lat="47.592119" lon="7.988433">
        <ele>662.933571</ele>
        <time>2021-11-10T22:19:16.003Z</time>
      </trkpt>
      <trkpt lat="47.592324" lon="7.988430">
        <ele>663.587867</ele>
        <time>2021-11-10T22:19:22.544Z</time>
      </trkpt>
      <trkpt lat="47.592751" lon="7.988147">
        <ele>665.080585</ele>
        <time>2021-11-10T22:19:36.989Z</time>
      </trkpt>
      <trkpt lat="47.593485" lon="7.987901">
        <ele>667.728353</ele>
        <time>2021-11-10T22:20:05.634Z</time>
      </trkpt>
      <trkpt lat="47.594497" lon="7.987070">
        <ele>672.432863</ele>
        <time>2021-11-10T22:20:42.721Z</time>
      </trkpt>
      <trkpt lat="47.594655" lon="7.986957">
        <ele>673.146249</ele>
        <time>2021-11-10T22:20:47.197Z</time>
      </trkpt>
      <trkpt lat="47.594863" lon="7.986909">
        <ele>673.951384</ele>
        <time>2021-11-10T22:20:52.367Z</time>
      </trkpt>
      <trkpt lat="47.595069" lon="7.987007">
        <ele>674.394623</ele>
        <time>2021-11-10T22:20:57.244Z</time>
      </trkpt>
      <trkpt lat="47.595223" lon="7.987252">
        <ele>674.857367</ele>
        <time>2021-11-10T22:21:02.151Z</time>
      </trkpt>
      <trkpt lat="47.595279" lon="7.987696">
        <ele>675.481449</ele>
        <time>2021-11-10T22:21:08.621Z</time>
      </trkpt>
      <trkpt lat="47.595231" lon="7.988803">
        <ele>677.014074</ele>
        <time>2021-11-10T22:21:24.355Z</time>
      </trkpt>
      <trkpt lat="47.595288" lon="7.989057">
        <ele>677.383929</ele>
        <time>2021-11-10T22:21:28.544Z</time>
      </trkpt>
      <trkpt lat="47.595392" lon="7.989263">
        <ele>677.915009</ele>
        <time>2021-11-10T22:21:32.742Z</time>
      </trkpt>
      <trkpt lat="47.595627" lon="7.989468">
        <ele>679.107249</ele>
        <time>2021-11-10T22:21:39.915Z</time>
      </trkpt>
      <trkpt lat="47.595940" lon="7.989500">
        <ele>680.479194</ele>
        <time>2021-11-10T22:21:48.992Z</time>
      </trkpt>
      <trkpt lat="47.596445" lon="7.989273">
        <ele>682.786699</ele>
        <time>2021-11-10T22:22:05.685Z</time>
      </trkpt>
      <trkpt lat="47.597197" lon="7.988790">
        <ele>686.837627</ele>
        <time>2021-11-10T22:22:37.404Z</time>
      </trkpt>
      <trkpt lat="47.597809" lon="7.988272">
        <ele>691.483752</ele>
        <time>2021-11-10T22:23:08.173Z</time>
      </trkpt>
      <trkpt lat="47.598168" lon="7.987924">
        <ele>694.311592</ele>
        <time>2021-11-10T22:23:26.417Z</time>
      </trkpt>
      <trkpt lat="47.598432" lon="7.987661">
        <ele>696.408525</ele>
        <time>2021-11-10T22:23:39.285Z</time>
      </trkpt>
      <trkpt lat="47.598468" lon="7.987626">
        <ele>696.692347</ele>
        <time>2021-11-10T22:23:41.047Z</time>
      </trkpt>
      <trkpt lat="47.598718" lon="7.987384">
        <ele>698.567816</ele>
        <time>2021-11-10T22:23:52.741Z</time>
      </trkpt>
      <trkpt lat="47.598970" lon="7.987189">
        <ele>700.313071</ele>
        <time>2021-11-10T22:24:03.774Z</time>
      </trkpt>
      <trkpt lat="47.599584" lon="7.986808">
        <ele>704.399754</ele>
        <time>2021-11-10T22:24:28.480Z</time>
      </trkpt>
      <trkpt lat="47.600674" lon="7.986173">
        <ele>712.465607</ele>
        <time>2021-11-10T22:25:16.109Z</time>
      </trkpt>
      <trkpt lat="47.600869" lon="7.986065">
        <ele>714.089244</ele>
        <time>2021-11-10T22:25:27.222Z</time>
      </trkpt>
      <trkpt lat="47.600959" lon="7.986011">
        <ele>714.846535</ele>
        <time>2021-11-10T22:25:31.636Z</time>
      </trkpt>
      <trkpt lat="47.601244" lon="7.985812">
        <ele>717.303649</ele>
        <time>2021-11-10T22:25:47.875Z</time>
      </trkpt>
      <trkpt lat="47.601702" lon="7.985353">
        <ele>721.615322</ele>
        <time>2021-11-10T22:26:13.389Z</time>
      </trkpt>
      <trkpt lat="47.601786" lon="7.985227">
        <ele>722.483912</ele>
        <time>2021-11-10T22:26:20.964Z</time>
      </trkpt>
      <trkpt lat="47.601944" lon="7.984990">
        <ele>723.563615</ele>
        <time>2021-11-10T22:26:29.697Z</time>
      </trkpt>
      <trkpt lat="47.602072" lon="7.984743">
        <ele>724.572820</ele>
        <time>2021-11-10T22:26:40.438Z</time>
      </trkpt>
      <trkpt lat="47.602182" lon="7.984530">
        <ele>725.441991</ele>
        <time>2021-11-10T22:26:47.189Z</time>
      </trkpt>
      <trkpt lat="47.602644" lon="7.983742">
        <ele>728.824859</ele>
        <time>2021-11-10T22:27:11.219Z</time>
      </trkpt>
      <trkpt lat="47.602721" lon="7.983621">
        <ele>729.363855</ele>
        <time>2021-11-10T22:27:16.196Z</time>
      </trkpt>
      <trkpt lat="47.602904" lon="7.983364">
        <ele>730.574728</ele>
        <time>2021-11-10T22:27:21.394Z</time>
      </trkpt>
      <trkpt lat="47.603580" lon="7.982596">
        <ele>729.246761</ele>
        <time>2021-11-10T22:27:32.068Z</time>
      </trkpt>
      <trkpt lat="47.604541" lon="7.981767">
        <ele>726.391237</ele>
        <time>2021-11-10T22:27:43.021Z</time>
      </trkpt>
      <trkpt lat="47.604742" lon="7.981251">
        <ele>724.042557</ele>
        <time>2021-11-10T22:27:46.710Z</time>
      </trkpt>
      <trkpt lat="47.604737" lon="7.980685">
        <ele>721.811632</ele>
        <time>2021-11-10T22:27:50.171Z</time>
      </trkpt>
      <trkpt lat="47.604707" lon="7.980526">
        <ele>721.160902</ele>
        <time>2021-11-10T22:27:51.144Z</time>
      </trkpt>
      <trkpt lat="47.604684" lon="7.980290">
        <ele>720.221106</ele>
        <time>2021-11-10T22:27:52.611Z</time>
      </trkpt>
      <trkpt lat="47.604731" lon="7.979649">
        <ele>717.679884</ele>
        <time>2021-11-10T22:27:56.642Z</time>
      </trkpt>
      <trkpt lat="47.604776" lon="7.979454">
        <ele>716.867576</ele>
        <time>2021-11-10T22:27:57.876Z</time>
      </trkpt>
      <trkpt lat="47.604918" lon="7.978996">
        <ele>715.421797</ele>
        <time>2021-11-10T22:28:01.033Z</time>
      </trkpt>
      <trkpt lat="47.604988" lon="7.978584">
        <ele>714.388698</ele>
        <time>2021-11-10T22:28:03.749Z</time>
      </trkpt>
      <trkpt lat="47.605075" lon="7.977483">
        <ele>711.693286</ele>
        <time>2021-11-10T22:28:11.069Z</time>
      </trkpt>
      <trkpt lat="47.605029" lon="7.976646">
        <ele>709.824561</ele>
        <time>2021-11-10T22:28:17.496Z</time>
      </trkpt>
      <trkpt lat="47.604916" lon="7.975943">
        <ele>710.027008</ele>
        <time>2021-11-10T22:28:23.701Z</time>
      </trkpt>
      <trkpt lat="47.604837" lon="7.975632">
        <ele>710.120105</ele>
        <time>2021-11-10T22:28:26.811Z</time>
      </trkpt>
      <trkpt lat="47.604722" lon="7.975230">
        <ele>710.242433</ele>
        <time>2021-11-10T22:28:31.861Z</time>
      </trkpt>
      <trkpt lat="47.604645" lon="7.974490">
        <ele>710.452181</ele>
        <time>2021-11-10T22:28:41.804Z</time>
      </trkpt>
      <trkpt lat="47.604708" lon="7.974012">
        <ele>710.853634</ele>
        <time>2021-11-10T22:28:48.957Z</time>
      </trkpt>
      <trkpt lat="47.604760" lon="7.973795">
        <ele>711.411351</ele>
        <time>2021-11-10T22:28:53.325Z</time>
      </trkpt>
      <trkpt lat="47.604831" lon="7.973588">
        <ele>711.973783</ele>
        <time>2021-11-10T22:28:57.020Z</time>
      </trkpt>
      <trkpt lat="47.604839" lon="7.973573">
        <ele>712.020100</ele>
        <time>2021-11-10T22:28:57.379Z</time>
      </trkpt>
      <trkpt lat="47.604857" lon="7.973536">
        <ele>712.130592</ele>
        <time>2021-11-10T22:28:58.251Z</time>
      </trkpt>
      <trkpt lat="47.604923" lon="7.973403">
        <ele>712.530513</ele>
        <time>2021-11-10T22:29:02.063Z</time>
      </trkpt>
      <trkpt lat="47.605374" lon="7.972905">
        <ele>714.550041</ele>
        <time>2021-11-10T22:29:16.739Z</time>
      </trkpt>
      <trkpt lat="47.605516" lon="7.972819">
        <ele>715.100956</ele>
        <time>2021-11-10T22:29:22.915Z</time>
      </trkpt>
      <trkpt lat="47.605454" lon="7.972717">
        <ele>715.433530</ele>
        <time>2021-11-10T22:29:25.527Z</time>
      </trkpt>
      <trkpt lat="47.605365" lon="7.972611">
        <ele>715.843508</ele>
        <time>2021-11-10T22:29:28.527Z</time>
      </trkpt>
      <trkpt lat="47.605224" lon="7.972488">
        <ele>716.431051</ele>
        <time>2021-11-10T22:29:35.196Z</time>
      </trkpt>
      <trkpt lat="47.605261" lon="7.972326">
        <ele>716.845264</ele>
        <time>2021-11-10T22:29:38.674Z</time>
      </trkpt>
      <trkpt lat="47.605277" lon="7.972254">
        <ele>717.038003</ele>
        <time>2021-11-10T22:29:40.115Z</time>
      </trkpt>
      <trkpt lat="47.605294" lon="7.972024">
        <ele>717.949852</ele>
        <time>2021-11-10T22:29:46.513Z</time>
      </trkpt>
      <trkpt lat="47.605285" lon="7.971687">
        <ele>719.278994</ele>
        <time>2021-11-10T22:29:54.015Z</time>
      </trkpt>
      <trkpt lat="47.605293" lon="7.971142">
        <ele>721.427321</ele>
        <time>2021-11-10T22:30:07.575Z</time>
      </trkpt>
      <trkpt lat="47.605334" lon="7.970757">
        <ele>722.963396</ele>
        <time>2021-11-10T22:30:18.771Z</time>
      </trkpt>
      <trkpt lat="47.605394" lon="7.970424">
        <ele>724.321784</ele>
        <time>2021-11-10T22:30:27.681Z</time>
      </trkpt>
      <trkpt lat="47.605616" lon="7.969840">
        <ele>726.963888</ele>
        <time>2021-11-10T22:30:45.509Z</time>
      </trkpt>
      <trkpt lat="47.605817" lon="7.969371">
        <ele>729.549292</ele>
        <time>2021-11-10T22:31:00.038Z</time>
      </trkpt>
      <trkpt lat="47.606108" lon="7.968738">
        <ele>733.302413</ele>
        <time>2021-11-10T22:31:22.560Z</time>
      </trkpt>
      <trkpt lat="47.606364" lon="7.968338">
        <ele>736.004126</ele>
        <time>2021-11-10T22:31:39.375Z</time>
      </trkpt>
      <trkpt lat="47.606870" lon="7.967721">
        <ele>740.773728</ele>
        <time>2021-11-10T22:32:10.115Z</time>
      </trkpt>
      <trkpt lat="47.607095" lon="7.967514">
        <ele>742.814830</ele>
        <time>2021-11-10T22:32:22.422Z</time>
      </trkpt>
      <trkpt lat="47.607658" lon="7.967106">
        <ele>747.645341</ele>
        <time>2021-11-10T22:32:49.343Z</time>
      </trkpt>
      <trkpt lat="47.609221" lon="7.966057">
        <ele>761.028397</ele>
        <time>2021-11-10T22:34:09.908Z</time>
      </trkpt>
      <trkpt lat="47.609371" lon="7.965858">
        <ele>762.617996</ele>
        <time>2021-11-10T22:34:19.475Z</time>
      </trkpt>
      <trkpt lat="47.609398" lon="7.965823">
        <ele>762.901231</ele>
        <time>2021-11-10T22:34:21.005Z</time>
      </trkpt>
      <trkpt lat="47.609436" lon="7.965776">
        <ele>763.292047</ele>
        <time>2021-11-10T22:34:23.391Z</time>
      </trkpt>
      <trkpt lat="47.609733" lon="7.965333">
        <ele>766.619015</ele>
        <time>2021-11-10T22:34:42.503Z</time>
      </trkpt>
      <trkpt lat="47.610758" lon="7.963604">
        <ele>778.356805</ele>
        <time>2021-11-10T22:35:54.480Z</time>
      </trkpt>
      <trkpt lat="47.611128" lon="7.963082">
        <ele>782.176453</ele>
        <time>2021-11-10T22:36:16.101Z</time>
      </trkpt>
      <trkpt lat="47.611356" lon="7.962756">
        <ele>784.062713</ele>
        <time>2021-11-10T22:36:29.308Z</time>
      </trkpt>
      <trkpt lat="47.611648" lon="7.962205">
        <ele>786.877041</ele>
        <time>2021-11-10T22:36:48.119Z</time>
      </trkpt>
      <trkpt lat="47.611917" lon="7.961735">
        <ele>789.352747</ele>
        <time>2021-11-10T22:37:04.866Z</time>
      </trkpt>
      <trkpt lat="47.612099" lon="7.961419">
        <ele>791.021664</ele>
        <time>2021-11-10T22:37:15.759Z</time>
      </trkpt>
      <trkpt lat="47.612311" lon="7.961103">
        <ele>792.811812</ele>
        <time>2021-11-10T22:37:26.030Z</time>
      </trkpt>
      <trkpt lat="47.612484" lon="7.960712">
        <ele>793.674799</ele>
        <time>2021-11-10T22:37:35.799Z</time>
      </trkpt>
      <trkpt lat="47.612693" lon="7.960527">
        <ele>794.319465</ele>
        <time>2021-11-10T22:37:42.973Z</time>
      </trkpt>
      <trkpt lat="47.612881" lon="7.960311">
        <ele>794.949335</ele>
        <time>2021-11-10T22:37:50.397Z</time>
      </trkpt>
      <trkpt lat="47.612766" lon="7.960065">
        <ele>795.483883</ele>
        <time>2021-11-10T22:37:55.499Z</time>
      </trkpt>
      <trkpt lat="47.612685" lon="7.959801">
        <ele>796.001820</ele>
        <time>2021-11-10T22:38:00.482Z</time>
      </trkpt>
      <trkpt lat="47.612659" lon="7.959516">
        <ele>796.515367</ele>
        <time>2021-11-10T22:38:04.721Z</time>
      </trkpt>
      <trkpt lat="47.612741" lon="7.958660">
        <ele>797.509086</ele>
        <time>2021-11-10T22:38:14.246Z</time>
      </trkpt>
      <trkpt lat="47.612728" lon="7.958409">
        <ele>797.387556</ele>
        <time>2021-11-10T22:38:16.796Z</time>
      </trkpt>
      <trkpt lat="47.612719" lon="7.958171">
        <ele>797.272477</ele>
        <time>2021-11-10T22:38:19.078Z</time>
      </trkpt>
      <trkpt lat="47.612661" lon="7.957964">
        <ele>797.164257</ele>
        <time>2021-11-10T22:38:20.805Z</time>
      </trkpt>
      <trkpt lat="47.612606" lon="7.957836">
        <ele>797.090979</ele>
        <time>2021-11-10T22:38:22.170Z</time>
      </trkpt>
      <trkpt lat="47.612517" lon="7.957628">
        <ele>796.972045</ele>
        <time>2021-11-10T22:38:24.098Z</time>
      </trkpt>
      <trkpt lat="47.612456" lon="7.957566">
        <ele>796.919091</ele>
        <time>2021-11-10T22:38:24.896Z</time>
      </trkpt>
      <trkpt lat="47.612391" lon="7.957530">
        <ele>796.869404</ele>
        <time>2021-11-10T22:38:25.903Z</time>
      </trkpt>
      <trkpt lat="47.612291" lon="7.957543">
        <ele>796.797518</ele>
        <time>2021-11-10T22:38:27.168Z</time>
      </trkpt>
      <trkpt lat="47.612270" lon="7.957550">
        <ele>796.782104</ele>
        <time>2021-11-10T22:38:27.409Z</time>
      </trkpt>
      <trkpt lat="47.612102" lon="7.957603">
        <ele>796.659105</ele>
        <time>2021-11-10T22:38:29.277Z</time>
      </trkpt>
      <trkpt lat="47.611972" lon="7.957626">
        <ele>796.565350</ele>
        <time>2021-11-10T22:38:30.991Z</time>
      </trkpt>
      <trkpt lat="47.611743" lon="7.957534">
        <ele>796.395451</ele>
        <time>2021-11-10T22:38:33.649Z</time>
      </trkpt>
      <trkpt lat="47.611644" lon="7.957425">
        <ele>796.341781</ele>
        <time>2021-11-10T22:38:35.272Z</time>
      </trkpt>
      <trkpt lat="47.611408" lon="7.957164">
        <ele>796.366663</ele>
        <time>2021-11-10T22:38:38.858Z</time>
      </trkpt>
      <trkpt lat="47.611301" lon="7.956962">
        <ele>796.381301</ele>
        <time>2021-11-10T22:38:41.354Z</time>
      </trkpt>
      <trkpt lat="47.611164" lon="7.956405">
        <ele>796.415087</ele>
        <time>2021-11-10T22:38:46.713Z</time>
      </trkpt>
      <trkpt lat="47.611155" lon="7.956085">
        <ele>796.433338</ele>
        <time>2021-11-10T22:38:50.168Z</time>
      </trkpt>
      <trkpt lat="47.611237" lon="7.955554">
        <ele>796.464379</ele>
        <time>2021-11-10T22:38:56.904Z</time>
      </trkpt>
      <trkpt lat="47.611344" lon="7.955262">
        <ele>796.483317</ele>
        <time>2021-11-10T22:39:00.732Z</time>
      </trkpt>
      <trkpt lat="47.611423" lon="7.955105">
        <ele>796.595352</ele>
        <time>2021-11-10T22:39:03.725Z</time>
      </trkpt>
      <trkpt lat="47.611466" lon="7.955017">
        <ele>796.745975</ele>
        <time>2021-11-10T22:39:05.063Z</time>
      </trkpt>
      <trkpt lat="47.611563" lon="7.954771">
        <ele>797.140932</ele>
        <time>2021-11-10T22:39:08.712Z</time>
      </trkpt>
      <trkpt lat="47.611609" lon="7.954585">
        <ele>797.415500</ele>
        <time>2021-11-10T22:39:11.669Z</time>
      </trkpt>
      <trkpt lat="47.611583" lon="7.954201">
        <ele>797.950349</ele>
        <time>2021-11-10T22:39:17.785Z</time>
      </trkpt>
      <trkpt lat="47.611379" lon="7.953732">
        <ele>798.723868</ele>
        <time>2021-11-10T22:39:26.858Z</time>
      </trkpt>
      <trkpt lat="47.611213" lon="7.953569">
        <ele>799.133111</ele>
        <time>2021-11-10T22:39:31.747Z</time>
      </trkpt>
      <trkpt lat="47.610867" lon="7.953623">
        <ele>799.848314</ele>
        <time>2021-11-10T22:39:41.103Z</time>
      </trkpt>
      <trkpt lat="47.610622" lon="7.953678">
        <ele>800.339149</ele>
        <time>2021-11-10T22:39:47.150Z</time>
      </trkpt>
      <trkpt lat="47.610534" lon="7.953698">
        <ele>800.502199</ele>
        <time>2021-11-10T22:39:48.960Z</time>
      </trkpt>
      <trkpt lat="47.610442" lon="7.953689">
        <ele>800.671060</ele>
        <time>2021-11-10T22:39:51.770Z</time>
      </trkpt>
      <trkpt lat="47.610173" lon="7.953576">
        <ele>801.183100</ele>
        <time>2021-11-10T22:39:57.704Z</time>
      </trkpt>
      <trkpt lat="47.609991" lon="7.953325">
        <ele>801.638242</ele>
        <time>2021-11-10T22:40:03.656Z</time>
      </trkpt>
      <trkpt lat="47.609848" lon="7.952864">
        <ele>802.264813</ele>
        <time>2021-11-10T22:40:11.528Z</time>
      </trkpt>
      <trkpt lat="47.609390" lon="7.951204">
        <ele>803.519310</ele>
        <time>2021-11-10T22:40:35.612Z</time>
      </trkpt>
      <trkpt lat="47.609119" lon="7.950532">
        <ele>803.555659</ele>
        <time>2021-11-10T22:40:44.061Z</time>
      </trkpt>
      <trkpt lat="47.608916" lon="7.950126">
        <ele>803.579123</ele>
        <time>2021-11-10T22:40:48.558Z</time>
      </trkpt>
      <trkpt lat="47.608814" lon="7.949946">
        <ele>803.590038</ele>
        <time>2021-11-10T22:40:50.670Z</time>
      </trkpt>
      <trkpt lat="47.608598" lon="7.949608">
        <ele>803.361279</ele>
        <time>2021-11-10T22:40:54.412Z</time>
      </trkpt>
      <trkpt lat="47.608258" lon="7.949098">
        <ele>802.007712</ele>
        <time>2021-11-10T22:40:59.710Z</time>
      </trkpt>
      <trkpt lat="47.607428" lon="7.947861">
        <ele>798.714116</ele>
        <time>2021-11-10T22:41:11.608Z</time>
      </trkpt>
      <trkpt lat="47.607177" lon="7.947456">
        <ele>797.397141</ele>
        <time>2021-11-10T22:41:15.205Z</time>
      </trkpt>
      <trkpt lat="47.607053" lon="7.947037">
        <ele>796.264552</ele>
        <time>2021-11-10T22:41:18.178Z</time>
      </trkpt>
      <trkpt lat="47.607026" lon="7.946800">
        <ele>795.669630</ele>
        <time>2021-11-10T22:41:19.746Z</time>
      </trkpt>
      <trkpt lat="47.607053" lon="7.946387">
        <ele>794.642608</ele>
        <time>2021-11-10T22:41:22.470Z</time>
      </trkpt>
      <trkpt lat="47.607219" lon="7.945696">
        <ele>792.826968</ele>
        <time>2021-11-10T22:41:27.346Z</time>
      </trkpt>
      <trkpt lat="47.607532" lon="7.944721">
        <ele>790.075798</ele>
        <time>2021-11-10T22:41:34.981Z</time>
      </trkpt>
      <trkpt lat="47.607673" lon="7.944452">
        <ele>789.196026</ele>
        <time>2021-11-10T22:41:37.515Z</time>
      </trkpt>
      <trkpt lat="47.607934" lon="7.944298">
        <ele>788.120289</ele>
        <time>2021-11-10T22:41:40.687Z</time>
      </trkpt>
      <trkpt lat="47.608484" lon="7.944152">
        <ele>785.980486</ele>
        <time>2021-11-10T22:41:46.027Z</time>
      </trkpt>
      <trkpt lat="47.609294" lon="7.943637">
        <ele>778.852038</ele>
        <time>2021-11-10T22:41:53.986Z</time>
      </trkpt>
      <trkpt lat="47.609350" lon="7.943593">
        <ele>778.241154</ele>
        <time>2021-11-10T22:41:54.522Z</time>
      </trkpt>
      <trkpt lat="47.609814" lon="7.943160">
        <ele>772.956750</ele>
        <time>2021-11-10T22:41:59.215Z</time>
      </trkpt>
      <trkpt lat="47.610014" lon="7.942918">
        <ele>770.468694</ele>
        <time>2021-11-10T22:42:01.382Z</time>
      </trkpt>
      <trkpt lat="47.610065" lon="7.942722">
        <ele>769.103340</ele>
        <time>2021-11-10T22:42:02.575Z</time>
      </trkpt>
      <trkpt lat="47.610075" lon="7.942547">
        <ele>767.961966</ele>
        <time>2021-11-10T22:42:03.558Z</time>
      </trkpt>
      <trkpt lat="47.609950" lon="7.942351">
        <ele>766.274701</ele>
        <time>2021-11-10T22:42:05.149Z</time>
      </trkpt>
      <trkpt lat="47.609824" lon="7.942206">
        <ele>764.803758</ele>
        <time>2021-11-10T22:42:06.470Z</time>
      </trkpt>
      <trkpt lat="47.609660" lon="7.942072">
        <ele>763.076753</ele>
        <time>2021-11-10T22:42:08.094Z</time>
      </trkpt>
      <trkpt lat="47.609328" lon="7.941802">
        <ele>759.584416</ele>
        <time>2021-11-10T22:42:11.353Z</time>
      </trkpt>
      <trkpt lat="47.609231" lon="7.941717">
        <ele>758.545249</ele>
        <time>2021-11-10T22:42:12.304Z</time>
      </trkpt>
      <trkpt lat="47.608985" lon="7.941282">
        <ele>755.014569</ele>
        <time>2021-11-10T22:42:15.690Z</time>
      </trkpt>
      <trkpt lat="47.608976" lon="7.941180">
        <ele>754.374874</ele>
        <time>2021-11-10T22:42:16.277Z</time>
      </trkpt>
      <trkpt lat="47.608986" lon="7.941047">
        <ele>753.542688</ele>
        <time>2021-11-10T22:42:17.692Z</time>
      </trkpt>
      <trkpt lat="47.609156" lon="7.940638">
        <ele>750.858959</ele>
        <time>2021-11-10T22:42:20.565Z</time>
      </trkpt>
      <trkpt lat="47.609697" lon="7.940207">
        <ele>748.084365</ele>
        <time>2021-11-10T22:42:26.562Z</time>
      </trkpt>
      <trkpt lat="47.610427" lon="7.939448">
        <ele>744.056503</ele>
        <time>2021-11-10T22:42:35.597Z</time>
      </trkpt>
      <trkpt lat="47.610663" lon="7.939057">
        <ele>742.246678</ele>
        <time>2021-11-10T22:42:38.909Z</time>
      </trkpt>
      <trkpt lat="47.611668" lon="7.937036">
        <ele>731.772794</ele>
        <time>2021-11-10T22:42:54.195Z</time>
      </trkpt>
      <trkpt lat="47.612157" lon="7.936591">
        <ele>729.034720</ele>
        <time>2021-11-10T22:42:59.531Z</time>
      </trkpt>
      <trkpt lat="47.612760" lon="7.936192">
        <ele>725.883401</ele>
        <time>2021-11-10T22:43:05.942Z</time>
      </trkpt>
      <trkpt lat="47.613611" lon="7.935811">
        <ele>721.189170</ele>
        <time>2021-11-10T22:43:14.604Z</time>
      </trkpt>
      <trkpt lat="47.613843" lon="7.935758">
        <ele>719.760638</ele>
        <time>2021-11-10T22:43:16.856Z</time>
      </trkpt>
      <trkpt lat="47.614095" lon="7.935725">
        <ele>718.221071</ele>
        <time>2021-11-10T22:43:19.207Z</time>
      </trkpt>
      <trkpt lat="47.615166" lon="7.935713">
        <ele>711.398846</ele>
        <time>2021-11-10T22:43:28.825Z</time>
      </trkpt>
      <trkpt lat="47.615451" lon="7.935602">
        <ele>708.744502</ele>
        <time>2021-11-10T22:43:31.389Z</time>
      </trkpt>
      <trkpt lat="47.615705" lon="7.935396">
        <ele>706.136800</ele>
        <time>2021-11-10T22:43:33.895Z</time>
      </trkpt>
      <trkpt lat="47.616262" lon="7.934487">
        <ele>698.677302</ele>
        <time>2021-11-10T22:43:41.075Z</time>
      </trkpt>
      <trkpt lat="47.616672" lon="7.934051">
        <ele>694.008489</ele>
        <time>2021-11-10T22:43:45.448Z</time>
      </trkpt>
      <trkpt lat="47.616878" lon="7.934048">
        <ele>692.037206</ele>
        <time>2021-11-10T22:43:47.229Z</time>
      </trkpt>
      <trkpt lat="47.617409" lon="7.934240">
        <ele>686.807387</ele>
        <time>2021-11-10T22:43:51.980Z</time>
      </trkpt>
      <trkpt lat="47.617581" lon="7.934210">
        <ele>685.150205</ele>
        <time>2021-11-10T22:43:53.481Z</time>
      </trkpt>
      <trkpt lat="47.618969" lon="7.933585">
        <ele>670.145342</ele>
        <time>2021-11-10T22:44:05.971Z</time>
      </trkpt>
      <trkpt lat="47.619096" lon="7.933469">
        <ele>668.508458</ele>
        <time>2021-11-10T22:44:07.238Z</time>
      </trkpt>
      <trkpt lat="47.619255" lon="7.933163">
        <ele>665.650098</ele>
        <time>2021-11-10T22:44:09.470Z</time>
      </trkpt>
      <trkpt lat="47.619818" lon="7.932353">
        <ele>657.071822</ele>
        <time>2021-11-10T22:44:16.093Z</time>
      </trkpt>
      <trkpt lat="47.620106" lon="7.931975">
        <ele>652.909350</ele>
        <time>2021-11-10T22:44:19.326Z</time>
      </trkpt>
      <trkpt lat="47.620440" lon="7.931519">
        <ele>647.995896</ele>
        <time>2021-11-10T22:44:23.184Z</time>
      </trkpt>
      <trkpt lat="47.620523" lon="7.931338">
        <ele>646.398601</ele>
        <time>2021-11-10T22:44:24.425Z</time>
      </trkpt>
      <trkpt lat="47.620633" lon="7.930854">
        <ele>642.671806</ele>
        <time>2021-11-10T22:44:27.394Z</time>
      </trkpt>
      <trkpt lat="47.620770" lon="7.930392">
        <ele>639.329476</ele>
        <time>2021-11-10T22:44:30.364Z</time>
      </trkpt>
      <trkpt lat="47.621014" lon="7.929789">
        <ele>636.614122</ele>
        <time>2021-11-10T22:44:34.641Z</time>
      </trkpt>
      <trkpt lat="47.621153" lon="7.929574">
        <ele>635.463945</ele>
        <time>2021-11-10T22:44:36.488Z</time>
      </trkpt>
      <trkpt lat="47.621561" lon="7.929312">
        <ele>632.917448</ele>
        <time>2021-11-10T22:44:40.749Z</time>
      </trkpt>
      <trkpt lat="47.622199" lon="7.929159">
        <ele>629.165663</ele>
        <time>2021-11-10T22:44:47.023Z</time>
      </trkpt>
      <trkpt lat="47.622516" lon="7.929178">
        <ele>626.880329</ele>
        <time>2021-11-10T22:44:50.043Z</time>
      </trkpt>
      <trkpt lat="47.622878" lon="7.929322">
        <ele>624.180606</ele>
        <time>2021-11-10T22:44:53.539Z</time>
      </trkpt>
      <trkpt lat="47.622967" lon="7.929237">
        <ele>623.418163</ele>
        <time>2021-11-10T22:44:54.537Z</time>
      </trkpt>
      <trkpt lat="47.622989" lon="7.929175">
        <ele>623.077978</ele>
        <time>2021-11-10T22:44:55.024Z</time>
      </trkpt>
      <trkpt lat="47.622990" lon="7.929067">
        <ele>622.553575</ele>
        <time>2021-11-10T22:44:55.630Z</time>
      </trkpt>
      <trkpt lat="47.622913" lon="7.928884">
        <ele>621.506169</ele>
        <time>2021-11-10T22:44:56.973Z</time>
      </trkpt>
      <trkpt lat="47.621861" lon="7.928723">
        <ele>612.665137</ele>
        <time>2021-11-10T22:45:06.110Z</time>
      </trkpt>
      <trkpt lat="47.620569" lon="7.928919">
        <ele>598.850129</ele>
        <time>2021-11-10T22:45:17.157Z</time>
      </trkpt>
      <trkpt lat="47.619928" lon="7.929124">
        <ele>592.971905</ele>
        <time>2021-11-10T22:45:22.823Z</time>
      </trkpt>
      <trkpt lat="47.619604" lon="7.929315">
        <ele>590.010325</ele>
        <time>2021-11-10T22:45:25.861Z</time>
      </trkpt>
      <trkpt lat="47.619329" lon="7.929527">
        <ele>587.377741</ele>
        <time>2021-11-10T22:45:28.589Z</time>
      </trkpt>
      <trkpt lat="47.618921" lon="7.930073">
        <ele>582.710226</ele>
        <time>2021-11-10T22:45:33.482Z</time>
      </trkpt>
      <trkpt lat="47.618761" lon="7.930033">
        <ele>581.429350</ele>
        <time>2021-11-10T22:45:34.988Z</time>
      </trkpt>
      <trkpt lat="47.618733" lon="7.929945">
        <ele>580.948629</ele>
        <time>2021-11-10T22:45:35.577Z</time>
      </trkpt>
      <trkpt lat="47.618734" lon="7.929873">
        <ele>580.592871</ele>
        <time>2021-11-10T22:45:35.988Z</time>
      </trkpt>
      <trkpt lat="47.618861" lon="7.929607">
        <ele>578.982585</ele>
        <time>2021-11-10T22:45:38.059Z</time>
      </trkpt>
      <trkpt lat="47.619053" lon="7.929381">
        <ele>577.186357</ele>
        <time>2021-11-10T22:45:40.287Z</time>
      </trkpt>
      <trkpt lat="47.620384" lon="7.928242">
        <ele>564.440023</ele>
        <time>2021-11-10T22:45:53.961Z</time>
      </trkpt>
      <trkpt lat="47.620796" lon="7.927816">
        <ele>558.896803</ele>
        <time>2021-11-10T22:45:58.234Z</time>
      </trkpt>
      <trkpt lat="47.620873" lon="7.927631">
        <ele>557.279118</ele>
        <time>2021-11-10T22:45:59.473Z</time>
      </trkpt>
      <trkpt lat="47.620930" lon="7.927423">
        <ele>555.608574</ele>
        <time>2021-11-10T22:46:00.736Z</time>
      </trkpt>
      <trkpt lat="47.620993" lon="7.927078">
        <ele>552.949225</ele>
        <time>2021-11-10T22:46:02.772Z</time>
      </trkpt>
      <trkpt lat="47.621010" lon="7.926916">
        <ele>551.729418</ele>
        <time>2021-11-10T22:46:03.701Z</time>
      </trkpt>
      <trkpt lat="47.621008" lon="7.926716">
        <ele>550.241245</ele>
        <time>2021-11-10T22:46:04.838Z</time>
      </trkpt>
      <trkpt lat="47.621092" lon="7.926230">
        <ele>546.263155</ele>
        <time>2021-11-10T22:46:07.681Z</time>
      </trkpt>
      <trkpt lat="47.621290" lon="7.925709">
        <ele>541.376327</ele>
        <time>2021-11-10T22:46:11.065Z</time>
      </trkpt>
      <trkpt lat="47.621339" lon="7.925596">
        <ele>540.278506</ele>
        <time>2021-11-10T22:46:11.817Z</time>
      </trkpt>
      <trkpt lat="47.621723" lon="7.924936">
        <ele>533.154893</ele>
        <time>2021-11-10T22:46:16.758Z</time>
      </trkpt>
      <trkpt lat="47.623053" lon="7.924259">
        <ele>517.515377</ele>
        <time>2021-11-10T22:46:28.861Z</time>
      </trkpt>
      <trkpt lat="47.623206" lon="7.923969">
        <ele>514.887566</ele>
        <time>2021-11-10T22:46:31.026Z</time>
      </trkpt>
      <trkpt lat="47.623246" lon="7.923768">
        <ele>513.392149</ele>
        <time>2021-11-10T22:46:32.222Z</time>
      </trkpt>
      <trkpt lat="47.623227" lon="7.922954">
        <ele>507.531458</ele>
        <time>2021-11-10T22:46:36.891Z</time>
      </trkpt>
      <trkpt lat="47.623251" lon="7.922713">
        <ele>505.646624</ele>
        <time>2021-11-10T22:46:38.269Z</time>
      </trkpt>
      <trkpt lat="47.623298" lon="7.922501">
        <ele>503.919951</ele>
        <time>2021-11-10T22:46:39.552Z</time>
      </trkpt>
      <trkpt lat="47.623564" lon="7.921962">
        <ele>498.751420</ele>
        <time>2021-11-10T22:46:43.360Z</time>
      </trkpt>
      <trkpt lat="47.623626" lon="7.921633">
        <ele>496.108375</ele>
        <time>2021-11-10T22:46:45.319Z</time>
      </trkpt>
      <trkpt lat="47.623611" lon="7.921528">
        <ele>495.277959</ele>
        <time>2021-11-10T22:46:45.922Z</time>
      </trkpt>
      <trkpt lat="47.623588" lon="7.921368">
        <ele>494.012223</ele>
        <time>2021-11-10T22:46:46.856Z</time>
      </trkpt>
      <trkpt lat="47.623561" lon="7.920975">
        <ele>490.955887</ele>
        <time>2021-11-10T22:46:49.111Z</time>
      </trkpt>
      <trkpt lat="47.623430" lon="7.919875">
        <ele>482.960153</ele>
        <time>2021-11-10T22:46:55.578Z</time>
      </trkpt>
      <trkpt lat="47.623255" lon="7.919315">
        <ele>478.778120</ele>
        <time>2021-11-10T22:46:59.152Z</time>
      </trkpt>
      <trkpt lat="47.623010" lon="7.918947">
        <ele>475.273625</ele>
        <time>2021-11-10T22:47:02.134Z</time>
      </trkpt>
      <trkpt lat="47.622446" lon="7.918652">
        <ele>469.265199</ele>
        <time>2021-11-10T22:47:07.356Z</time>
      </trkpt>
      <trkpt lat="47.622366" lon="7.918470">
        <ele>467.818046</ele>
        <time>2021-11-10T22:47:08.609Z</time>
      </trkpt>
      <trkpt lat="47.622381" lon="7.918164">
        <ele>465.774632</ele>
        <time>2021-11-10T22:47:10.420Z</time>
      </trkpt>
      <trkpt lat="47.622424" lon="7.918069">
        <ele>465.012478</ele>
        <time>2021-11-10T22:47:11.076Z</time>
      </trkpt>
      <trkpt lat="47.622587" lon="7.917873">
        <ele>462.939231</ele>
        <time>2021-11-10T22:47:12.890Z</time>
      </trkpt>
      <trkpt lat="47.622656" lon="7.917625">
        <ele>461.152310</ele>
        <time>2021-11-10T22:47:14.453Z</time>
      </trkpt>
      <trkpt lat="47.622677" lon="7.917170">
        <ele>458.114824</ele>
        <time>2021-11-10T22:47:17.109Z</time>
      </trkpt>
      <trkpt lat="47.622647" lon="7.916647">
        <ele>454.618950</ele>
        <time>2021-11-10T22:47:20.145Z</time>
      </trkpt>
      <trkpt lat="47.622576" lon="7.916379">
        <ele>452.701084</ele>
        <time>2021-11-10T22:47:21.801Z</time>
      </trkpt>
      <trkpt lat="47.622393" lon="7.916077">
        <ele>449.998139</ele>
        <time>2021-11-10T22:47:24.135Z</time>
      </trkpt>
      <trkpt lat="47.621809" lon="7.915582">
        <ele>443.359198</ele>
        <time>2021-11-10T22:47:29.949Z</time>
      </trkpt>
      <trkpt lat="47.621530" lon="7.915222">
        <ele>439.709422</ele>
        <time>2021-11-10T22:47:33.155Z</time>
      </trkpt>
      <trkpt lat="47.621037" lon="7.914355">
        <ele>432.142769</ele>
        <time>2021-11-10T22:47:39.784Z</time>
      </trkpt>
      <trkpt lat="47.620869" lon="7.913635">
        <ele>427.015882</ele>
        <time>2021-11-10T22:47:44.148Z</time>
      </trkpt>
      <trkpt lat="47.620841" lon="7.913331">
        <ele>424.951284</ele>
        <time>2021-11-10T22:47:45.926Z</time>
      </trkpt>
      <trkpt lat="47.620822" lon="7.912670">
        <ele>420.499432</ele>
        <time>2021-11-10T22:47:49.755Z</time>
      </trkpt>
      <trkpt lat="47.620858" lon="7.912289">
        <ele>417.910650</ele>
        <time>2021-11-10T22:47:52.015Z</time>
      </trkpt>
      <trkpt lat="47.620910" lon="7.911951">
        <ele>415.668751</ele>
        <time>2021-11-10T22:47:54.030Z</time>
      </trkpt>
      <trkpt lat="47.620953" lon="7.911653">
        <ele>414.116402</ele>
        <time>2021-11-10T22:47:55.819Z</time>
      </trkpt>
      <trkpt lat="47.620946" lon="7.911321">
        <ele>412.424431</ele>
        <time>2021-11-10T22:47:57.790Z</time>
      </trkpt>
      <trkpt lat="47.620846" lon="7.911023">
        <ele>410.728758</ele>
        <time>2021-11-10T22:47:59.762Z</time>
      </trkpt>
      <trkpt lat="47.620625" lon="7.910808">
        <ele>408.731563</ele>
        <time>2021-11-10T22:48:02.091Z</time>
      </trkpt>
      <trkpt lat="47.620181" lon="7.910694">
        <ele>405.326282</ele>
        <time>2021-11-10T22:48:06.098Z</time>
      </trkpt>
      <trkpt lat="47.620162" lon="7.910587">
        <ele>404.762640</ele>
        <time>2021-11-10T22:48:06.766Z</time>
      </trkpt>
      <trkpt lat="47.620245" lon="7.910440">
        <ele>403.785837</ele>
        <time>2021-11-10T22:48:07.938Z</time>
      </trkpt>
      <trkpt lat="47.620712" lon="7.910483">
        <ele>400.951850</ele>
        <time>2021-11-10T22:48:12.392Z</time>
      </trkpt>
      <trkpt lat="47.621308" lon="7.910162">
        <ele>397.754729</ele>
        <time>2021-11-10T22:48:18.446Z</time>
      </trkpt>
      <trkpt lat="47.621461" lon="7.910146">
        <ele>396.981340</ele>
        <time>2021-11-10T22:48:19.858Z</time>
      </trkpt>
      <trkpt lat="47.622368" lon="7.910396">
        <ele>392.373238</ele>
        <time>2021-11-10T22:48:28.556Z</time>
      </trkpt>
      <trkpt lat="47.622666" lon="7.910254">
        <ele>390.866576</ele>
        <time>2021-11-10T22:48:31.571Z</time>
      </trkpt>
      <trkpt lat="47.622755" lon="7.910176">
        <ele>390.368991</ele>
        <time>2021-11-10T22:48:32.522Z</time>
      </trkpt>
      <trkpt lat="47.622850" lon="7.910055">
        <ele>389.766289</ele>
        <time>2021-11-10T22:48:33.735Z</time>
      </trkpt>
      <trkpt lat="47.623414" lon="7.909173">
        <ele>385.821694</ele>
        <time>2021-11-10T22:48:41.579Z</time>
      </trkpt>
      <trkpt lat="47.623851" lon="7.909030">
        <ele>383.278729</ele>
        <time>2021-11-10T22:48:45.752Z</time>
      </trkpt>
      <trkpt lat="47.624367" lon="7.909092">
        <ele>379.781964</ele>
        <time>2021-11-10T22:48:50.670Z</time>
      </trkpt>
      <trkpt lat="47.624823" lon="7.909229">
        <ele>376.639372</ele>
        <time>2021-11-10T22:48:54.882Z</time>
      </trkpt>
      <trkpt lat="47.624962" lon="7.909272">
        <ele>375.680297</ele>
        <time>2021-11-10T22:48:56.112Z</time>
      </trkpt>
      <trkpt lat="47.625366" lon="7.909623">
        <ele>372.518039</ele>
        <time>2021-11-10T22:49:00.232Z</time>
      </trkpt>
      <trkpt lat="47.625586" lon="7.909712">
        <ele>370.408709</ele>
        <time>2021-11-10T22:49:02.219Z</time>
      </trkpt>
      <trkpt lat="47.625630" lon="7.909700">
        <ele>369.992269</ele>
        <time>2021-11-10T22:49:02.591Z</time>
      </trkpt>
      <trkpt lat="47.625660" lon="7.909693">
        <ele>369.709579</ele>
        <time>2021-11-10T22:49:02.847Z</time>
      </trkpt>
      <trkpt lat="47.625738" lon="7.909657">
        <ele>368.949193</ele>
        <time>2021-11-10T22:49:03.594Z</time>
      </trkpt>
      <trkpt lat="47.625820" lon="7.909530">
        <ele>367.845806</ele>
        <time>2021-11-10T22:49:04.630Z</time>
      </trkpt>
      <trkpt lat="47.625875" lon="7.909372">
        <ele>366.730153</ele>
        <time>2021-11-10T22:49:05.635Z</time>
      </trkpt>
      <trkpt lat="47.626074" lon="7.908682">
        <ele>362.021618</ele>
        <time>2021-11-10T22:49:10.005Z</time>
      </trkpt>
      <trkpt lat="47.626373" lon="7.908242">
        <ele>358.101613</ele>
        <time>2021-11-10T22:49:13.636Z</time>
      </trkpt>
      <trkpt lat="47.626436" lon="7.907974">
        <ele>356.320940</ele>
        <time>2021-11-10T22:49:15.264Z</time>
      </trkpt>
      <trkpt lat="47.626446" lon="7.907798">
        <ele>355.519830</ele>
        <time>2021-11-10T22:49:16.345Z</time>
      </trkpt>
      <trkpt lat="47.626442" lon="7.907543">
        <ele>354.851475</ele>
        <time>2021-11-10T22:49:17.834Z</time>
      </trkpt>
      <trkpt lat="47.626436" lon="7.907187">
        <ele>353.918359</ele>
        <time>2021-11-10T22:49:20.065Z</time>
      </trkpt>
      <trkpt lat="47.626436" lon="7.907061">
        <ele>353.588202</ele>
        <time>2021-11-10T22:49:20.888Z</time>
      </trkpt>
      <trkpt lat="47.626436" lon="7.906623">
        <ele>352.440514</ele>
        <time>2021-11-10T22:49:23.754Z</time>
      </trkpt>
      <trkpt lat="47.626439" lon="7.906299">
        <ele>351.591459</ele>
        <time>2021-11-10T22:49:25.908Z</time>
      </trkpt>
      <trkpt lat="47.626443" lon="7.905945">
        <ele>350.663744</ele>
        <time>2021-11-10T22:49:28.460Z</time>
      </trkpt>
      <trkpt lat="47.626460" lon="7.905124">
        <ele>348.800879</ele>
        <time>2021-11-10T22:49:35.366Z</time>
      </trkpt>
      <trkpt lat="47.626440" lon="7.905007">
        <ele>348.873135</ele>
        <time>2021-11-10T22:49:37.162Z</time>
      </trkpt>
      <trkpt lat="47.626399" lon="7.904961">
        <ele>348.918790</ele>
        <time>2021-11-10T22:49:37.962Z</time>
      </trkpt>
      <trkpt lat="47.626221" lon="7.904920">
        <ele>349.078784</ele>
        <time>2021-11-10T22:49:40.994Z</time>
      </trkpt>
      <trkpt lat="47.626086" lon="7.904879">
        <ele>349.201178</ele>
        <time>2021-11-10T22:49:44.182Z</time>
      </trkpt>
      <trkpt lat="47.625742" lon="7.904774">
        <ele>349.513119</ele>
        <time>2021-11-10T22:49:51.806Z</time>
      </trkpt>
      <trkpt lat="47.625516" lon="7.904701">
        <ele>349.718555</ele>
        <time>2021-11-10T22:49:56.439Z</time>
      </trkpt>
      <trkpt lat="47.625088" lon="7.904563">
        <ele>350.107580</ele>
        <time>2021-11-10T22:50:05.761Z</time>
      </trkpt>
      <trkpt lat="47.624956" lon="7.904522">
        <ele>350.227365</ele>
        <time>2021-11-10T22:50:08.517Z</time>
      </trkpt>
      <trkpt lat="47.624761" lon="7.904481">
        <ele>350.325536</ele>
        <time>2021-11-10T22:50:11.688Z</time>
      </trkpt>
      <trkpt lat="47.624565" lon="7.904455">
        <ele>350.267689</ele>
        <time>2021-11-10T22:50:14.747Z</time>
      </trkpt>
      <trkpt lat="47.624472" lon="7.904367">
        <ele>350.235264</ele>
        <time>2021-11-10T22:50:16.434Z</time>
      </trkpt>
      <trkpt lat="47.624451" lon="7.904332">
        <ele>350.225980</ele>
        <time>2021-11-10T22:50:16.955Z</time>
      </trkpt>
      <trkpt lat="47.624399" lon="7.904386">
        <ele>350.207322</ele>
        <time>2021-11-10T22:50:17.872Z</time>
      </trkpt>
      <trkpt lat="47.624263" lon="7.904484">
        <ele>350.162878</ele>
        <time>2021-11-10T22:50:20.094Z</time>
      </trkpt>
      <trkpt lat="47.624120" lon="7.904530">
        <ele>350.119864</ele>
        <time>2021-11-10T22:50:22.266Z</time>
      </trkpt>
      <trkpt lat="47.623650" lon="7.904642">
        <ele>349.979931</ele>
        <time>2021-11-10T22:50:28.544Z</time>
      </trkpt>
      <trkpt lat="47.622648" lon="7.904863">
        <ele>349.101587</ele>
        <time>2021-11-10T22:50:40.954Z</time>
      </trkpt>
      <trkpt lat="47.622424" lon="7.904919">
        <ele>348.744954</ele>
        <time>2021-11-10T22:50:43.562Z</time>
      </trkpt>
      <trkpt lat="47.622235" lon="7.904957">
        <ele>348.445515</ele>
        <time>2021-11-10T22:50:45.724Z</time>
      </trkpt>
      <trkpt lat="47.621248" lon="7.905159">
        <ele>346.812152</ele>
        <time>2021-11-10T22:50:56.794Z</time>
      </trkpt>
      <trkpt lat="47.621107" lon="7.905191">
        <ele>346.448494</ele>
        <time>2021-11-10T22:50:58.383Z</time>
      </trkpt>
      <trkpt lat="47.620699" lon="7.905223">
        <ele>345.406853</ele>
        <time>2021-11-10T22:51:02.808Z</time>
      </trkpt>
      <trkpt lat="47.620699" lon="7.905223">
        <ele>345.406853</ele>
        <time>2021-11-10T22:51:02.813Z</time>
      </trkpt>
      <trkpt lat="47.620426" lon="7.905244">
        <ele>344.709910</ele>
        <time>2021-11-10T22:51:05.830Z</time>
      </trkpt>
      <trkpt lat="47.620291" lon="7.905252">
        <ele>344.365455</ele>
        <time>2021-11-10T22:51:07.256Z</time>
      </trkpt>
      <trkpt lat="47.619447" lon="7.905300">
        <ele>342.149534</ele>
        <time>2021-11-10T22:51:15.947Z</time>
      </trkpt>
      <trkpt lat="47.619299" lon="7.905308">
        <ele>341.650375</ele>
        <time>2021-11-10T22:51:17.355Z</time>
      </trkpt>
      <trkpt lat="47.619155" lon="7.905319">
        <ele>341.164386</ele>
        <time>2021-11-10T22:51:18.902Z</time>
      </trkpt>
      <trkpt lat="47.618976" lon="7.905535">
        <ele>340.386698</ele>
        <time>2021-11-10T22:51:21.162Z</time>
      </trkpt>
      <trkpt lat="47.618920" lon="7.906208">
        <ele>338.846113</ele>
        <time>2021-11-10T22:51:25.862Z</time>
      </trkpt>
      <trkpt lat="47.618888" lon="7.906392">
        <ele>338.414396</ele>
        <time>2021-11-10T22:51:27.123Z</time>
      </trkpt>
      <trkpt lat="47.618867" lon="7.906514">
        <ele>338.128331</ele>
        <time>2021-11-10T22:51:27.908Z</time>
      </trkpt>
      <trkpt lat="47.618719" lon="7.906838">
        <ele>337.239139</ele>
        <time>2021-11-10T22:51:30.624Z</time>
      </trkpt>
      <trkpt lat="47.618579" lon="7.906988">
        <ele>336.657082</ele>
        <time>2021-11-10T22:51:32.282Z</time>
      </trkpt>
      <trkpt lat="47.618470" lon="7.907083">
        <ele>336.258002</ele>
        <time>2021-11-10T22:51:33.582Z</time>
      </trkpt>
      <trkpt lat="47.617957" lon="7.907285">
        <ele>334.895908</ele>
        <time>2021-11-10T22:51:38.890Z</time>
      </trkpt>
      <trkpt lat="47.617238" lon="7.908130">
        <ele>332.541903</ele>
        <time>2021-11-10T22:51:48.710Z</time>
      </trkpt>
      <trkpt lat="47.617086" lon="7.908230">
        <ele>332.115188</ele>
        <time>2021-11-10T22:51:50.599Z</time>
      </trkpt>
      <trkpt lat="47.616832" lon="7.908284">
        <ele>331.657486</ele>
        <time>2021-11-10T22:51:53.477Z</time>
      </trkpt>
      <trkpt lat="47.616604" lon="7.908203">
        <ele>331.500553</ele>
        <time>2021-11-10T22:51:56.103Z</time>
      </trkpt>
      <trkpt lat="47.616124" lon="7.907729">
        <ele>331.114579</ele>
        <time>2021-11-10T22:52:02.923Z</time>
      </trkpt>
      <trkpt lat="47.616009" lon="7.907686">
        <ele>331.035193</ele>
        <time>2021-11-10T22:52:04.487Z</time>
      </trkpt>
      <trkpt lat="47.615946" lon="7.907692">
        <ele>330.992936</ele>
        <time>2021-11-10T22:52:05.254Z</time>
      </trkpt>
      <trkpt lat="47.615821" lon="7.907747">
        <ele>330.905661</ele>
        <time>2021-11-10T22:52:07.332Z</time>
      </trkpt>
      <trkpt lat="47.615669" lon="7.907870">
        <ele>330.789764</ele>
        <time>2021-11-10T22:52:10.012Z</time>
      </trkpt>
      <trkpt lat="47.615460" lon="7.908111">
        <ele>330.612571</ele>
        <time>2021-11-10T22:52:14.383Z</time>
      </trkpt>
      <trkpt lat="47.615374" lon="7.908222">
        <ele>330.536266</ele>
        <time>2021-11-10T22:52:16.301Z</time>
      </trkpt>
      <trkpt lat="47.615246" lon="7.908385">
        <ele>330.656175</ele>
        <time>2021-11-10T22:52:19.325Z</time>
      </trkpt>
      <trkpt lat="47.615085" lon="7.908567">
        <ele>330.832929</ele>
        <time>2021-11-10T22:52:22.736Z</time>
      </trkpt>
      <trkpt lat="47.614876" lon="7.908760">
        <ele>331.047901</ele>
        <time>2021-11-10T22:52:27.054Z</time>
      </trkpt>
      <trkpt lat="47.614784" lon="7.908839">
        <ele>331.140725</ele>
        <time>2021-11-10T22:52:28.858Z</time>
      </trkpt>
      <trkpt lat="47.614412" lon="7.909095">
        <ele>331.498810</ele>
        <time>2021-11-10T22:52:36.129Z</time>
      </trkpt>
      <trkpt lat="47.614063" lon="7.909285">
        <ele>331.823435</ele>
        <time>2021-11-10T22:52:43.188Z</time>
      </trkpt>
      <trkpt lat="47.613934" lon="7.909339">
        <ele>331.940478</ele>
        <time>2021-11-10T22:52:45.752Z</time>
      </trkpt>
      <trkpt lat="47.613360" lon="7.909602">
        <ele>332.581598</ele>
        <time>2021-11-10T22:52:58.533Z</time>
      </trkpt>
      <trkpt lat="47.613280" lon="7.909624">
        <ele>332.675016</ele>
        <time>2021-11-10T22:53:00.237Z</time>
      </trkpt>
      <trkpt lat="47.612897" lon="7.909812">
        <ele>333.138212</ele>
        <time>2021-11-10T22:53:08.801Z</time>
      </trkpt>
      <trkpt lat="47.612379" lon="7.910057">
        <ele>333.762459</ele>
        <time>2021-11-10T22:53:18.935Z</time>
      </trkpt>
      <trkpt lat="47.612216" lon="7.910134">
        <ele>333.958870</ele>
        <time>2021-11-10T22:53:21.812Z</time>
      </trkpt>
      <trkpt lat="47.612131" lon="7.910214">
        <ele>334.074451</ele>
        <time>2021-11-10T22:53:23.686Z</time>
      </trkpt>
      <trkpt lat="47.612082" lon="7.910269">
        <ele>334.145002</ele>
        <time>2021-11-10T22:53:24.754Z</time>
      </trkpt>
      <trkpt lat="47.612020" lon="7.910364">
        <ele>334.165511</ele>
        <time>2021-11-10T22:53:26.320Z</time>
      </trkpt>
      <trkpt lat="47.611986" lon="7.910466">
        <ele>334.170974</ele>
        <time>2021-11-10T22:53:27.606Z</time>
      </trkpt>
      <trkpt lat="47.611981" lon="7.910534">
        <ele>334.174258</ele>
        <time>2021-11-10T22:53:28.235Z</time>
      </trkpt>
      <trkpt lat="47.611988" lon="7.910610">
        <ele>334.177940</ele>
        <time>2021-11-10T22:53:29.184Z</time>
      </trkpt>
      <trkpt lat="47.611994" lon="7.910676">
        <ele>334.181138</ele>
        <time>2021-11-10T22:53:30.103Z</time>
      </trkpt>
      <trkpt lat="47.612005" lon="7.910790">
        <ele>334.186667</ele>
        <time>2021-11-10T22:53:31.353Z</time>
      </trkpt>
      <trkpt lat="47.612029" lon="7.910940">
        <ele>334.194068</ele>
        <time>2021-11-10T22:53:33.262Z</time>
      </trkpt>
      <trkpt lat="47.611260" lon="7.911383">
        <ele>334.252819</ele>
        <time>2021-11-10T22:53:46.456Z</time>
      </trkpt>
      <trkpt lat="47.610416" lon="7.911983">
        <ele>333.737538</ele>
        <time>2021-11-10T22:53:58.370Z</time>
      </trkpt>
      <trkpt lat="47.610054" lon="7.912196">
        <ele>333.249297</ele>
        <time>2021-11-10T22:54:02.843Z</time>
      </trkpt>
      <trkpt lat="47.609914" lon="7.912278">
        <ele>333.060592</ele>
        <time>2021-11-10T22:54:04.571Z</time>
      </trkpt>
      <trkpt lat="47.608679" lon="7.912703">
        <ele>331.400180</ele>
        <time>2021-11-10T22:54:19.298Z</time>
      </trkpt>
      <trkpt lat="47.607663" lon="7.913198">
        <ele>329.890177</ele>
        <time>2021-11-10T22:54:31.623Z</time>
      </trkpt>
      <trkpt lat="47.607292" lon="7.913435">
        <ele>329.355372</ele>
        <time>2021-11-10T22:54:36.321Z</time>
      </trkpt>
      <trkpt lat="47.606938" lon="7.913697">
        <ele>328.911098</ele>
        <time>2021-11-10T22:54:41.095Z</time>
      </trkpt>
      <trkpt lat="47.606706" lon="7.913869">
        <ele>328.619836</ele>
        <time>2021-11-10T22:54:44.283Z</time>
      </trkpt>
      <trkpt lat="47.606558" lon="7.913988">
        <ele>328.430786</ele>
        <time>2021-11-10T22:54:46.374Z</time>
      </trkpt>
      <trkpt lat="47.606450" lon="7.914067">
        <ele>328.295558</ele>
        <time>2021-11-10T22:54:47.873Z</time>
      </trkpt>
      <trkpt lat="47.606200" lon="7.914255">
        <ele>327.980793</ele>
        <time>2021-11-10T22:54:51.287Z</time>
      </trkpt>
      <trkpt lat="47.605929" lon="7.914457">
        <ele>327.640199</ele>
        <time>2021-11-10T22:54:54.970Z</time>
      </trkpt>
      <trkpt lat="47.605648" lon="7.914613">
        <ele>327.103499</ele>
        <time>2021-11-10T22:54:58.534Z</time>
      </trkpt>
      <trkpt lat="47.605408" lon="7.914750">
        <ele>326.476311</ele>
        <time>2021-11-10T22:55:01.485Z</time>
      </trkpt>
      <trkpt lat="47.605105" lon="7.914869">
        <ele>325.711860</ele>
        <time>2021-11-10T22:55:05.056Z</time>
      </trkpt>
      <trkpt lat="47.604722" lon="7.914915">
        <ele>324.774710</ele>
        <time>2021-11-10T22:55:09.227Z</time>
      </trkpt>
      <trkpt lat="47.604393" lon="7.914885">
        <ele>323.970802</ele>
        <time>2021-11-10T22:55:12.646Z</time>
      </trkpt>
      <trkpt lat="47.604062" lon="7.914772">
        <ele>323.142422</ele>
        <time>2021-11-10T22:55:16.035Z</time>
      </trkpt>
      <trkpt lat="47.603884" lon="7.914671">
        <ele>322.321333</ele>
        <time>2021-11-10T22:55:17.823Z</time>
      </trkpt>
      <trkpt lat="47.603615" lon="7.914449">
        <ele>320.917237</ele>
        <time>2021-11-10T22:55:20.771Z</time>
      </trkpt>
      <trkpt lat="47.603373" lon="7.914188">
        <ele>319.552458</ele>
        <time>2021-11-10T22:55:23.615Z</time>
      </trkpt>
      <trkpt lat="47.603038" lon="7.913754">
        <ele>317.523629</ele>
        <time>2021-11-10T22:55:27.806Z</time>
      </trkpt>
      <trkpt lat="47.602861" lon="7.913538">
        <ele>316.478147</ele>
        <time>2021-11-10T22:55:30.010Z</time>
      </trkpt>
      <trkpt lat="47.602742" lon="7.913448">
        <ele>315.868877</ele>
        <time>2021-11-10T22:55:31.246Z</time>
      </trkpt>
      <trkpt lat="47.602118" lon="7.913280">
        <ele>313.438876</ele>
        <time>2021-11-10T22:55:37.301Z</time>
      </trkpt>
      <trkpt lat="47.600086" lon="7.913316">
        <ele>307.106002</ele>
        <time>2021-11-10T22:55:58.114Z</time>
      </trkpt>
      <trkpt lat="47.599361" lon="7.913211">
        <ele>305.357907</ele>
        <time>2021-11-10T22:56:05.964Z</time>
      </trkpt>
      <trkpt lat="47.598263" lon="7.912768">
        <ele>303.205731</ele>
        <time>2021-11-10T22:56:18.600Z</time>
      </trkpt>
      <trkpt lat="47.597324" lon="7.912182">
        <ele>301.580310</ele>
        <time>2021-11-10T22:56:30.408Z</time>
      </trkpt>
      <trkpt lat="47.596928" lon="7.912047">
        <ele>301.131582</ele>
        <time>2021-11-10T22:56:35.233Z</time>
      </trkpt>
      <trkpt lat="47.596657" lon="7.912027">
        <ele>300.855274</ele>
        <time>2021-11-10T22:56:38.504Z</time>
      </trkpt>
      <trkpt lat="47.596383" lon="7.912050">
        <ele>300.575806</ele>
        <time>2021-11-10T22:56:41.832Z</time>
      </trkpt>
      <trkpt lat="47.595919" lon="7.912182">
        <ele>300.094687</ele>
        <time>2021-11-10T22:56:47.652Z</time>
      </trkpt>
      <trkpt lat="47.595049" lon="7.912419">
        <ele>299.589473</ele>
        <time>2021-11-10T22:56:58.938Z</time>
      </trkpt>
      <trkpt lat="47.594246" lon="7.912426">
        <ele>299.477723</ele>
        <time>2021-11-10T22:57:10.061Z</time>
      </trkpt>
      <trkpt lat="47.593192" lon="7.912179">
        <ele>299.755211</ele>
        <time>2021-11-10T22:57:27.948Z</time>
      </trkpt>
      <trkpt lat="47.592198" lon="7.912030">
        <ele>300.432463</ele>
        <time>2021-11-10T22:57:46.866Z</time>
      </trkpt>
      <trkpt lat="47.591524" lon="7.911777">
        <ele>300.176497</ele>
        <time>2021-11-10T22:57:58.163Z</time>
      </trkpt>
      <trkpt lat="47.591361" lon="7.911643">
        <ele>299.977832</ele>
        <time>2021-11-10T22:58:01.525Z</time>
      </trkpt>
      <trkpt lat="47.591227" lon="7.911486">
        <ele>299.795787</ele>
        <time>2021-11-10T22:58:03.534Z</time>
      </trkpt>
      <trkpt lat="47.590486" lon="7.910371">
        <ele>298.635260</ele>
        <time>2021-11-10T22:58:15.260Z</time>
      </trkpt>
      <trkpt lat="47.590199" lon="7.910097">
        <ele>297.887583</ele>
        <time>2021-11-10T22:58:18.842Z</time>
      </trkpt>
      <trkpt lat="47.589984" lon="7.909953">
        <ele>297.370836</ele>
        <time>2021-11-10T22:58:21.332Z</time>
      </trkpt>
      <trkpt lat="47.589984" lon="7.909953">
        <ele>297.370836</ele>
        <time>2021-11-10T22:58:21.343Z</time>
      </trkpt>
      <trkpt lat="47.589846" lon="7.909880">
        <ele>297.049903</ele>
        <time>2021-11-10T22:58:22.935Z</time>
      </trkpt>
      <trkpt lat="47.589453" lon="7.909790">
        <ele>296.178878</ele>
        <time>2021-11-10T22:58:27.158Z</time>
      </trkpt>
      <trkpt lat="47.589186" lon="7.909798">
        <ele>295.593929</ele>
        <time>2021-11-10T22:58:29.995Z</time>
      </trkpt>
      <trkpt lat="47.588985" lon="7.909827">
        <ele>295.151583</ele>
        <time>2021-11-10T22:58:32.281Z</time>
      </trkpt>
      <trkpt lat="47.587926" lon="7.910125">
        <ele>293.791434</ele>
        <time>2021-11-10T22:58:44.789Z</time>
      </trkpt>
      <trkpt lat="47.587479" lon="7.910228">
        <ele>293.303085</ele>
        <time>2021-11-10T22:58:50.847Z</time>
      </trkpt>
      <trkpt lat="47.587167" lon="7.910236">
        <ele>292.966217</ele>
        <time>2021-11-10T22:58:54.961Z</time>
      </trkpt>
      <trkpt lat="47.586813" lon="7.910134">
        <ele>292.655472</ele>
        <time>2021-11-10T22:58:59.394Z</time>
      </trkpt>
      <trkpt lat="47.586540" lon="7.909941">
        <ele>292.433460</ele>
        <time>2021-11-10T22:59:03.081Z</time>
      </trkpt>
      <trkpt lat="47.586265" lon="7.909589">
        <ele>292.166773</ele>
        <time>2021-11-10T22:59:07.460Z</time>
      </trkpt>
      <trkpt lat="47.586062" lon="7.909215">
        <ele>291.929091</ele>
        <time>2021-11-10T22:59:11.538Z</time>
      </trkpt>
      <trkpt lat="47.585956" lon="7.908983">
        <ele>291.790353</ele>
        <time>2021-11-10T22:59:13.982Z</time>
      </trkpt>
      <trkpt lat="47.585899" lon="7.908777">
        <ele>291.680112</ele>
        <time>2021-11-10T22:59:16.035Z</time>
      </trkpt>
      <trkpt lat="47.585750" lon="7.908439">
        <ele>291.515289</ele>
        <time>2021-11-10T22:59:19.640Z</time>
      </trkpt>
      <trkpt lat="47.585760" lon="7.908367">
        <ele>291.537223</ele>
        <time>2021-11-10T22:59:20.355Z</time>
      </trkpt>
      <trkpt lat="47.585751" lon="7.908295">
        <ele>291.559071</ele>
        <time>2021-11-10T22:59:21.133Z</time>
      </trkpt>
      <trkpt lat="47.585761" lon="7.908160">
        <ele>291.599593</ele>
        <time>2021-11-10T22:59:22.917Z</time>
      </trkpt>
      <trkpt lat="47.585759" lon="7.908093">
        <ele>291.619603</ele>
        <time>2021-11-10T22:59:23.710Z</time>
      </trkpt>
      <trkpt lat="47.585745" lon="7.907994">
        <ele>291.649784</ele>
        <time>2021-11-10T22:59:25.022Z</time>
      </trkpt>
      <trkpt lat="47.585709" lon="7.907887">
        <ele>291.685461</ele>
        <time>2021-11-10T22:59:26.566Z</time>
      </trkpt>
      <trkpt lat="47.585496" lon="7.906982">
        <ele>291.971452</ele>
        <time>2021-11-10T22:59:36.708Z</time>
      </trkpt>
      <trkpt lat="47.585477" lon="7.906769">
        <ele>292.035558</ele>
        <time>2021-11-10T22:59:39.252Z</time>
      </trkpt>
      <trkpt lat="47.585522" lon="7.905992">
        <ele>292.268245</ele>
        <time>2021-11-10T22:59:49.436Z</time>
      </trkpt>
      <trkpt lat="47.585585" lon="7.905551">
        <ele>292.604539</ele>
        <time>2021-11-10T22:59:55.767Z</time>
      </trkpt>
      <trkpt lat="47.585693" lon="7.905272">
        <ele>292.884983</ele>
        <time>2021-11-10T23:00:00.368Z</time>
      </trkpt>
      <trkpt lat="47.585762" lon="7.905099">
        <ele>293.060201</ele>
        <time>2021-11-10T23:00:03.196Z</time>
      </trkpt>
      <trkpt lat="47.585958" lon="7.904606">
        <ele>293.559106</ele>
        <time>2021-11-10T23:00:11.158Z</time>
      </trkpt>
      <trkpt lat="47.586407" lon="7.903407">
        <ele>294.712001</ele>
        <time>2021-11-10T23:00:29.092Z</time>
      </trkpt>
      <trkpt lat="47.586847" lon="7.902221">
        <ele>295.510757</ele>
        <time>2021-11-10T23:00:46.096Z</time>
      </trkpt>
      <trkpt lat="47.587029" lon="7.901746">
        <ele>295.833129</ele>
        <time>2021-11-10T23:00:52.710Z</time>
      </trkpt>
      <trkpt lat="47.587506" lon="7.900489">
        <ele>296.669103</ele>
        <time>2021-11-10T23:01:09.741Z</time>
      </trkpt>
      <trkpt lat="47.587961" lon="7.899254">
        <ele>297.473772</ele>
        <time>2021-11-10T23:01:27.182Z</time>
      </trkpt>
      <trkpt lat="47.588436" lon="7.898021">
        <ele>298.398698</ele>
        <time>2021-11-10T23:01:45.251Z</time>
      </trkpt>
      <trkpt lat="47.588506" lon="7.897839">
        <ele>298.542473</ele>
        <time>2021-11-10T23:01:47.723Z</time>
      </trkpt>
      <trkpt lat="47.588808" lon="7.897009">
        <ele>299.189642</ele>
        <time>2021-11-10T23:02:00.007Z</time>
      </trkpt>
      <trkpt lat="47.589118" lon="7.896174">
        <ele>299.716581</ele>
        <time>2021-11-10T23:02:12.404Z</time>
      </trkpt>
      <trkpt lat="47.589590" lon="7.894990">
        <ele>300.250221</ele>
        <time>2021-11-10T23:02:28.826Z</time>
      </trkpt>
      <trkpt lat="47.589932" lon="7.894260">
        <ele>300.580178</ele>
        <time>2021-11-10T23:02:38.391Z</time>
      </trkpt>
      <trkpt lat="47.589960" lon="7.894201">
        <ele>300.562670</ele>
        <time>2021-11-10T23:02:39.083Z</time>
      </trkpt>
      <trkpt lat="47.590704" lon="7.892594">
        <ele>300.089639</ele>
        <time>2021-11-10T23:02:57.180Z</time>
      </trkpt>
      <trkpt lat="47.591003" lon="7.891941">
        <ele>299.805357</ele>
        <time>2021-11-10T23:03:03.853Z</time>
      </trkpt>
      <trkpt lat="47.591247" lon="7.891264">
        <ele>299.193676</ele>
        <time>2021-11-10T23:03:10.347Z</time>
      </trkpt>
      <trkpt lat="47.591381" lon="7.890797">
        <ele>298.789259</ele>
        <time>2021-11-10T23:03:14.334Z</time>
      </trkpt>
      <trkpt lat="47.591692" lon="7.889232">
        <ele>297.601239</ele>
        <time>2021-11-10T23:03:27.038Z</time>
      </trkpt>
      <trkpt lat="47.591728" lon="7.889070">
        <ele>297.512287</ele>
        <time>2021-11-10T23:03:28.400Z</time>
      </trkpt>
      <trkpt lat="47.591763" lon="7.888925">
        <ele>297.431972</ele>
        <time>2021-11-10T23:03:29.616Z</time>
      </trkpt>
      <trkpt lat="47.591709" lon="7.888913">
        <ele>297.389749</ele>
        <time>2021-11-10T23:03:30.222Z</time>
      </trkpt>
      <trkpt lat="47.591826" lon="7.888492">
        <ele>297.152287</ele>
        <time>2021-11-10T23:03:33.942Z</time>
      </trkpt>
      <trkpt lat="47.591875" lon="7.888327">
        <ele>297.058267</ele>
        <time>2021-11-10T23:03:35.390Z</time>
      </trkpt>
      <trkpt lat="47.592704" lon="7.885535">
        <ele>296.701746</ele>
        <time>2021-11-10T23:04:05.128Z</time>
      </trkpt>
      <trkpt lat="47.593108" lon="7.884664">
        <ele>296.946988</ele>
        <time>2021-11-10T23:04:17.939Z</time>
      </trkpt>
      <trkpt lat="47.593166" lon="7.884637">
        <ele>296.994920</ele>
        <time>2021-11-10T23:04:19.526Z</time>
      </trkpt>
      <trkpt lat="47.593354" lon="7.884147">
        <ele>297.294685</ele>
        <time>2021-11-10T23:04:26.412Z</time>
      </trkpt>
      <trkpt lat="47.593465" lon="7.883826">
        <ele>297.486502</ele>
        <time>2021-11-10T23:04:30.834Z</time>
      </trkpt>
      <trkpt lat="47.593516" lon="7.883635">
        <ele>297.595734</ele>
        <time>2021-11-10T23:04:34.089Z</time>
      </trkpt>
      <trkpt lat="47.593602" lon="7.883202">
        <ele>297.835752</ele>
        <time>2021-11-10T23:04:40.183Z</time>
      </trkpt>
      <trkpt lat="47.593695" lon="7.882631">
        <ele>298.148100</ele>
        <time>2021-11-10T23:04:47.552Z</time>
      </trkpt>
      <trkpt lat="47.593743" lon="7.882378">
        <ele>298.167247</ele>
        <time>2021-11-10T23:04:49.998Z</time>
      </trkpt>
      <trkpt lat="47.593810" lon="7.882131">
        <ele>297.889137</ele>
        <time>2021-11-10T23:04:52.491Z</time>
      </trkpt>
      <trkpt lat="47.593831" lon="7.882052">
        <ele>297.800432</ele>
        <time>2021-11-10T23:04:53.288Z</time>
      </trkpt>
      <trkpt lat="47.593960" lon="7.881629">
        <ele>297.315479</ele>
        <time>2021-11-10T23:04:56.978Z</time>
      </trkpt>
      <trkpt lat="47.593971" lon="7.881590">
        <ele>297.271320</ele>
        <time>2021-11-10T23:04:57.341Z</time>
      </trkpt>
      <trkpt lat="47.593986" lon="7.881532">
        <ele>297.206430</ele>
        <time>2021-11-10T23:04:57.822Z</time>
      </trkpt>
      <trkpt lat="47.594029" lon="7.881400">
        <ele>297.053296</ele>
        <time>2021-11-10T23:04:58.886Z</time>
      </trkpt>
      <trkpt lat="47.594057" lon="7.881307">
        <ele>296.946905</ele>
        <time>2021-11-10T23:04:59.669Z</time>
      </trkpt>
      <trkpt lat="47.594067" lon="7.881235">
        <ele>296.870115</ele>
        <time>2021-11-10T23:05:00.212Z</time>
      </trkpt>
      <trkpt lat="47.594067" lon="7.881089">
        <ele>296.717601</ele>
        <time>2021-11-10T23:05:01.375Z</time>
      </trkpt>
      <trkpt lat="47.594054" lon="7.881021">
        <ele>296.643768</ele>
        <time>2021-11-10T23:05:01.909Z</time>
      </trkpt>
      <trkpt lat="47.594054" lon="7.881021">
        <ele>296.643768</ele>
        <time>2021-11-10T23:05:01.912Z</time>
      </trkpt>
      <trkpt lat="47.594014" lon="7.880939">
        <ele>296.538050</ele>
        <time>2021-11-10T23:05:02.636Z</time>
      </trkpt>
      <trkpt lat="47.593967" lon="7.880875">
        <ele>296.439207</ele>
        <time>2021-11-10T23:05:03.341Z</time>
      </trkpt>
      <trkpt lat="47.593811" lon="7.880736">
        <ele>296.157294</ele>
        <time>2021-11-10T23:05:05.373Z</time>
      </trkpt>
      <trkpt lat="47.593729" lon="7.880642">
        <ele>295.996746</ele>
        <time>2021-11-10T23:05:06.471Z</time>
      </trkpt>
      <trkpt lat="47.593692" lon="7.880558">
        <ele>295.891939</ele>
        <time>2021-11-10T23:05:07.211Z</time>
      </trkpt>
      <trkpt lat="47.593635" lon="7.880635">
        <ele>295.772500</ele>
        <time>2021-11-10T23:05:08.035Z</time>
      </trkpt>
      <trkpt lat="47.593588" lon="7.880675">
        <ele>295.688558</ele>
        <time>2021-11-10T23:05:08.641Z</time>
      </trkpt>
      <trkpt lat="47.593483" lon="7.880648">
        <ele>295.523486</ele>
        <time>2021-11-10T23:05:09.802Z</time>
      </trkpt>
      <trkpt lat="47.593164" lon="7.880480">
        <ele>294.462509</ele>
        <time>2021-11-10T23:05:13.272Z</time>
      </trkpt>
      <trkpt lat="47.592855" lon="7.880299">
        <ele>293.350080</ele>
        <time>2021-11-10T23:05:16.554Z</time>
      </trkpt>
      <trkpt lat="47.592558" lon="7.880084">
        <ele>292.243451</ele>
        <time>2021-11-10T23:05:19.765Z</time>
      </trkpt>
      <trkpt lat="47.592176" lon="7.879859">
        <ele>290.867182</ele>
        <time>2021-11-10T23:05:23.814Z</time>
      </trkpt>
      <trkpt lat="47.591747" lon="7.879696">
        <ele>289.401650</ele>
        <time>2021-11-10T23:05:28.286Z</time>
      </trkpt>
      <trkpt lat="47.591433" lon="7.879589">
        <ele>288.666528</ele>
        <time>2021-11-10T23:05:31.620Z</time>
      </trkpt>
      <trkpt lat="47.591348" lon="7.879568">
        <ele>288.469912</ele>
        <time>2021-11-10T23:05:32.534Z</time>
      </trkpt>
      <trkpt lat="47.591318" lon="7.879563">
        <ele>288.401031</ele>
        <time>2021-11-10T23:05:32.860Z</time>
      </trkpt>
      <trkpt lat="47.591234" lon="7.879550">
        <ele>288.208329</ele>
        <time>2021-11-10T23:05:33.744Z</time>
      </trkpt>
      <trkpt lat="47.591201" lon="7.878391">
        <ele>286.423275</ele>
        <time>2021-11-10T23:05:42.180Z</time>
      </trkpt>
      <trkpt lat="47.591165" lon="7.877839">
        <ele>285.569896</ele>
        <time>2021-11-10T23:05:46.284Z</time>
      </trkpt>
      <trkpt lat="47.591021" lon="7.877714">
        <ele>285.263556</ele>
        <time>2021-11-10T23:05:48.201Z</time>
      </trkpt>
      <trkpt lat="47.590631" lon="7.877615">
        <ele>284.822078</ele>
        <time>2021-11-10T23:05:52.895Z</time>
      </trkpt>
      <trkpt lat="47.590500" lon="7.877526">
        <ele>284.661300</ele>
        <time>2021-11-10T23:05:54.575Z</time>
      </trkpt>
      <trkpt lat="47.590479" lon="7.877434">
        <ele>284.588212</ele>
        <time>2021-11-10T23:05:55.347Z</time>
      </trkpt>
      <trkpt lat="47.590532" lon="7.877177">
        <ele>284.385981</ele>
        <time>2021-11-10T23:05:57.654Z</time>
      </trkpt>
      <trkpt lat="47.590592" lon="7.876946">
        <ele>284.199708</ele>
        <time>2021-11-10T23:05:59.609Z</time>
      </trkpt>
      <trkpt lat="47.590643" lon="7.876593">
        <ele>283.928050</ele>
        <time>2021-11-10T23:06:02.679Z</time>
      </trkpt>
      <trkpt lat="47.590771" lon="7.875667">
        <ele>283.273466</ele>
        <time>2021-11-10T23:06:10.708Z</time>
      </trkpt>
      <trkpt lat="47.590851" lon="7.875195">
        <ele>283.094141</ele>
        <time>2021-11-10T23:06:14.876Z</time>
      </trkpt>
      <trkpt lat="47.591067" lon="7.874101">
        <ele>282.674119</ele>
        <time>2021-11-10T23:06:25.206Z</time>
      </trkpt>
      <trkpt lat="47.591105" lon="7.873760">
        <ele>282.546768</ele>
        <time>2021-11-10T23:06:28.394Z</time>
      </trkpt>
      <trkpt lat="47.591074" lon="7.872343">
        <ele>281.920183</ele>
        <time>2021-11-10T23:06:40.883Z</time>
      </trkpt>
      <trkpt lat="47.590993" lon="7.871168">
        <ele>281.343636</ele>
        <time>2021-11-10T23:06:50.820Z</time>
      </trkpt>
      <trkpt lat="47.590885" lon="7.870375">
        <ele>281.004454</ele>
        <time>2021-11-10T23:06:57.639Z</time>
      </trkpt>
      <trkpt lat="47.590882" lon="7.870356">
        <ele>281.000538</ele>
        <time>2021-11-10T23:06:57.822Z</time>
      </trkpt>
      <trkpt lat="47.590872" lon="7.870300">
        <ele>280.988912</ele>
        <time>2021-11-10T23:06:58.406Z</time>
      </trkpt>
      <trkpt lat="47.590870" lon="7.870288">
        <ele>280.986431</ele>
        <time>2021-11-10T23:06:58.553Z</time>
      </trkpt>
      <trkpt lat="47.590773" lon="7.869984">
        <ele>280.918936</ele>
        <time>2021-11-10T23:07:01.452Z</time>
      </trkpt>
      <trkpt lat="47.590705" lon="7.869768">
        <ele>280.871096</ele>
        <time>2021-11-10T23:07:03.671Z</time>
      </trkpt>
      <trkpt lat="47.590470" lon="7.869069">
        <ele>280.714347</ele>
        <time>2021-11-10T23:07:10.703Z</time>
      </trkpt>
      <trkpt lat="47.590421" lon="7.868927">
        <ele>280.682334</ele>
        <time>2021-11-10T23:07:12.170Z</time>
      </trkpt>
      <trkpt lat="47.590348" lon="7.868680">
        <ele>280.628212</ele>
        <time>2021-11-10T23:07:15.044Z</time>
      </trkpt>
      <trkpt lat="47.590292" lon="7.868520">
        <ele>280.592034</ele>
        <time>2021-11-10T23:07:16.672Z</time>
      </trkpt>
      <trkpt lat="47.590365" lon="7.868441">
        <ele>280.565140</ele>
        <time>2021-11-10T23:07:18.062Z</time>
      </trkpt>
      <trkpt lat="47.590348" lon="7.868400">
        <ele>280.555481</ele>
        <time>2021-11-10T23:07:18.727Z</time>
      </trkpt>
      <trkpt lat="47.590333" lon="7.867008">
        <ele>280.756829</ele>
        <time>2021-11-10T23:07:33.720Z</time>
      </trkpt>
      <trkpt lat="47.590274" lon="7.866644">
        <ele>280.837357</ele>
        <time>2021-11-10T23:07:38.218Z</time>
      </trkpt>
      <trkpt lat="47.590266" lon="7.866595">
        <ele>280.848201</ele>
        <time>2021-11-10T23:07:38.756Z</time>
      </trkpt>
      <trkpt lat="47.590251" lon="7.866509">
        <ele>280.867309</ele>
        <time>2021-11-10T23:07:39.634Z</time>
      </trkpt>
      <trkpt lat="47.589823" lon="7.864422">
        <ele>281.137320</ele>
        <time>2021-11-10T23:08:02.904Z</time>
      </trkpt>
      <trkpt lat="47.589471" lon="7.862994">
        <ele>281.204857</ele>
        <time>2021-11-10T23:08:17.650Z</time>
      </trkpt>
      <trkpt lat="47.587447" lon="7.853842">
        <ele>280.833563</ele>
        <time>2021-11-10T23:09:52.298Z</time>
      </trkpt>
      <trkpt lat="47.587300" lon="7.853345">
        <ele>280.848829</ele>
        <time>2021-11-10T23:09:57.868Z</time>
      </trkpt>
      <trkpt lat="47.586757" lon="7.850579">
        <ele>281.267398</ele>
        <time>2021-11-10T23:10:28.624Z</time>
      </trkpt>
      <trkpt lat="47.586522" lon="7.848600">
        <ele>281.725662</ele>
        <time>2021-11-10T23:10:50.764Z</time>
      </trkpt>
      <trkpt lat="47.586484" lon="7.848370">
        <ele>281.781630</ele>
        <time>2021-11-10T23:10:53.402Z</time>
      </trkpt>
      <trkpt lat="47.586486" lon="7.847936">
        <ele>281.884209</ele>
        <time>2021-11-10T23:10:58.111Z</time>
      </trkpt>
      <trkpt lat="47.586470" lon="7.846838">
        <ele>282.000786</ele>
        <time>2021-11-10T23:11:09.903Z</time>
      </trkpt>
      <trkpt lat="47.586460" lon="7.846175">
        <ele>282.048577</ele>
        <time>2021-11-10T23:11:16.865Z</time>
      </trkpt>
      <trkpt lat="47.586452" lon="7.845634">
        <ele>282.087574</ele>
        <time>2021-11-10T23:11:22.364Z</time>
      </trkpt>
      <trkpt lat="47.586790" lon="7.842637">
        <ele>281.872117</ele>
        <time>2021-11-10T23:11:51.682Z</time>
      </trkpt>
      <trkpt lat="47.586802" lon="7.842180">
        <ele>281.801880</ele>
        <time>2021-11-10T23:11:55.959Z</time>
      </trkpt>
      <trkpt lat="47.586809" lon="7.842018">
        <ele>281.769707</ele>
        <time>2021-11-10T23:11:57.462Z</time>
      </trkpt>
      <trkpt lat="47.586920" lon="7.841604">
        <ele>281.681412</ele>
        <time>2021-11-10T23:12:01.634Z</time>
      </trkpt>
      <trkpt lat="47.587628" lon="7.835942">
        <ele>280.494407</ele>
        <time>2021-11-10T23:12:55.043Z</time>
      </trkpt>
      <trkpt lat="47.587848" lon="7.834235">
        <ele>280.199143</ele>
        <time>2021-11-10T23:13:10.902Z</time>
      </trkpt>
      <trkpt lat="47.586496" lon="7.833050">
        <ele>280.217189</ele>
        <time>2021-11-10T23:13:33.268Z</time>
      </trkpt>
      <trkpt lat="47.586276" lon="7.833601">
        <ele>281.274787</ele>
        <time>2021-11-10T23:13:41.521Z</time>
      </trkpt>
      <trkpt lat="47.585278" lon="7.832688">
        <ele>284.146562</ele>
        <time>2021-11-10T23:14:12.974Z</time>
      </trkpt>
      <trkpt lat="47.585247" lon="7.832651">
        <ele>284.244020</ele>
        <time>2021-11-10T23:14:14.275Z</time>
      </trkpt>
      <trkpt lat="47.585195" lon="7.832588">
        <ele>284.408471</ele>
        <time>2021-11-10T23:14:16.471Z</time>
      </trkpt>
      <trkpt lat="47.585027" lon="7.832425">
        <ele>285.107813</ele>
        <time>2021-11-10T23:14:21.879Z</time>
      </trkpt>
      <trkpt lat="47.584717" lon="7.832264">
        <ele>286.501975</ele>
        <time>2021-11-10T23:14:31.544Z</time>
      </trkpt>
      <trkpt lat="47.584367" lon="7.832247">
        <ele>287.988315</ele>
        <time>2021-11-10T23:14:42.645Z</time>
      </trkpt>
      <trkpt lat="47.584156" lon="7.832334">
        <ele>288.917876</ele>
        <time>2021-11-10T23:14:50.352Z</time>
      </trkpt>
      <trkpt lat="47.584029" lon="7.832543">
        <ele>289.723219</ele>
        <time>2021-11-10T23:14:57.087Z</time>
      </trkpt>
      <trkpt lat="47.583849" lon="7.832883">
        <ele>290.960621</ele>
        <time>2021-11-10T23:15:07.476Z</time>
      </trkpt>
      <trkpt lat="47.583696" lon="7.833171">
        <ele>292.010164</ele>
        <time>2021-11-10T23:15:16.182Z</time>
      </trkpt>
      <trkpt lat="47.583523" lon="7.833509">
        <ele>292.850248</ele>
        <time>2021-11-10T23:15:24.642Z</time>
      </trkpt>
      <trkpt lat="47.583401" lon="7.833658">
        <ele>293.263037</ele>
        <time>2021-11-10T23:15:28.515Z</time>
      </trkpt>
      <trkpt lat="47.583327" lon="7.833750">
        <ele>293.515244</ele>
        <time>2021-11-10T23:15:31.641Z</time>
      </trkpt>
      <trkpt lat="47.583163" lon="7.833942">
        <ele>294.060968</ele>
        <time>2021-11-10T23:15:37.134Z</time>
      </trkpt>
      <trkpt lat="47.582828" lon="7.834117">
        <ele>294.988542</ele>
        <time>2021-11-10T23:15:45.581Z</time>
      </trkpt>
      <trkpt lat="47.580816" lon="7.834599">
        <ele>298.438652</ele>
        <time>2021-11-10T23:16:29.461Z</time>
      </trkpt>
      <trkpt lat="47.580667" lon="7.834627">
        <ele>298.612489</ele>
        <time>2021-11-10T23:16:31.842Z</time>
      </trkpt>
      <trkpt lat="47.579073" lon="7.834987">
        <ele>298.518407</ele>
        <time>2021-11-10T23:16:55.803Z</time>
      </trkpt>
      <trkpt lat="47.576219" lon="7.835650">
        <ele>295.451256</ele>
        <time>2021-11-10T23:17:29.463Z</time>
      </trkpt>
      <trkpt lat="47.575959" lon="7.835718">
        <ele>295.251355</ele>
        <time>2021-11-10T23:17:32.618Z</time>
      </trkpt>
      <trkpt lat="47.575033" lon="7.835907">
        <ele>294.543614</ele>
        <time>2021-11-10T23:17:45.072Z</time>
      </trkpt>
      <trkpt lat="47.574568" lon="7.836025">
        <ele>294.619250</ele>
        <time>2021-11-10T23:17:52.059Z</time>
      </trkpt>
      <trkpt lat="47.574158" lon="7.836106">
        <ele>294.737425</ele>
        <time>2021-11-10T23:17:58.731Z</time>
      </trkpt>
      <trkpt lat="47.573815" lon="7.836215">
        <ele>294.837648</ele>
        <time>2021-11-10T23:18:06.411Z</time>
      </trkpt>
      <trkpt lat="47.573348" lon="7.836386">
        <ele>294.975083</ele>
        <time>2021-11-10T23:18:17.263Z</time>
      </trkpt>
      <trkpt lat="47.572760" lon="7.836606">
        <ele>295.275953</ele>
        <time>2021-11-10T23:18:30.873Z</time>
      </trkpt>
      <trkpt lat="47.572296" lon="7.836777">
        <ele>295.542839</ele>
        <time>2021-11-10T23:18:41.299Z</time>
      </trkpt>
      <trkpt lat="47.572139" lon="7.836834">
        <ele>295.633066</ele>
        <time>2021-11-10T23:18:44.785Z</time>
      </trkpt>
      <trkpt lat="47.571871" lon="7.836932">
        <ele>295.787146</ele>
        <time>2021-11-10T23:18:50.822Z</time>
      </trkpt>
      <trkpt lat="47.571771" lon="7.836971">
        <ele>295.844865</ele>
        <time>2021-11-10T23:18:53.059Z</time>
      </trkpt>
      <trkpt lat="47.571254" lon="7.837161">
        <ele>296.296963</ele>
        <time>2021-11-10T23:19:05.509Z</time>
      </trkpt>
      <trkpt lat="47.570985" lon="7.837265">
        <ele>296.646377</ele>
        <time>2021-11-10T23:19:12.462Z</time>
      </trkpt>
      <trkpt lat="47.570872" lon="7.837307">
        <ele>296.792802</ele>
        <time>2021-11-10T23:19:15.479Z</time>
      </trkpt>
      <trkpt lat="47.570298" lon="7.837528">
        <ele>297.538194</ele>
        <time>2021-11-10T23:19:30.800Z</time>
      </trkpt>
      <trkpt lat="47.570038" lon="7.837643">
        <ele>297.879224</ele>
        <time>2021-11-10T23:19:37.924Z</time>
      </trkpt>
      <trkpt lat="47.569907" lon="7.837696">
        <ele>298.049899</ele>
        <time>2021-11-10T23:19:41.444Z</time>
      </trkpt>
      <trkpt lat="47.569814" lon="7.837733">
        <ele>298.170927</ele>
        <time>2021-11-10T23:19:44.006Z</time>
      </trkpt>
      <trkpt lat="47.569665" lon="7.837789">
        <ele>298.363458</ele>
        <time>2021-11-10T23:19:47.970Z</time>
      </trkpt>
      <trkpt lat="47.569522" lon="7.837844">
        <ele>298.547676</ele>
        <time>2021-11-10T23:19:51.825Z</time>
      </trkpt>
      <trkpt lat="47.569310" lon="7.837922">
        <ele>298.820050</ele>
        <time>2021-11-10T23:19:57.573Z</time>
      </trkpt>
      <trkpt lat="47.568988" lon="7.838054">
        <ele>299.236639</ele>
        <time>2021-11-10T23:20:06.350Z</time>
      </trkpt>
      <trkpt lat="47.568420" lon="7.838300">
        <ele>299.974519</ele>
        <time>2021-11-10T23:20:21.608Z</time>
      </trkpt>
      <trkpt lat="47.568160" lon="7.838415">
        <ele>300.312852</ele>
        <time>2021-11-10T23:20:28.020Z</time>
      </trkpt>
      <trkpt lat="47.568042" lon="7.838436">
        <ele>300.461048</ele>
        <time>2021-11-10T23:20:30.755Z</time>
      </trkpt>
      <trkpt lat="47.567936" lon="7.838380">
        <ele>300.569136</ele>
        <time>2021-11-10T23:20:33.288Z</time>
      </trkpt>
      <trkpt lat="47.567846" lon="7.838609">
        <ele>300.701536</ele>
        <time>2021-11-10T23:20:36.314Z</time>
      </trkpt>
      <trkpt lat="47.567823" lon="7.838648">
        <ele>300.727414</ele>
        <time>2021-11-10T23:20:36.970Z</time>
      </trkpt>
      <trkpt lat="47.567634" lon="7.839037">
        <ele>300.966899</ele>
        <time>2021-11-10T23:20:42.386Z</time>
      </trkpt>
      <trkpt lat="47.567626" lon="7.839064">
        <ele>300.981632</ele>
        <time>2021-11-10T23:20:42.800Z</time>
      </trkpt>
      <trkpt lat="47.567564" lon="7.839283">
        <ele>301.100284</ele>
        <time>2021-11-10T23:20:45.518Z</time>
      </trkpt>
      <trkpt lat="47.567530" lon="7.839459">
        <ele>301.191746</ele>
        <time>2021-11-10T23:20:47.705Z</time>
      </trkpt>
      <trkpt lat="47.567510" lon="7.839548">
        <ele>301.238611</ele>
        <time>2021-11-10T23:20:48.828Z</time>
      </trkpt>
      <trkpt lat="47.567481" lon="7.839664">
        <ele>301.300415</ele>
        <time>2021-11-10T23:20:50.171Z</time>
      </trkpt>
      <trkpt lat="47.567406" lon="7.839778">
        <ele>301.379962</ele>
        <time>2021-11-10T23:20:52.220Z</time>
      </trkpt>
      <trkpt lat="47.567111" lon="7.839998">
        <ele>301.624489</ele>
        <time>2021-11-10T23:20:58.202Z</time>
      </trkpt>
      <trkpt lat="47.566988" lon="7.840076">
        <ele>301.723551</ele>
        <time>2021-11-10T23:21:00.648Z</time>
      </trkpt>
      <trkpt lat="47.566826" lon="7.840179">
        <ele>301.854201</ele>
        <time>2021-11-10T23:21:03.723Z</time>
      </trkpt>
      <trkpt lat="47.566592" lon="7.840279">
        <ele>302.122046</ele>
        <time>2021-11-10T23:21:08.351Z</time>
      </trkpt>
      <trkpt lat="47.566568" lon="7.840289">
        <ele>302.149465</ele>
        <time>2021-11-10T23:21:08.833Z</time>
      </trkpt>
      <trkpt lat="47.566515" lon="7.840312">
        <ele>302.210203</ele>
        <time>2021-11-10T23:21:09.641Z</time>
      </trkpt>
      <trkpt lat="47.566450" lon="7.840326">
        <ele>302.282443</ele>
        <time>2021-11-10T23:21:10.880Z</time>
      </trkpt>
      <trkpt lat="47.566350" lon="7.840350">
        <ele>302.393859</ele>
        <time>2021-11-10T23:21:12.787Z</time>
      </trkpt>
      <trkpt lat="47.566221" lon="7.840340">
        <ele>302.535930</ele>
        <time>2021-11-10T23:21:15.121Z</time>
      </trkpt>
      <trkpt lat="47.566142" lon="7.840322">
        <ele>302.623837</ele>
        <time>2021-11-10T23:21:16.354Z</time>
      </trkpt>
      <trkpt lat="47.566081" lon="7.840309">
        <ele>302.691617</ele>
        <time>2021-11-10T23:21:17.567Z</time>
      </trkpt>
      <trkpt lat="47.565906" lon="7.840272">
        <ele>302.886035</ele>
        <time>2021-11-10T23:21:21.015Z</time>
      </trkpt>
      <trkpt lat="47.565343" lon="7.840185">
        <ele>303.508595</ele>
        <time>2021-11-10T23:21:32.339Z</time>
      </trkpt>
      <trkpt lat="47.565233" lon="7.840176">
        <ele>303.629760</ele>
        <time>2021-11-10T23:21:34.675Z</time>
      </trkpt>
      <trkpt lat="47.565168" lon="7.840179">
        <ele>303.701283</ele>
        <time>2021-11-10T23:21:36.051Z</time>
      </trkpt>
      <trkpt lat="47.565057" lon="7.840213">
        <ele>303.825944</ele>
        <time>2021-11-10T23:21:38.295Z</time>
      </trkpt>
      <trkpt lat="47.564936" lon="7.840261">
        <ele>303.963319</ele>
        <time>2021-11-10T23:21:41.011Z</time>
      </trkpt>
      <trkpt lat="47.564558" lon="7.840516">
        <ele>304.418746</ele>
        <time>2021-11-10T23:21:49.292Z</time>
      </trkpt>
      <trkpt lat="47.564534" lon="7.840532">
        <ele>304.447604</ele>
        <time>2021-11-10T23:21:49.791Z</time>
      </trkpt>
      <trkpt lat="47.564463" lon="7.840580">
        <ele>304.533179</ele>
        <time>2021-11-10T23:21:51.405Z</time>
      </trkpt>
      <trkpt lat="47.564094" lon="7.840838">
        <ele>304.980586</ele>
        <time>2021-11-10T23:21:59.065Z</time>
      </trkpt>
      <trkpt lat="47.563986" lon="7.840916">
        <ele>305.112330</ele>
        <time>2021-11-10T23:22:01.353Z</time>
      </trkpt>
      <trkpt lat="47.563941" lon="7.840948">
        <ele>305.167063</ele>
        <time>2021-11-10T23:22:02.278Z</time>
      </trkpt>
      <trkpt lat="47.563805" lon="7.841046">
        <ele>305.332891</ele>
        <time>2021-11-10T23:22:05.085Z</time>
      </trkpt>
      <trkpt lat="47.563659" lon="7.841150">
        <ele>305.510525</ele>
        <time>2021-11-10T23:22:07.976Z</time>
      </trkpt>
      <trkpt lat="47.563483" lon="7.841269">
        <ele>305.722659</ele>
        <time>2021-11-10T23:22:11.705Z</time>
      </trkpt>
      <trkpt lat="47.563300" lon="7.841391">
        <ele>305.953213</ele>
        <time>2021-11-10T23:22:15.264Z</time>
      </trkpt>
      <trkpt lat="47.563016" lon="7.841568">
        <ele>306.316728</ele>
        <time>2021-11-10T23:22:21.122Z</time>
      </trkpt>
      <trkpt lat="47.562965" lon="7.841597">
        <ele>306.381180</ele>
        <time>2021-11-10T23:22:22.101Z</time>
      </trkpt>
      <trkpt lat="47.562904" lon="7.841632">
        <ele>306.458360</ele>
        <time>2021-11-10T23:22:23.329Z</time>
      </trkpt>
      <trkpt lat="47.562574" lon="7.841873">
        <ele>306.892434</ele>
        <time>2021-11-10T23:22:30.295Z</time>
      </trkpt>
      <trkpt lat="47.562440" lon="7.842083">
        <ele>307.122547</ele>
        <time>2021-11-10T23:22:33.915Z</time>
      </trkpt>
      <trkpt lat="47.562385" lon="7.842183">
        <ele>307.225261</ele>
        <time>2021-11-10T23:22:35.481Z</time>
      </trkpt>
      <trkpt lat="47.562300" lon="7.842326">
        <ele>307.376987</ele>
        <time>2021-11-10T23:22:38.381Z</time>
      </trkpt>
      <trkpt lat="47.562179" lon="7.842500">
        <ele>307.575920</ele>
        <time>2021-11-10T23:22:41.859Z</time>
      </trkpt>
      <trkpt lat="47.561498" lon="7.843130">
        <ele>308.477328</ele>
        <time>2021-11-10T23:22:58.571Z</time>
      </trkpt>
      <trkpt lat="47.561434" lon="7.843181">
        <ele>308.556483</ele>
        <time>2021-11-10T23:23:00.376Z</time>
      </trkpt>
      <trkpt lat="47.561038" lon="7.843502">
        <ele>309.048159</ele>
        <time>2021-11-10T23:23:09.077Z</time>
      </trkpt>
      <trkpt lat="47.560934" lon="7.843550">
        <ele>309.166813</ele>
        <time>2021-11-10T23:23:11.232Z</time>
      </trkpt>
      <trkpt lat="47.560812" lon="7.843560">
        <ele>309.299910</ele>
        <time>2021-11-10T23:23:13.475Z</time>
      </trkpt>
      <trkpt lat="47.560515" lon="7.843379">
        <ele>309.649720</ele>
        <time>2021-11-10T23:23:19.212Z</time>
      </trkpt>
      <trkpt lat="47.560430" lon="7.843341">
        <ele>309.746431</ele>
        <time>2021-11-10T23:23:21.014Z</time>
      </trkpt>
      <trkpt lat="47.560338" lon="7.843341">
        <ele>309.846646</ele>
        <time>2021-11-10T23:23:22.237Z</time>
      </trkpt>
      <trkpt lat="47.560209" lon="7.843393">
        <ele>309.886315</ele>
        <time>2021-11-10T23:23:24.712Z</time>
      </trkpt>
      <trkpt lat="47.560139" lon="7.843433">
        <ele>309.886705</ele>
        <time>2021-11-10T23:23:26.032Z</time>
      </trkpt>
      <trkpt lat="47.559847" lon="7.843604">
        <ele>309.888337</ele>
        <time>2021-11-10T23:23:31.200Z</time>
      </trkpt>
      <trkpt lat="47.559583" lon="7.843813">
        <ele>309.889892</ele>
        <time>2021-11-10T23:23:35.690Z</time>
      </trkpt>
      <trkpt lat="47.559158" lon="7.844233">
        <ele>309.892547</ele>
        <time>2021-11-10T23:23:42.900Z</time>
      </trkpt>
      <trkpt lat="47.559109" lon="7.844229">
        <ele>309.892802</ele>
        <time>2021-11-10T23:23:43.490Z</time>
      </trkpt>
      <trkpt lat="47.559060" lon="7.844197">
        <ele>309.893081</ele>
        <time>2021-11-10T23:23:44.121Z</time>
      </trkpt>
      <trkpt lat="47.558884" lon="7.843836">
        <ele>309.894643</ele>
        <time>2021-11-10T23:23:48.273Z</time>
      </trkpt>
      <trkpt lat="47.558555" lon="7.843392">
        <ele>309.904252</ele>
        <time>2021-11-10T23:23:54.309Z</time>
      </trkpt>
      <trkpt lat="47.558471" lon="7.843365">
        <ele>309.906510</ele>
        <time>2021-11-10T23:23:55.566Z</time>
      </trkpt>
      <trkpt lat="47.558405" lon="7.843371">
        <ele>309.908246</ele>
        <time>2021-11-10T23:23:56.735Z</time>
      </trkpt>
      <trkpt lat="47.558136" lon="7.843582">
        <ele>309.916240</ele>
        <time>2021-11-10T23:24:00.942Z</time>
      </trkpt>
      <trkpt lat="47.557967" lon="7.843683">
        <ele>309.921026</ele>
        <time>2021-11-10T23:24:03.661Z</time>
      </trkpt>
      <trkpt lat="47.557846" lon="7.843756">
        <ele>309.924457</ele>
        <time>2021-11-10T23:24:05.505Z</time>
      </trkpt>
      <trkpt lat="47.557759" lon="7.843839">
        <ele>309.927174</ele>
        <time>2021-11-10T23:24:07.281Z</time>
      </trkpt>
      <trkpt lat="47.557715" lon="7.843940">
        <ele>309.929305</ele>
        <time>2021-11-10T23:24:08.510Z</time>
      </trkpt>
      <trkpt lat="47.557560" lon="7.844433">
        <ele>309.938944</ele>
        <time>2021-11-10T23:24:14.469Z</time>
      </trkpt>
      <trkpt lat="47.557282" lon="7.844832">
        <ele>310.115549</ele>
        <time>2021-11-10T23:24:20.901Z</time>
      </trkpt>
      <trkpt lat="47.557134" lon="7.845095">
        <ele>310.272032</ele>
        <time>2021-11-10T23:24:24.676Z</time>
      </trkpt>
      <trkpt lat="47.556636" lon="7.845928">
        <ele>310.780569</ele>
        <time>2021-11-10T23:24:37.527Z</time>
      </trkpt>
      <trkpt lat="47.556060" lon="7.846859">
        <ele>311.511107</ele>
        <time>2021-11-10T23:24:53.654Z</time>
      </trkpt>
      <trkpt lat="47.555990" lon="7.846965">
        <ele>311.631529</ele>
        <time>2021-11-10T23:24:55.638Z</time>
      </trkpt>
      <trkpt lat="47.555966" lon="7.846932">
        <ele>311.670922</ele>
        <time>2021-11-10T23:24:56.226Z</time>
      </trkpt>
      <trkpt lat="47.555892" lon="7.846856">
        <ele>311.779252</ele>
        <time>2021-11-10T23:24:57.782Z</time>
      </trkpt>
      <trkpt lat="47.555855" lon="7.846815">
        <ele>311.834841</ele>
        <time>2021-11-10T23:24:58.692Z</time>
      </trkpt>
      <trkpt lat="47.555727" lon="7.846715">
        <ele>312.008941</ele>
        <time>2021-11-10T23:25:01.695Z</time>
      </trkpt>
      <trkpt lat="47.555199" lon="7.846687">
        <ele>312.644621</ele>
        <time>2021-11-10T23:25:11.661Z</time>
      </trkpt>
      <trkpt lat="47.555068" lon="7.846672">
        <ele>312.802706</ele>
        <time>2021-11-10T23:25:14.523Z</time>
      </trkpt>
      <trkpt lat="47.554995" lon="7.846915">
        <ele>313.018686</ele>
        <time>2021-11-10T23:25:18.248Z</time>
      </trkpt>
      <trkpt lat="47.554952" lon="7.847012">
        <ele>313.112922</ele>
        <time>2021-11-10T23:25:19.767Z</time>
      </trkpt>
      <trkpt lat="47.554892" lon="7.847148">
        <ele>313.244856</ele>
        <time>2021-11-10T23:25:22.217Z</time>
      </trkpt>
      <trkpt lat="47.554759" lon="7.847388">
        <ele>313.528949</ele>
        <time>2021-11-10T23:25:26.538Z</time>
      </trkpt>
      <trkpt lat="47.554665" lon="7.847547">
        <ele>313.732337</ele>
        <time>2021-11-10T23:25:29.606Z</time>
      </trkpt>
      <trkpt lat="47.554618" lon="7.847626">
        <ele>313.833670</ele>
        <time>2021-11-10T23:25:31.098Z</time>
      </trkpt>
      <trkpt lat="47.554465" lon="7.847858">
        <ele>314.145784</ele>
        <time>2021-11-10T23:25:35.733Z</time>
      </trkpt>
      <trkpt lat="47.554351" lon="7.848049">
        <ele>314.391125</ele>
        <time>2021-11-10T23:25:39.194Z</time>
      </trkpt>
      <trkpt lat="47.554269" lon="7.848188">
        <ele>314.568765</ele>
        <time>2021-11-10T23:25:41.726Z</time>
      </trkpt>
      <trkpt lat="47.554209" lon="7.848300">
        <ele>314.706357</ele>
        <time>2021-11-10T23:25:43.807Z</time>
      </trkpt>
      <trkpt lat="47.554055" lon="7.848586">
        <ele>315.058405</ele>
        <time>2021-11-10T23:25:48.675Z</time>
      </trkpt>
      <trkpt lat="47.553725" lon="7.849291">
        <ele>315.883955</ele>
        <time>2021-11-10T23:26:00.042Z</time>
      </trkpt>
      <trkpt lat="47.553605" lon="7.849629">
        <ele>316.378719</ele>
        <time>2021-11-10T23:26:05.497Z</time>
      </trkpt>
      <trkpt lat="47.553537" lon="7.849904">
        <ele>316.759426</ele>
        <time>2021-11-10T23:26:09.688Z</time>
      </trkpt>
      <trkpt lat="47.553380" lon="7.850453">
        <ele>317.534490</ele>
        <time>2021-11-10T23:26:18.540Z</time>
      </trkpt>
      <trkpt lat="47.553344" lon="7.850525">
        <ele>317.650969</ele>
        <time>2021-11-10T23:26:19.806Z</time>
      </trkpt>
      <trkpt lat="47.553283" lon="7.850634">
        <ele>317.835032</ele>
        <time>2021-11-10T23:26:21.860Z</time>
      </trkpt>
      <trkpt lat="47.552876" lon="7.851300">
        <ele>319.002936</ele>
        <time>2021-11-10T23:26:35.692Z</time>
      </trkpt>
      <trkpt lat="47.552678" lon="7.851709">
        <ele>319.857804</ele>
        <time>2021-11-10T23:26:44.374Z</time>
      </trkpt>
      <trkpt lat="47.552449" lon="7.852231">
        <ele>321.200718</ele>
        <time>2021-11-10T23:26:55.674Z</time>
      </trkpt>
      <trkpt lat="47.552272" lon="7.852167">
        <ele>321.783005</ele>
        <time>2021-11-10T23:27:01.074Z</time>
      </trkpt>
      <trkpt lat="47.552097" lon="7.852063">
        <ele>322.385611</ele>
        <time>2021-11-10T23:27:06.321Z</time>
      </trkpt>
      <trkpt lat="47.552042" lon="7.852007">
        <ele>322.598892</ele>
        <time>2021-11-10T23:27:08.721Z</time>
      </trkpt>
      <trkpt lat="47.551925" lon="7.851845">
        <ele>323.110682</ele>
        <time>2021-11-10T23:27:12.987Z</time>
      </trkpt>
      <trkpt lat="47.551830" lon="7.851603">
        <ele>323.714560</ele>
        <time>2021-11-10T23:27:18.809Z</time>
      </trkpt>
      <trkpt lat="47.551660" lon="7.851725">
        <ele>324.318251</ele>
        <time>2021-11-10T23:27:24.043Z</time>
      </trkpt>
      <trkpt lat="47.551516" lon="7.851950">
        <ele>324.987094</ele>
        <time>2021-11-10T23:27:30.601Z</time>
      </trkpt>
      <trkpt lat="47.550221" lon="7.853833">
        <ele>329.881294</ele>
        <time>2021-11-10T23:28:17.893Z</time>
      </trkpt>
      <trkpt lat="47.549883" lon="7.854434">
        <ele>330.263116</ele>
        <time>2021-11-10T23:28:28.013Z</time>
      </trkpt>
      <trkpt lat="47.549566" lon="7.855225">
        <ele>330.664180</ele>
        <time>2021-11-10T23:28:41.872Z</time>
      </trkpt>
      <trkpt lat="47.549362" lon="7.855774">
        <ele>330.937405</ele>
        <time>2021-11-10T23:28:50.360Z</time>
      </trkpt>
      <trkpt lat="47.548887" lon="7.857308">
        <ele>331.172882</ele>
        <time>2021-11-10T23:29:12.468Z</time>
      </trkpt>
      <trkpt lat="47.548743" lon="7.857692">
        <ele>331.198172</ele>
        <time>2021-11-10T23:29:18.440Z</time>
      </trkpt>
      <trkpt lat="47.548701" lon="7.857893">
        <ele>331.210286</ele>
        <time>2021-11-10T23:29:21.411Z</time>
      </trkpt>
      <trkpt lat="47.548686" lon="7.857973">
        <ele>331.215066</ele>
        <time>2021-11-10T23:29:22.535Z</time>
      </trkpt>
      <trkpt lat="47.548611" lon="7.858381">
        <ele>331.239410</ele>
        <time>2021-11-10T23:29:28.749Z</time>
      </trkpt>
      <trkpt lat="47.548334" lon="7.859801">
        <ele>332.195317</ele>
        <time>2021-11-10T23:29:51.786Z</time>
      </trkpt>
      <trkpt lat="47.548049" lon="7.860929">
        <ele>333.077026</ele>
        <time>2021-11-10T23:30:12.805Z</time>
      </trkpt>
      <trkpt lat="47.547930" lon="7.861711">
        <ele>333.911367</ele>
        <time>2021-11-10T23:30:27.568Z</time>
      </trkpt>
      <trkpt lat="47.547568" lon="7.863151">
        <ele>335.637693</ele>
        <time>2021-11-10T23:30:56.696Z</time>
      </trkpt>
      <trkpt lat="47.547320" lon="7.863864">
        <ele>336.219277</ele>
        <time>2021-11-10T23:31:10.636Z</time>
      </trkpt>
      <trkpt lat="47.546974" lon="7.864423">
        <ele>336.280276</ele>
        <time>2021-11-10T23:31:21.459Z</time>
      </trkpt>
      <trkpt lat="47.546885" lon="7.864500">
        <ele>336.292556</ele>
        <time>2021-11-10T23:31:24.544Z</time>
      </trkpt>
      <trkpt lat="47.546894" lon="7.864837">
        <ele>336.319681</ele>
        <time>2021-11-10T23:31:28.428Z</time>
      </trkpt>
      <trkpt lat="47.546889" lon="7.865225">
        <ele>336.350892</ele>
        <time>2021-11-10T23:31:33.853Z</time>
      </trkpt>
      <trkpt lat="47.546819" lon="7.865489">
        <ele>336.373703</ele>
        <time>2021-11-10T23:31:37.798Z</time>
      </trkpt>
      <trkpt lat="47.546510" lon="7.865766">
        <ele>336.358214</ele>
        <time>2021-11-10T23:31:44.432Z</time>
      </trkpt>
      <trkpt lat="47.546327" lon="7.865959">
        <ele>336.183827</ele>
        <time>2021-11-10T23:31:47.947Z</time>
      </trkpt>
      <trkpt lat="47.546096" lon="7.866147">
        <ele>335.979219</ele>
        <time>2021-11-10T23:31:52.503Z</time>
      </trkpt>
      <trkpt lat="47.545240" lon="7.866887">
        <ele>335.209827</ele>
        <time>2021-11-10T23:32:09.176Z</time>
      </trkpt>
      <trkpt lat="47.545160" lon="7.866985">
        <ele>335.129240</ele>
        <time>2021-11-10T23:32:11.132Z</time>
      </trkpt>
      <trkpt lat="47.545003" lon="7.867278">
        <ele>335.129545</ele>
        <time>2021-11-10T23:32:16.801Z</time>
      </trkpt>
      <trkpt lat="47.544568" lon="7.867693">
        <ele>335.720795</ele>
        <time>2021-11-10T23:32:29.591Z</time>
      </trkpt>
      <trkpt lat="47.544469" lon="7.867776">
        <ele>335.850787</ele>
        <time>2021-11-10T23:32:32.453Z</time>
      </trkpt>
      <trkpt lat="47.544410" lon="7.867825">
        <ele>335.928080</ele>
        <time>2021-11-10T23:32:34.542Z</time>
      </trkpt>
      <trkpt lat="47.544246" lon="7.867967">
        <ele>336.145153</ele>
        <time>2021-11-10T23:32:39.225Z</time>
      </trkpt>
      <trkpt lat="47.544214" lon="7.867988">
        <ele>336.185148</ele>
        <time>2021-11-10T23:32:40.073Z</time>
      </trkpt>
      <trkpt lat="47.543801" lon="7.868269">
        <ele>336.704497</ele>
        <time>2021-11-10T23:32:51.676Z</time>
      </trkpt>
      <trkpt lat="47.543657" lon="7.868359">
        <ele>336.883097</ele>
        <time>2021-11-10T23:32:56.026Z</time>
      </trkpt>
      <trkpt lat="47.543201" lon="7.868657">
        <ele>337.692339</ele>
        <time>2021-11-10T23:33:06.226Z</time>
      </trkpt>
      <trkpt lat="47.543105" lon="7.868711">
        <ele>337.882815</ele>
        <time>2021-11-10T23:33:08.810Z</time>
      </trkpt>
      <trkpt lat="47.543049" lon="7.868759">
        <ele>338.002825</ele>
        <time>2021-11-10T23:33:10.187Z</time>
      </trkpt>
      <trkpt lat="47.542722" lon="7.869201">
        <ele>338.823930</ele>
        <time>2021-11-10T23:33:20.915Z</time>
      </trkpt>
      <trkpt lat="47.542696" lon="7.869257">
        <ele>338.909034</ele>
        <time>2021-11-10T23:33:21.837Z</time>
      </trkpt>
      <trkpt lat="47.542657" lon="7.869354">
        <ele>339.050404</ele>
        <time>2021-11-10T23:33:23.679Z</time>
      </trkpt>
      <trkpt lat="47.542372" lon="7.869746">
        <ele>339.771789</ele>
        <time>2021-11-10T23:33:32.852Z</time>
      </trkpt>
      <trkpt lat="47.542329" lon="7.869820">
        <ele>339.894049</ele>
        <time>2021-11-10T23:33:34.456Z</time>
      </trkpt>
      <trkpt lat="47.542348" lon="7.869983">
        <ele>340.101170</ele>
        <time>2021-11-10T23:33:36.918Z</time>
      </trkpt>
      <trkpt lat="47.542317" lon="7.870012">
        <ele>340.169179</ele>
        <time>2021-11-10T23:33:37.647Z</time>
      </trkpt>
      <trkpt lat="47.542181" lon="7.870131">
        <ele>340.404347</ele>
        <time>2021-11-10T23:33:40.777Z</time>
      </trkpt>
      <trkpt lat="47.542118" lon="7.870135">
        <ele>340.404347</ele>
        <time>2021-11-10T23:33:42.217Z</time>
      </trkpt>
      <trkpt lat="47.542014" lon="7.870126">
        <ele>340.404347</ele>
        <time>2021-11-10T23:33:44.387Z</time>
      </trkpt>
      <trkpt lat="47.541910" lon="7.870106">
        <ele>340.404347</ele>
        <time>2021-11-10T23:33:46.201Z</time>
      </trkpt>
      <trkpt lat="47.541767" lon="7.869950">
        <ele>340.404347</ele>
        <time>2021-11-10T23:33:50.580Z</time>
      </trkpt>
      <trkpt lat="47.541740" lon="7.869932">
        <ele>340.404347</ele>
        <time>2021-11-10T23:33:51.436Z</time>
      </trkpt>
      <trkpt lat="47.541608" lon="7.869870">
        <ele>340.404347</ele>
        <time>2021-11-10T23:33:54.719Z</time>
      </trkpt>
      <trkpt lat="47.541588" lon="7.869858">
        <ele>340.404347</ele>
        <time>2021-11-10T23:33:55.322Z</time>
      </trkpt>
      <trkpt lat="47.541505" lon="7.869809">
        <ele>340.404347</ele>
        <time>2021-11-10T23:33:57.414Z</time>
      </trkpt>
      <trkpt lat="47.541417" lon="7.869780">
        <ele>340.404347</ele>
        <time>2021-11-10T23:33:59.799Z</time>
      </trkpt>
      <trkpt lat="47.541380" lon="7.869813">
        <ele>340.404347</ele>
        <time>2021-11-10T23:34:00.862Z</time>
      </trkpt>
      <trkpt lat="47.541369" lon="7.869803">
        <ele>340.404347</ele>
        <time>2021-11-10T23:34:01.327Z</time>
      </trkpt>
    </trkseg>
  </trk>
</gpx>